<?xml version="1.0" encoding="UTF-8" standalone="no" ?>
<gpx xmlns="http://www.topografix.com/GPX/1/1" xmlns:xsi="http://www.w3.org/2001/XMLSchema-instance" xsi:schemaLocation="http://www.topografix.com/GPX/1/1 http://www.topografix.com/GPX/1/1/gpx.xsd" version="1.1" creator="VisuGPX - https://www.visugpx.com">
  <metadata>
    <name>La montée impossible du Rocher des Vierges - 29063 - UtagawaVTT.com</name>
  </metadata>
  <trk>
    <name><![CDATA[La montée impossible du Rocher des Vierges - 29063 - UtagawaVTT.com]]></name>
    <trkseg>
      <trkpt lat="43.682" lon="3.41065">
        <ele>102.497345</ele>
        <time>2020-10-10T07:06:59Z</time>
      </trkpt>
      <trkpt lat="43.68202" lon="3.41067">
        <ele>102.539871</ele>
        <time>2020-10-10T07:07:25Z</time>
      </trkpt>
      <trkpt lat="43.68201" lon="3.41068">
        <ele>102.458603</ele>
        <time>2020-10-10T07:07:46Z</time>
      </trkpt>
      <trkpt lat="43.68204" lon="3.41074">
        <ele>102.488747</ele>
        <time>2020-10-10T07:07:52Z</time>
      </trkpt>
      <trkpt lat="43.68226" lon="3.4105">
        <ele>104.377502</ele>
        <time>2020-10-10T07:08:08Z</time>
      </trkpt>
      <trkpt lat="43.68258" lon="3.41045">
        <ele>107.218002</ele>
        <time>2020-10-10T07:08:23Z</time>
      </trkpt>
      <trkpt lat="43.68469" lon="3.41171">
        <ele>119.6325</ele>
        <time>2020-10-10T07:09:45Z</time>
      </trkpt>
      <trkpt lat="43.68497" lon="3.41218">
        <ele>119.829689</ele>
        <time>2020-10-10T07:10:02Z</time>
      </trkpt>
      <trkpt lat="43.68511" lon="3.41372">
        <ele>111.66922</ele>
        <time>2020-10-10T07:10:41Z</time>
      </trkpt>
      <trkpt lat="43.68521" lon="3.41436">
        <ele>109.693253</ele>
        <time>2020-10-10T07:10:53Z</time>
      </trkpt>
      <trkpt lat="43.68526" lon="3.41449">
        <ele>109.764648</ele>
        <time>2020-10-10T07:10:58Z</time>
      </trkpt>
      <trkpt lat="43.68551" lon="3.41485">
        <ele>107.280449</ele>
        <time>2020-10-10T07:11:12Z</time>
      </trkpt>
      <trkpt lat="43.6858" lon="3.41496">
        <ele>105.368378</ele>
        <time>2020-10-10T07:11:23Z</time>
      </trkpt>
      <trkpt lat="43.68615" lon="3.41481">
        <ele>105.352501</ele>
        <time>2020-10-10T07:11:39Z</time>
      </trkpt>
      <trkpt lat="43.68621" lon="3.41472">
        <ele>106.292503</ele>
        <time>2020-10-10T07:11:51Z</time>
      </trkpt>
      <trkpt lat="43.68665" lon="3.41458">
        <ele>102.639862</ele>
        <time>2020-10-10T07:12:17Z</time>
      </trkpt>
      <trkpt lat="43.68721" lon="3.41422">
        <ele>101.055</ele>
        <time>2020-10-10T07:12:37Z</time>
      </trkpt>
      <trkpt lat="43.6875" lon="3.41395">
        <ele>102.613564</ele>
        <time>2020-10-10T07:12:47Z</time>
      </trkpt>
      <trkpt lat="43.68782" lon="3.4136">
        <ele>99.498573</ele>
        <time>2020-10-10T07:12:56Z</time>
      </trkpt>
      <trkpt lat="43.68802" lon="3.41335">
        <ele>103.064667</ele>
        <time>2020-10-10T07:13:04Z</time>
      </trkpt>
      <trkpt lat="43.68833" lon="3.41324">
        <ele>96.113998</ele>
        <time>2020-10-10T07:13:20Z</time>
      </trkpt>
      <trkpt lat="43.68864" lon="3.41309">
        <ele>96.466972</ele>
        <time>2020-10-10T07:13:33Z</time>
      </trkpt>
      <trkpt lat="43.68865" lon="3.41315">
        <ele>96.840096</ele>
        <time>2020-10-10T07:13:35Z</time>
      </trkpt>
      <trkpt lat="43.68844" lon="3.41361">
        <ele>97.48497</ele>
        <time>2020-10-10T07:13:51Z</time>
      </trkpt>
      <trkpt lat="43.68828" lon="3.41412">
        <ele>98.259399</ele>
        <time>2020-10-10T07:14:09Z</time>
      </trkpt>
      <trkpt lat="43.68808" lon="3.41461">
        <ele>98.862953</ele>
        <time>2020-10-10T07:14:25Z</time>
      </trkpt>
      <trkpt lat="43.68806" lon="3.41507">
        <ele>101.811058</ele>
        <time>2020-10-10T07:14:38Z</time>
      </trkpt>
      <trkpt lat="43.68827" lon="3.41537">
        <ele>107.943848</ele>
        <time>2020-10-10T07:14:50Z</time>
      </trkpt>
      <trkpt lat="43.68853" lon="3.41522">
        <ele>110.107498</ele>
        <time>2020-10-10T07:15:02Z</time>
      </trkpt>
      <trkpt lat="43.68883" lon="3.41486">
        <ele>110.546173</ele>
        <time>2020-10-10T07:15:15Z</time>
      </trkpt>
      <trkpt lat="43.68909" lon="3.41489">
        <ele>112.447716</ele>
        <time>2020-10-10T07:15:28Z</time>
      </trkpt>
      <trkpt lat="43.68923" lon="3.41504">
        <ele>114.739861</ele>
        <time>2020-10-10T07:15:38Z</time>
      </trkpt>
      <trkpt lat="43.68929" lon="3.41525">
        <ele>117.143486</ele>
        <time>2020-10-10T07:15:49Z</time>
      </trkpt>
      <trkpt lat="43.68905" lon="3.41552">
        <ele>118.083984</ele>
        <time>2020-10-10T07:16:05Z</time>
      </trkpt>
      <trkpt lat="43.68894" lon="3.41577">
        <ele>119.054001</ele>
        <time>2020-10-10T07:16:17Z</time>
      </trkpt>
      <trkpt lat="43.68898" lon="3.41602">
        <ele>121.548592</ele>
        <time>2020-10-10T07:16:28Z</time>
      </trkpt>
      <trkpt lat="43.68919" lon="3.41609">
        <ele>124.994583</ele>
        <time>2020-10-10T07:16:41Z</time>
      </trkpt>
      <trkpt lat="43.68942" lon="3.4161">
        <ele>127.960838</ele>
        <time>2020-10-10T07:16:54Z</time>
      </trkpt>
      <trkpt lat="43.68964" lon="3.41613">
        <ele>131.092453</ele>
        <time>2020-10-10T07:17:06Z</time>
      </trkpt>
      <trkpt lat="43.68985" lon="3.41623">
        <ele>133.057541</ele>
        <time>2020-10-10T07:17:19Z</time>
      </trkpt>
      <trkpt lat="43.69017" lon="3.4163">
        <ele>136.963318</ele>
        <time>2020-10-10T07:17:37Z</time>
      </trkpt>
      <trkpt lat="43.69055" lon="3.41652">
        <ele>144.436966</ele>
        <time>2020-10-10T07:18:03Z</time>
      </trkpt>
      <trkpt lat="43.69074" lon="3.41658">
        <ele>147.049911</ele>
        <time>2020-10-10T07:18:16Z</time>
      </trkpt>
      <trkpt lat="43.69093" lon="3.4166">
        <ele>149.485229</ele>
        <time>2020-10-10T07:18:29Z</time>
      </trkpt>
      <trkpt lat="43.69114" lon="3.41673">
        <ele>152.627548</ele>
        <time>2020-10-10T07:18:43Z</time>
      </trkpt>
      <trkpt lat="43.69177" lon="3.41771">
        <ele>155.214996</ele>
        <time>2020-10-10T07:19:19Z</time>
      </trkpt>
      <trkpt lat="43.69232" lon="3.4189">
        <ele>153.328918</ele>
        <time>2020-10-10T07:19:51Z</time>
      </trkpt>
      <trkpt lat="43.6927" lon="3.41914">
        <ele>153.812805</ele>
        <time>2020-10-10T07:20:04Z</time>
      </trkpt>
      <trkpt lat="43.69292" lon="3.41908">
        <ele>154.837677</ele>
        <time>2020-10-10T07:20:09Z</time>
      </trkpt>
      <trkpt lat="43.69309" lon="3.41894">
        <ele>156.467102</ele>
        <time>2020-10-10T07:20:17Z</time>
      </trkpt>
      <trkpt lat="43.69314" lon="3.41819">
        <ele>159.716766</ele>
        <time>2020-10-10T07:20:42Z</time>
      </trkpt>
      <trkpt lat="43.69322" lon="3.41766">
        <ele>159.605759</ele>
        <time>2020-10-10T07:21:00Z</time>
      </trkpt>
      <trkpt lat="43.69332" lon="3.41773">
        <ele>156.524094</ele>
        <time>2020-10-10T07:21:05Z</time>
      </trkpt>
      <trkpt lat="43.69352" lon="3.41819">
        <ele>156.522141</ele>
        <time>2020-10-10T07:21:20Z</time>
      </trkpt>
      <trkpt lat="43.6937" lon="3.41868">
        <ele>159.008408</ele>
        <time>2020-10-10T07:21:34Z</time>
      </trkpt>
      <trkpt lat="43.69392" lon="3.41918">
        <ele>158.824997</ele>
        <time>2020-10-10T07:21:48Z</time>
      </trkpt>
      <trkpt lat="43.694" lon="3.41955">
        <ele>159.198196</ele>
        <time>2020-10-10T07:21:56Z</time>
      </trkpt>
      <trkpt lat="43.6945" lon="3.41971">
        <ele>157.33403</ele>
        <time>2020-10-10T07:22:12Z</time>
      </trkpt>
      <trkpt lat="43.69482" lon="3.4197">
        <ele>156.569107</ele>
        <time>2020-10-10T07:22:24Z</time>
      </trkpt>
      <trkpt lat="43.69506" lon="3.41979">
        <ele>157.175751</ele>
        <time>2020-10-10T07:22:36Z</time>
      </trkpt>
      <trkpt lat="43.69554" lon="3.42035">
        <ele>162.951736</ele>
        <time>2020-10-10T07:23:03Z</time>
      </trkpt>
      <trkpt lat="43.69598" lon="3.42122">
        <ele>170.958679</ele>
        <time>2020-10-10T07:23:33Z</time>
      </trkpt>
      <trkpt lat="43.6962" lon="3.42124">
        <ele>173.007339</ele>
        <time>2020-10-10T07:23:45Z</time>
      </trkpt>
      <trkpt lat="43.69644" lon="3.42142">
        <ele>173.301804</ele>
        <time>2020-10-10T07:23:59Z</time>
      </trkpt>
      <trkpt lat="43.69669" lon="3.42182">
        <ele>178.948746</ele>
        <time>2020-10-10T07:24:16Z</time>
      </trkpt>
      <trkpt lat="43.69692" lon="3.42225">
        <ele>178.01178</ele>
        <time>2020-10-10T07:24:30Z</time>
      </trkpt>
      <trkpt lat="43.69708" lon="3.42286">
        <ele>179.284561</ele>
        <time>2020-10-10T07:24:46Z</time>
      </trkpt>
      <trkpt lat="43.69719" lon="3.42336">
        <ele>179.643188</ele>
        <time>2020-10-10T07:24:56Z</time>
      </trkpt>
      <trkpt lat="43.69717" lon="3.42379">
        <ele>177.071793</ele>
        <time>2020-10-10T07:25:02Z</time>
      </trkpt>
      <trkpt lat="43.69726" lon="3.42422">
        <ele>173.185883</ele>
        <time>2020-10-10T07:25:08Z</time>
      </trkpt>
      <trkpt lat="43.69741" lon="3.4247">
        <ele>172.407883</ele>
        <time>2020-10-10T07:25:19Z</time>
      </trkpt>
      <trkpt lat="43.69762" lon="3.42521">
        <ele>176.038651</ele>
        <time>2020-10-10T07:25:35Z</time>
      </trkpt>
      <trkpt lat="43.69776" lon="3.42575">
        <ele>179.025406</ele>
        <time>2020-10-10T07:25:50Z</time>
      </trkpt>
      <trkpt lat="43.69799" lon="3.42598">
        <ele>181.32637</ele>
        <time>2020-10-10T07:26:02Z</time>
      </trkpt>
      <trkpt lat="43.69814" lon="3.42633">
        <ele>182.874725</ele>
        <time>2020-10-10T07:26:14Z</time>
      </trkpt>
      <trkpt lat="43.69825" lon="3.42648">
        <ele>181.983002</ele>
        <time>2020-10-10T07:26:27Z</time>
      </trkpt>
      <trkpt lat="43.69851" lon="3.42728">
        <ele>181.068954</ele>
        <time>2020-10-10T07:27:42Z</time>
      </trkpt>
      <trkpt lat="43.69862" lon="3.42788">
        <ele>179.246994</ele>
        <time>2020-10-10T07:27:50Z</time>
      </trkpt>
      <trkpt lat="43.69874" lon="3.42818">
        <ele>178.671188</ele>
        <time>2020-10-10T07:27:54Z</time>
      </trkpt>
      <trkpt lat="43.69877" lon="3.42847">
        <ele>179.47525</ele>
        <time>2020-10-10T07:27:58Z</time>
      </trkpt>
      <trkpt lat="43.69911" lon="3.42917">
        <ele>177.145142</ele>
        <time>2020-10-10T07:28:11Z</time>
      </trkpt>
      <trkpt lat="43.69941" lon="3.42952">
        <ele>173.971878</ele>
        <time>2020-10-10T07:28:19Z</time>
      </trkpt>
      <trkpt lat="43.69953" lon="3.42998">
        <ele>172.104996</ele>
        <time>2020-10-10T07:28:26Z</time>
      </trkpt>
      <trkpt lat="43.69987" lon="3.43017">
        <ele>170.398407</ele>
        <time>2020-10-10T07:28:36Z</time>
      </trkpt>
      <trkpt lat="43.70001" lon="3.43028">
        <ele>169.102402</ele>
        <time>2020-10-10T07:28:40Z</time>
      </trkpt>
      <trkpt lat="43.70031" lon="3.43069">
        <ele>168.462006</ele>
        <time>2020-10-10T07:28:49Z</time>
      </trkpt>
      <trkpt lat="43.70053" lon="3.43111">
        <ele>167.790268</ele>
        <time>2020-10-10T07:28:59Z</time>
      </trkpt>
      <trkpt lat="43.70056" lon="3.43146">
        <ele>168.434708</ele>
        <time>2020-10-10T07:29:11Z</time>
      </trkpt>
      <trkpt lat="43.70056" lon="3.43145">
        <ele>168.405457</ele>
        <time>2020-10-10T07:30:47Z</time>
      </trkpt>
      <trkpt lat="43.70074" lon="3.43183">
        <ele>171.230301</ele>
        <time>2020-10-10T07:31:04Z</time>
      </trkpt>
      <trkpt lat="43.70098" lon="3.4322">
        <ele>172.245651</ele>
        <time>2020-10-10T07:31:21Z</time>
      </trkpt>
      <trkpt lat="43.70165" lon="3.43249">
        <ele>179.09935</ele>
        <time>2020-10-10T07:31:49Z</time>
      </trkpt>
      <trkpt lat="43.7022" lon="3.4326">
        <ele>180.816696</ele>
        <time>2020-10-10T07:32:07Z</time>
      </trkpt>
      <trkpt lat="43.70258" lon="3.43264">
        <ele>181.294525</ele>
        <time>2020-10-10T07:32:21Z</time>
      </trkpt>
      <trkpt lat="43.70302" lon="3.43287">
        <ele>180.951569</ele>
        <time>2020-10-10T07:32:35Z</time>
      </trkpt>
      <trkpt lat="43.70347" lon="3.43327">
        <ele>181.6707</ele>
        <time>2020-10-10T07:32:51Z</time>
      </trkpt>
      <trkpt lat="43.70375" lon="3.43361">
        <ele>182.728409</ele>
        <time>2020-10-10T07:33:02Z</time>
      </trkpt>
      <trkpt lat="43.70408" lon="3.43395">
        <ele>183.605591</ele>
        <time>2020-10-10T07:33:17Z</time>
      </trkpt>
      <trkpt lat="43.70435" lon="3.43458">
        <ele>186.136002</ele>
        <time>2020-10-10T07:33:34Z</time>
      </trkpt>
      <trkpt lat="43.70467" lon="3.43509">
        <ele>189.617844</ele>
        <time>2020-10-10T07:33:48Z</time>
      </trkpt>
      <trkpt lat="43.70481" lon="3.43522">
        <ele>189.28363</ele>
        <time>2020-10-10T07:33:58Z</time>
      </trkpt>
      <trkpt lat="43.70483" lon="3.43515">
        <ele>189.037506</ele>
        <time>2020-10-10T07:34:12Z</time>
      </trkpt>
      <trkpt lat="43.70481" lon="3.43513">
        <ele>189.123901</ele>
        <time>2020-10-10T07:34:58Z</time>
      </trkpt>
      <trkpt lat="43.7048" lon="3.43521">
        <ele>189.369431</ele>
        <time>2020-10-10T07:39:01Z</time>
      </trkpt>
      <trkpt lat="43.70507" lon="3.43583">
        <ele>190.396805</ele>
        <time>2020-10-10T07:39:23Z</time>
      </trkpt>
      <trkpt lat="43.70541" lon="3.43647">
        <ele>193.220444</ele>
        <time>2020-10-10T07:39:43Z</time>
      </trkpt>
      <trkpt lat="43.7057" lon="3.43678">
        <ele>196.145004</ele>
        <time>2020-10-10T07:39:57Z</time>
      </trkpt>
      <trkpt lat="43.70586" lon="3.43724">
        <ele>197.800171</ele>
        <time>2020-10-10T07:40:11Z</time>
      </trkpt>
      <trkpt lat="43.70587" lon="3.43763">
        <ele>199.167496</ele>
        <time>2020-10-10T07:40:24Z</time>
      </trkpt>
      <trkpt lat="43.70562" lon="3.4379">
        <ele>196.433151</ele>
        <time>2020-10-10T07:40:36Z</time>
      </trkpt>
      <trkpt lat="43.70519" lon="3.43796">
        <ele>187.194778</ele>
        <time>2020-10-10T07:40:51Z</time>
      </trkpt>
      <trkpt lat="43.70475" lon="3.43816">
        <ele>177.971252</ele>
        <time>2020-10-10T07:41:10Z</time>
      </trkpt>
      <trkpt lat="43.70453" lon="3.43815">
        <ele>174.379929</ele>
        <time>2020-10-10T07:41:18Z</time>
      </trkpt>
      <trkpt lat="43.70446" lon="3.43819">
        <ele>173.137329</ele>
        <time>2020-10-10T07:41:20Z</time>
      </trkpt>
      <trkpt lat="43.7044" lon="3.43849">
        <ele>171.0802</ele>
        <time>2020-10-10T07:41:25Z</time>
      </trkpt>
      <trkpt lat="43.70471" lon="3.43938">
        <ele>172.439484</ele>
        <time>2020-10-10T07:41:49Z</time>
      </trkpt>
      <trkpt lat="43.70499" lon="3.44002">
        <ele>173.401947</ele>
        <time>2020-10-10T07:42:03Z</time>
      </trkpt>
      <trkpt lat="43.70508" lon="3.4402">
        <ele>173.94696</ele>
        <time>2020-10-10T07:42:07Z</time>
      </trkpt>
      <trkpt lat="43.7053" lon="3.44043">
        <ele>176.481171</ele>
        <time>2020-10-10T07:42:19Z</time>
      </trkpt>
      <trkpt lat="43.70551" lon="3.44024">
        <ele>179.689301</ele>
        <time>2020-10-10T07:42:29Z</time>
      </trkpt>
      <trkpt lat="43.70592" lon="3.44012">
        <ele>184.106567</ele>
        <time>2020-10-10T07:42:45Z</time>
      </trkpt>
      <trkpt lat="43.70644" lon="3.43983">
        <ele>185.939743</ele>
        <time>2020-10-10T07:43:04Z</time>
      </trkpt>
      <trkpt lat="43.70672" lon="3.43988">
        <ele>186.361954</ele>
        <time>2020-10-10T07:43:14Z</time>
      </trkpt>
      <trkpt lat="43.7072" lon="3.44023">
        <ele>188.231125</ele>
        <time>2020-10-10T07:43:32Z</time>
      </trkpt>
      <trkpt lat="43.7074" lon="3.44091">
        <ele>192.06131</ele>
        <time>2020-10-10T07:43:50Z</time>
      </trkpt>
      <trkpt lat="43.70754" lon="3.44175">
        <ele>195.797867</ele>
        <time>2020-10-10T07:44:10Z</time>
      </trkpt>
      <trkpt lat="43.70754" lon="3.44242">
        <ele>193.991974</ele>
        <time>2020-10-10T07:44:22Z</time>
      </trkpt>
      <trkpt lat="43.70766" lon="3.44293">
        <ele>189.83194</ele>
        <time>2020-10-10T07:44:29Z</time>
      </trkpt>
      <trkpt lat="43.70773" lon="3.44406">
        <ele>186.223953</ele>
        <time>2020-10-10T07:44:41Z</time>
      </trkpt>
      <trkpt lat="43.70791" lon="3.44444">
        <ele>187.324402</ele>
        <time>2020-10-10T07:44:47Z</time>
      </trkpt>
      <trkpt lat="43.70822" lon="3.4447">
        <ele>190.610031</ele>
        <time>2020-10-10T07:45:02Z</time>
      </trkpt>
      <trkpt lat="43.70853" lon="3.4447">
        <ele>192.268143</ele>
        <time>2020-10-10T07:45:17Z</time>
      </trkpt>
      <trkpt lat="43.70882" lon="3.44488">
        <ele>194.183868</ele>
        <time>2020-10-10T07:45:32Z</time>
      </trkpt>
      <trkpt lat="43.70894" lon="3.44527">
        <ele>193.729324</ele>
        <time>2020-10-10T07:45:43Z</time>
      </trkpt>
      <trkpt lat="43.70897" lon="3.44565">
        <ele>192.304993</ele>
        <time>2020-10-10T07:45:48Z</time>
      </trkpt>
      <trkpt lat="43.70897" lon="3.44592">
        <ele>191.417496</ele>
        <time>2020-10-10T07:45:51Z</time>
      </trkpt>
      <trkpt lat="43.70905" lon="3.44645">
        <ele>190.102493</ele>
        <time>2020-10-10T07:45:57Z</time>
      </trkpt>
      <trkpt lat="43.70926" lon="3.44696">
        <ele>190.634323</ele>
        <time>2020-10-10T07:46:08Z</time>
      </trkpt>
      <trkpt lat="43.7095" lon="3.44735">
        <ele>192.1259</ele>
        <time>2020-10-10T07:46:20Z</time>
      </trkpt>
      <trkpt lat="43.70948" lon="3.44819">
        <ele>192.172501</ele>
        <time>2020-10-10T07:46:37Z</time>
      </trkpt>
      <trkpt lat="43.70934" lon="3.44852">
        <ele>189.097504</ele>
        <time>2020-10-10T07:46:46Z</time>
      </trkpt>
      <trkpt lat="43.70904" lon="3.44852">
        <ele>187.23175</ele>
        <time>2020-10-10T07:46:53Z</time>
      </trkpt>
      <trkpt lat="43.70905" lon="3.44867">
        <ele>186.368805</ele>
        <time>2020-10-10T07:46:57Z</time>
      </trkpt>
      <trkpt lat="43.70925" lon="3.44899">
        <ele>189.116272</ele>
        <time>2020-10-10T07:47:13Z</time>
      </trkpt>
      <trkpt lat="43.7093" lon="3.4492">
        <ele>190.135422</ele>
        <time>2020-10-10T07:47:22Z</time>
      </trkpt>
      <trkpt lat="43.70919" lon="3.44931">
        <ele>192.073761</ele>
        <time>2020-10-10T07:47:33Z</time>
      </trkpt>
      <trkpt lat="43.70893" lon="3.44924">
        <ele>194.055832</ele>
        <time>2020-10-10T07:47:48Z</time>
      </trkpt>
      <trkpt lat="43.70868" lon="3.44933">
        <ele>197.428925</ele>
        <time>2020-10-10T07:48:05Z</time>
      </trkpt>
      <trkpt lat="43.70856" lon="3.44957">
        <ele>198.729889</ele>
        <time>2020-10-10T07:48:19Z</time>
      </trkpt>
      <trkpt lat="43.70876" lon="3.44976">
        <ele>201.729538</ele>
        <time>2020-10-10T07:48:35Z</time>
      </trkpt>
      <trkpt lat="43.70895" lon="3.45007">
        <ele>207.432816</ele>
        <time>2020-10-10T07:48:53Z</time>
      </trkpt>
      <trkpt lat="43.70945" lon="3.45024">
        <ele>211.608475</ele>
        <time>2020-10-10T07:49:23Z</time>
      </trkpt>
      <trkpt lat="43.70971" lon="3.45043">
        <ele>212.45665</ele>
        <time>2020-10-10T07:49:40Z</time>
      </trkpt>
      <trkpt lat="43.70984" lon="3.45068">
        <ele>217.607559</ele>
        <time>2020-10-10T07:49:53Z</time>
      </trkpt>
      <trkpt lat="43.71011" lon="3.4514">
        <ele>230.877502</ele>
        <time>2020-10-10T07:50:22Z</time>
      </trkpt>
      <trkpt lat="43.71042" lon="3.45149">
        <ele>230.389877</ele>
        <time>2020-10-10T07:50:41Z</time>
      </trkpt>
      <trkpt lat="43.71056" lon="3.45157">
        <ele>231.960693</ele>
        <time>2020-10-10T07:50:50Z</time>
      </trkpt>
      <trkpt lat="43.71065" lon="3.45176">
        <ele>235.67601</ele>
        <time>2020-10-10T07:51:01Z</time>
      </trkpt>
      <trkpt lat="43.71076" lon="3.45191">
        <ele>238.638321</ele>
        <time>2020-10-10T07:51:11Z</time>
      </trkpt>
      <trkpt lat="43.71117" lon="3.45234">
        <ele>245.633438</ele>
        <time>2020-10-10T07:51:43Z</time>
      </trkpt>
      <trkpt lat="43.71155" lon="3.45296">
        <ele>255.493256</ele>
        <time>2020-10-10T07:52:18Z</time>
      </trkpt>
      <trkpt lat="43.71158" lon="3.45327">
        <ele>261.781555</ele>
        <time>2020-10-10T07:52:33Z</time>
      </trkpt>
      <trkpt lat="43.71163" lon="3.45333">
        <ele>262.587921</ele>
        <time>2020-10-10T07:52:37Z</time>
      </trkpt>
      <trkpt lat="43.71171" lon="3.45332">
        <ele>261.714355</ele>
        <time>2020-10-10T07:52:41Z</time>
      </trkpt>
      <trkpt lat="43.71178" lon="3.45337">
        <ele>262.240906</ele>
        <time>2020-10-10T07:52:46Z</time>
      </trkpt>
      <trkpt lat="43.71211" lon="3.45388">
        <ele>272.640045</ele>
        <time>2020-10-10T07:53:15Z</time>
      </trkpt>
      <trkpt lat="43.71228" lon="3.45391">
        <ele>272.924683</ele>
        <time>2020-10-10T07:53:25Z</time>
      </trkpt>
      <trkpt lat="43.71246" lon="3.45408">
        <ele>276.951874</ele>
        <time>2020-10-10T07:53:39Z</time>
      </trkpt>
      <trkpt lat="43.7125" lon="3.45422">
        <ele>280.532806</ele>
        <time>2020-10-10T07:53:46Z</time>
      </trkpt>
      <trkpt lat="43.7123" lon="3.4543">
        <ele>282.602509</ele>
        <time>2020-10-10T07:53:59Z</time>
      </trkpt>
      <trkpt lat="43.71215" lon="3.45429">
        <ele>282.371796</ele>
        <time>2020-10-10T07:54:09Z</time>
      </trkpt>
      <trkpt lat="43.71215" lon="3.45437">
        <ele>284.268738</ele>
        <time>2020-10-10T07:54:13Z</time>
      </trkpt>
      <trkpt lat="43.71226" lon="3.45461">
        <ele>289.792511</ele>
        <time>2020-10-10T07:54:26Z</time>
      </trkpt>
      <trkpt lat="43.7123" lon="3.45486">
        <ele>295.304993</ele>
        <time>2020-10-10T07:54:37Z</time>
      </trkpt>
      <trkpt lat="43.71248" lon="3.45502">
        <ele>298.912598</ele>
        <time>2020-10-10T07:54:51Z</time>
      </trkpt>
      <trkpt lat="43.71274" lon="3.45511">
        <ele>300.6297</ele>
        <time>2020-10-10T07:55:08Z</time>
      </trkpt>
      <trkpt lat="43.71293" lon="3.45507">
        <ele>299.835724</ele>
        <time>2020-10-10T07:55:19Z</time>
      </trkpt>
      <trkpt lat="43.71362" lon="3.45502">
        <ele>302.460052</ele>
        <time>2020-10-10T07:55:59Z</time>
      </trkpt>
      <trkpt lat="43.71363" lon="3.45516">
        <ele>305.690002</ele>
        <time>2020-10-10T07:56:06Z</time>
      </trkpt>
      <trkpt lat="43.71302" lon="3.45537">
        <ele>306.661774</ele>
        <time>2020-10-10T07:56:34Z</time>
      </trkpt>
      <trkpt lat="43.71276" lon="3.45575">
        <ele>314.759308</ele>
        <time>2020-10-10T07:56:56Z</time>
      </trkpt>
      <trkpt lat="43.71281" lon="3.45591">
        <ele>318.517181</ele>
        <time>2020-10-10T07:57:20Z</time>
      </trkpt>
      <trkpt lat="43.71278" lon="3.45595">
        <ele>319.347137</ele>
        <time>2020-10-10T07:57:36Z</time>
      </trkpt>
      <trkpt lat="43.71256" lon="3.45605">
        <ele>321.541534</ele>
        <time>2020-10-10T07:57:53Z</time>
      </trkpt>
      <trkpt lat="43.71239" lon="3.45607">
        <ele>323.691864</ele>
        <time>2020-10-10T07:58:02Z</time>
      </trkpt>
      <trkpt lat="43.71221" lon="3.45603">
        <ele>324.450348</ele>
        <time>2020-10-10T07:58:13Z</time>
      </trkpt>
      <trkpt lat="43.71196" lon="3.45593">
        <ele>324.805511</ele>
        <time>2020-10-10T07:58:29Z</time>
      </trkpt>
      <trkpt lat="43.71174" lon="3.45596">
        <ele>329.157104</ele>
        <time>2020-10-10T07:58:45Z</time>
      </trkpt>
      <trkpt lat="43.71159" lon="3.45611">
        <ele>335.367554</ele>
        <time>2020-10-10T07:58:57Z</time>
      </trkpt>
      <trkpt lat="43.71153" lon="3.45623">
        <ele>339.529327</ele>
        <time>2020-10-10T07:59:03Z</time>
      </trkpt>
      <trkpt lat="43.71144" lon="3.4563">
        <ele>342.405945</ele>
        <time>2020-10-10T07:59:46Z</time>
      </trkpt>
      <trkpt lat="43.71149" lon="3.45654">
        <ele>346.490448</ele>
        <time>2020-10-10T08:01:21Z</time>
      </trkpt>
      <trkpt lat="43.71142" lon="3.45665">
        <ele>349.542419</ele>
        <time>2020-10-10T08:01:37Z</time>
      </trkpt>
      <trkpt lat="43.71127" lon="3.45674">
        <ele>352.572174</ele>
        <time>2020-10-10T08:02:12Z</time>
      </trkpt>
      <trkpt lat="43.71132" lon="3.45694">
        <ele>356.416565</ele>
        <time>2020-10-10T08:02:33Z</time>
      </trkpt>
      <trkpt lat="43.71141" lon="3.45714">
        <ele>360.752747</ele>
        <time>2020-10-10T08:02:56Z</time>
      </trkpt>
      <trkpt lat="43.71141" lon="3.45737">
        <ele>366.441223</ele>
        <time>2020-10-10T08:03:33Z</time>
      </trkpt>
      <trkpt lat="43.71147" lon="3.45761">
        <ele>372.252716</ele>
        <time>2020-10-10T08:04:47Z</time>
      </trkpt>
      <trkpt lat="43.71146" lon="3.45783">
        <ele>377.724091</ele>
        <time>2020-10-10T08:05:25Z</time>
      </trkpt>
      <trkpt lat="43.71143" lon="3.45794">
        <ele>380.62738</ele>
        <time>2020-10-10T08:06:04Z</time>
      </trkpt>
      <trkpt lat="43.71133" lon="3.45805">
        <ele>383.00647</ele>
        <time>2020-10-10T08:06:23Z</time>
      </trkpt>
      <trkpt lat="43.71114" lon="3.45814">
        <ele>385.829987</ele>
        <time>2020-10-10T08:07:06Z</time>
      </trkpt>
      <trkpt lat="43.71087" lon="3.45808">
        <ele>386.317505</ele>
        <time>2020-10-10T08:07:22Z</time>
      </trkpt>
      <trkpt lat="43.71057" lon="3.45797">
        <ele>386.735107</ele>
        <time>2020-10-10T08:07:38Z</time>
      </trkpt>
      <trkpt lat="43.71003" lon="3.45792">
        <ele>391.394714</ele>
        <time>2020-10-10T08:08:06Z</time>
      </trkpt>
      <trkpt lat="43.70984" lon="3.45803">
        <ele>394.184052</ele>
        <time>2020-10-10T08:08:19Z</time>
      </trkpt>
      <trkpt lat="43.70943" lon="3.45844">
        <ele>407.725708</ele>
        <time>2020-10-10T08:08:52Z</time>
      </trkpt>
      <trkpt lat="43.70932" lon="3.45862">
        <ele>413.228729</ele>
        <time>2020-10-10T08:09:35Z</time>
      </trkpt>
      <trkpt lat="43.70935" lon="3.45874">
        <ele>416.938843</ele>
        <time>2020-10-10T08:10:15Z</time>
      </trkpt>
      <trkpt lat="43.70944" lon="3.45895">
        <ele>422.985992</ele>
        <time>2020-10-10T08:11:13Z</time>
      </trkpt>
      <trkpt lat="43.70951" lon="3.45903">
        <ele>424.750885</ele>
        <time>2020-10-10T08:11:29Z</time>
      </trkpt>
      <trkpt lat="43.70969" lon="3.45949">
        <ele>435.233246</ele>
        <time>2020-10-10T08:14:40Z</time>
      </trkpt>
      <trkpt lat="43.70979" lon="3.45954">
        <ele>436.548645</ele>
        <time>2020-10-10T08:14:59Z</time>
      </trkpt>
      <trkpt lat="43.70975" lon="3.45967">
        <ele>439.297913</ele>
        <time>2020-10-10T08:15:14Z</time>
      </trkpt>
      <trkpt lat="43.7097" lon="3.45974">
        <ele>440.381622</ele>
        <time>2020-10-10T08:15:27Z</time>
      </trkpt>
      <trkpt lat="43.70966" lon="3.45975">
        <ele>440.317108</ele>
        <time>2020-10-10T08:15:46Z</time>
      </trkpt>
      <trkpt lat="43.70965" lon="3.45984">
        <ele>441.931763</ele>
        <time>2020-10-10T08:16:23Z</time>
      </trkpt>
      <trkpt lat="43.70973" lon="3.45977">
        <ele>441.152832</ele>
        <time>2020-10-10T08:16:31Z</time>
      </trkpt>
      <trkpt lat="43.70992" lon="3.45985">
        <ele>443.848755</ele>
        <time>2020-10-10T08:16:44Z</time>
      </trkpt>
      <trkpt lat="43.71016" lon="3.46016">
        <ele>441.937347</ele>
        <time>2020-10-10T08:17:05Z</time>
      </trkpt>
      <trkpt lat="43.7103" lon="3.46046">
        <ele>443.084839</ele>
        <time>2020-10-10T08:17:21Z</time>
      </trkpt>
      <trkpt lat="43.7105" lon="3.46078">
        <ele>444.124725</ele>
        <time>2020-10-10T08:17:37Z</time>
      </trkpt>
      <trkpt lat="43.71129" lon="3.46178">
        <ele>448.379303</ele>
        <time>2020-10-10T08:18:30Z</time>
      </trkpt>
      <trkpt lat="43.71156" lon="3.46195">
        <ele>449.088348</ele>
        <time>2020-10-10T08:18:45Z</time>
      </trkpt>
      <trkpt lat="43.71216" lon="3.46178">
        <ele>458.566437</ele>
        <time>2020-10-10T08:19:15Z</time>
      </trkpt>
      <trkpt lat="43.71237" lon="3.46168">
        <ele>462.518616</ele>
        <time>2020-10-10T08:19:29Z</time>
      </trkpt>
      <trkpt lat="43.71237" lon="3.46166">
        <ele>463.319794</ele>
        <time>2020-10-10T08:19:31Z</time>
      </trkpt>
      <trkpt lat="43.71209" lon="3.46159">
        <ele>465.881287</ele>
        <time>2020-10-10T08:19:50Z</time>
      </trkpt>
      <trkpt lat="43.71166" lon="3.46132">
        <ele>472.197052</ele>
        <time>2020-10-10T08:20:20Z</time>
      </trkpt>
      <trkpt lat="43.71148" lon="3.46104">
        <ele>474.243927</ele>
        <time>2020-10-10T08:20:35Z</time>
      </trkpt>
      <trkpt lat="43.71123" lon="3.46077">
        <ele>470.295349</ele>
        <time>2020-10-10T08:20:50Z</time>
      </trkpt>
      <trkpt lat="43.71131" lon="3.46071">
        <ele>473.351776</ele>
        <time>2020-10-10T08:21:00Z</time>
      </trkpt>
      <trkpt lat="43.7115" lon="3.46083">
        <ele>477.131897</ele>
        <time>2020-10-10T08:21:12Z</time>
      </trkpt>
      <trkpt lat="43.71174" lon="3.46093">
        <ele>481.032959</ele>
        <time>2020-10-10T08:21:27Z</time>
      </trkpt>
      <trkpt lat="43.71196" lon="3.46089">
        <ele>483.845795</ele>
        <time>2020-10-10T08:21:41Z</time>
      </trkpt>
      <trkpt lat="43.71218" lon="3.46074">
        <ele>488.352264</ele>
        <time>2020-10-10T08:21:56Z</time>
      </trkpt>
      <trkpt lat="43.71227" lon="3.46056">
        <ele>492.99176</ele>
        <time>2020-10-10T08:22:06Z</time>
      </trkpt>
      <trkpt lat="43.71245" lon="3.46053">
        <ele>497.537994</ele>
        <time>2020-10-10T08:22:19Z</time>
      </trkpt>
      <trkpt lat="43.71269" lon="3.46054">
        <ele>505.363007</ele>
        <time>2020-10-10T08:22:36Z</time>
      </trkpt>
      <trkpt lat="43.71274" lon="3.46074">
        <ele>502.03125</ele>
        <time>2020-10-10T08:22:47Z</time>
      </trkpt>
      <trkpt lat="43.71287" lon="3.46077">
        <ele>505.264465</ele>
        <time>2020-10-10T08:22:56Z</time>
      </trkpt>
      <trkpt lat="43.71308" lon="3.46094">
        <ele>505.498657</ele>
        <time>2020-10-10T08:23:11Z</time>
      </trkpt>
      <trkpt lat="43.71322" lon="3.4611">
        <ele>504.50238</ele>
        <time>2020-10-10T08:23:22Z</time>
      </trkpt>
      <trkpt lat="43.71327" lon="3.46112">
        <ele>505.583984</ele>
        <time>2020-10-10T08:23:36Z</time>
      </trkpt>
      <trkpt lat="43.71338" lon="3.461">
        <ele>510.806488</ele>
        <time>2020-10-10T08:24:15Z</time>
      </trkpt>
      <trkpt lat="43.71342" lon="3.46107">
        <ele>510.811737</ele>
        <time>2020-10-10T08:24:38Z</time>
      </trkpt>
      <trkpt lat="43.71356" lon="3.46112">
        <ele>512.826477</ele>
        <time>2020-10-10T08:25:01Z</time>
      </trkpt>
      <trkpt lat="43.71353" lon="3.46101">
        <ele>513.737427</ele>
        <time>2020-10-10T08:25:39Z</time>
      </trkpt>
      <trkpt lat="43.71348" lon="3.46094">
        <ele>514.027405</ele>
        <time>2020-10-10T08:25:55Z</time>
      </trkpt>
      <trkpt lat="43.71344" lon="3.46077">
        <ele>516.458008</ele>
        <time>2020-10-10T08:26:32Z</time>
      </trkpt>
      <trkpt lat="43.71336" lon="3.46071">
        <ele>516.478699</ele>
        <time>2020-10-10T08:26:48Z</time>
      </trkpt>
      <trkpt lat="43.71348" lon="3.46065">
        <ele>518.616882</ele>
        <time>2020-10-10T08:27:19Z</time>
      </trkpt>
      <trkpt lat="43.71346" lon="3.46063">
        <ele>519.068481</ele>
        <time>2020-10-10T08:27:33Z</time>
      </trkpt>
      <trkpt lat="43.71367" lon="3.46093">
        <ele>516.431763</ele>
        <time>2020-10-10T08:46:47Z</time>
      </trkpt>
      <trkpt lat="43.71361" lon="3.46071">
        <ele>517.956421</ele>
        <time>2020-10-10T08:47:42Z</time>
      </trkpt>
      <trkpt lat="43.71355" lon="3.46068">
        <ele>518.191711</ele>
        <time>2020-10-10T08:48:00Z</time>
      </trkpt>
      <trkpt lat="43.71349" lon="3.46071">
        <ele>517.646179</ele>
        <time>2020-10-10T08:48:14Z</time>
      </trkpt>
      <trkpt lat="43.71339" lon="3.4607">
        <ele>517.018982</ele>
        <time>2020-10-10T08:48:30Z</time>
      </trkpt>
      <trkpt lat="43.71357" lon="3.46106">
        <ele>513.794434</ele>
        <time>2020-10-10T08:49:35Z</time>
      </trkpt>
      <trkpt lat="43.71352" lon="3.46111">
        <ele>512.239868</ele>
        <time>2020-10-10T08:49:53Z</time>
      </trkpt>
      <trkpt lat="43.71342" lon="3.46102">
        <ele>511.44812</ele>
        <time>2020-10-10T08:50:07Z</time>
      </trkpt>
      <trkpt lat="43.71336" lon="3.46104">
        <ele>509.660858</ele>
        <time>2020-10-10T08:50:15Z</time>
      </trkpt>
      <trkpt lat="43.71334" lon="3.46114">
        <ele>507.025513</ele>
        <time>2020-10-10T08:50:26Z</time>
      </trkpt>
      <trkpt lat="43.71326" lon="3.46115">
        <ele>504.421112</ele>
        <time>2020-10-10T08:50:31Z</time>
      </trkpt>
      <trkpt lat="43.71318" lon="3.46104">
        <ele>505.048889</ele>
        <time>2020-10-10T08:50:36Z</time>
      </trkpt>
      <trkpt lat="43.71279" lon="3.46079">
        <ele>502.281189</ele>
        <time>2020-10-10T08:50:49Z</time>
      </trkpt>
      <trkpt lat="43.71272" lon="3.46069">
        <ele>503.032928</ele>
        <time>2020-10-10T08:50:53Z</time>
      </trkpt>
      <trkpt lat="43.71273" lon="3.4606">
        <ele>505.771606</ele>
        <time>2020-10-10T08:50:56Z</time>
      </trkpt>
      <trkpt lat="43.71238" lon="3.46055">
        <ele>496.166748</ele>
        <time>2020-10-10T08:51:11Z</time>
      </trkpt>
      <trkpt lat="43.71231" lon="3.46056">
        <ele>494.201874</ele>
        <time>2020-10-10T08:51:13Z</time>
      </trkpt>
      <trkpt lat="43.71224" lon="3.46069">
        <ele>490.222504</ele>
        <time>2020-10-10T08:51:21Z</time>
      </trkpt>
      <trkpt lat="43.71241" lon="3.46107">
        <ele>485.982117</ele>
        <time>2020-10-10T08:51:46Z</time>
      </trkpt>
      <trkpt lat="43.71252" lon="3.46113">
        <ele>485.130188</ele>
        <time>2020-10-10T08:51:56Z</time>
      </trkpt>
      <trkpt lat="43.71257" lon="3.46123">
        <ele>482.458771</ele>
        <time>2020-10-10T08:52:13Z</time>
      </trkpt>
      <trkpt lat="43.7126" lon="3.46148">
        <ele>472.495117</ele>
        <time>2020-10-10T08:52:26Z</time>
      </trkpt>
      <trkpt lat="43.71275" lon="3.46182">
        <ele>461.338013</ele>
        <time>2020-10-10T08:53:01Z</time>
      </trkpt>
      <trkpt lat="43.71277" lon="3.46199">
        <ele>456.580383</ele>
        <time>2020-10-10T08:53:20Z</time>
      </trkpt>
      <trkpt lat="43.71273" lon="3.46185">
        <ele>460.079315</ele>
        <time>2020-10-10T08:53:36Z</time>
      </trkpt>
      <trkpt lat="43.71275" lon="3.46182">
        <ele>461.167206</ele>
        <time>2020-10-10T08:53:40Z</time>
      </trkpt>
      <trkpt lat="43.71314" lon="3.46272">
        <ele>444.594055</ele>
        <time>2020-10-10T08:54:02Z</time>
      </trkpt>
      <trkpt lat="43.71322" lon="3.46286">
        <ele>442.035736</ele>
        <time>2020-10-10T08:54:05Z</time>
      </trkpt>
      <trkpt lat="43.71318" lon="3.46297">
        <ele>438.936127</ele>
        <time>2020-10-10T08:54:09Z</time>
      </trkpt>
      <trkpt lat="43.71284" lon="3.46308">
        <ele>432.087708</ele>
        <time>2020-10-10T08:54:17Z</time>
      </trkpt>
      <trkpt lat="43.71278" lon="3.46319">
        <ele>428.333282</ele>
        <time>2020-10-10T08:54:20Z</time>
      </trkpt>
      <trkpt lat="43.71282" lon="3.46342">
        <ele>423.962646</ele>
        <time>2020-10-10T08:54:24Z</time>
      </trkpt>
      <trkpt lat="43.71305" lon="3.46369">
        <ele>419.200134</ele>
        <time>2020-10-10T08:54:30Z</time>
      </trkpt>
      <trkpt lat="43.71328" lon="3.46372">
        <ele>418.008148</ele>
        <time>2020-10-10T08:54:34Z</time>
      </trkpt>
      <trkpt lat="43.71374" lon="3.46356">
        <ele>418.984985</ele>
        <time>2020-10-10T08:54:41Z</time>
      </trkpt>
      <trkpt lat="43.71395" lon="3.46353">
        <ele>417.587921</ele>
        <time>2020-10-10T08:54:44Z</time>
      </trkpt>
      <trkpt lat="43.71415" lon="3.46347">
        <ele>417.13797</ele>
        <time>2020-10-10T08:54:47Z</time>
      </trkpt>
      <trkpt lat="43.71461" lon="3.4635">
        <ele>411.454987</ele>
        <time>2020-10-10T08:54:55Z</time>
      </trkpt>
      <trkpt lat="43.71473" lon="3.46353">
        <ele>409.232513</ele>
        <time>2020-10-10T08:54:58Z</time>
      </trkpt>
      <trkpt lat="43.71484" lon="3.4636">
        <ele>405.140961</ele>
        <time>2020-10-10T08:55:05Z</time>
      </trkpt>
      <trkpt lat="43.71488" lon="3.46354">
        <ele>406.141541</ele>
        <time>2020-10-10T08:55:19Z</time>
      </trkpt>
      <trkpt lat="43.7149" lon="3.46343">
        <ele>408.889801</ele>
        <time>2020-10-10T08:55:33Z</time>
      </trkpt>
      <trkpt lat="43.71522" lon="3.46312">
        <ele>412.002502</ele>
        <time>2020-10-10T08:56:05Z</time>
      </trkpt>
      <trkpt lat="43.71543" lon="3.46305">
        <ele>407.652374</ele>
        <time>2020-10-10T08:56:17Z</time>
      </trkpt>
      <trkpt lat="43.71548" lon="3.46299">
        <ele>407.510101</ele>
        <time>2020-10-10T08:56:21Z</time>
      </trkpt>
      <trkpt lat="43.71556" lon="3.46276">
        <ele>410.080719</ele>
        <time>2020-10-10T08:56:51Z</time>
      </trkpt>
      <trkpt lat="43.71559" lon="3.46247">
        <ele>416.059387</ele>
        <time>2020-10-10T08:57:08Z</time>
      </trkpt>
      <trkpt lat="43.71557" lon="3.46239">
        <ele>419.454468</ele>
        <time>2020-10-10T08:57:21Z</time>
      </trkpt>
      <trkpt lat="43.71573" lon="3.46189">
        <ele>425.532654</ele>
        <time>2020-10-10T08:57:47Z</time>
      </trkpt>
      <trkpt lat="43.71577" lon="3.46159">
        <ele>431.704407</ele>
        <time>2020-10-10T08:58:00Z</time>
      </trkpt>
      <trkpt lat="43.71586" lon="3.46126">
        <ele>434.973022</ele>
        <time>2020-10-10T08:58:11Z</time>
      </trkpt>
      <trkpt lat="43.71589" lon="3.46101">
        <ele>438.076538</ele>
        <time>2020-10-10T08:58:21Z</time>
      </trkpt>
      <trkpt lat="43.71608" lon="3.46044">
        <ele>437.233887</ele>
        <time>2020-10-10T08:58:46Z</time>
      </trkpt>
      <trkpt lat="43.71611" lon="3.46024">
        <ele>438.828583</ele>
        <time>2020-10-10T08:58:54Z</time>
      </trkpt>
      <trkpt lat="43.71608" lon="3.45988">
        <ele>445.557648</ele>
        <time>2020-10-10T08:59:10Z</time>
      </trkpt>
      <trkpt lat="43.71614" lon="3.45911">
        <ele>446.808014</ele>
        <time>2020-10-10T08:59:40Z</time>
      </trkpt>
      <trkpt lat="43.71598" lon="3.45877">
        <ele>446.824432</ele>
        <time>2020-10-10T08:59:53Z</time>
      </trkpt>
      <trkpt lat="43.71594" lon="3.45872">
        <ele>446.078003</ele>
        <time>2020-10-10T08:59:56Z</time>
      </trkpt>
      <trkpt lat="43.71606" lon="3.45842">
        <ele>441.531616</ele>
        <time>2020-10-10T09:00:10Z</time>
      </trkpt>
      <trkpt lat="43.71609" lon="3.45828">
        <ele>439.959625</ele>
        <time>2020-10-10T09:00:26Z</time>
      </trkpt>
      <trkpt lat="43.71634" lon="3.45805">
        <ele>437.184509</ele>
        <time>2020-10-10T09:00:40Z</time>
      </trkpt>
      <trkpt lat="43.7165" lon="3.458">
        <ele>436.750397</ele>
        <time>2020-10-10T09:00:53Z</time>
      </trkpt>
      <trkpt lat="43.71651" lon="3.45794">
        <ele>436.35199</ele>
        <time>2020-10-10T09:01:05Z</time>
      </trkpt>
      <trkpt lat="43.71648" lon="3.45783">
        <ele>435.305298</ele>
        <time>2020-10-10T09:01:18Z</time>
      </trkpt>
      <trkpt lat="43.71651" lon="3.45771">
        <ele>434.881409</ele>
        <time>2020-10-10T09:01:23Z</time>
      </trkpt>
      <trkpt lat="43.71656" lon="3.4576">
        <ele>435.505402</ele>
        <time>2020-10-10T09:01:28Z</time>
      </trkpt>
      <trkpt lat="43.71653" lon="3.45737">
        <ele>430.965729</ele>
        <time>2020-10-10T09:01:39Z</time>
      </trkpt>
      <trkpt lat="43.71658" lon="3.4569">
        <ele>423.475006</ele>
        <time>2020-10-10T09:01:59Z</time>
      </trkpt>
      <trkpt lat="43.71651" lon="3.45678">
        <ele>417.467499</ele>
        <time>2020-10-10T09:02:12Z</time>
      </trkpt>
      <trkpt lat="43.7165" lon="3.45661">
        <ele>412.442505</ele>
        <time>2020-10-10T09:02:24Z</time>
      </trkpt>
      <trkpt lat="43.71651" lon="3.45629">
        <ele>404.761108</ele>
        <time>2020-10-10T09:02:48Z</time>
      </trkpt>
      <trkpt lat="43.71659" lon="3.45604">
        <ele>404.272003</ele>
        <time>2020-10-10T09:03:15Z</time>
      </trkpt>
      <trkpt lat="43.71662" lon="3.45574">
        <ele>401.075012</ele>
        <time>2020-10-10T09:03:26Z</time>
      </trkpt>
      <trkpt lat="43.71667" lon="3.45545">
        <ele>399.937439</ele>
        <time>2020-10-10T09:03:39Z</time>
      </trkpt>
      <trkpt lat="43.71672" lon="3.45531">
        <ele>400.638672</ele>
        <time>2020-10-10T09:03:46Z</time>
      </trkpt>
      <trkpt lat="43.7169" lon="3.45514">
        <ele>405.566864</ele>
        <time>2020-10-10T09:04:11Z</time>
      </trkpt>
      <trkpt lat="43.71697" lon="3.45487">
        <ele>404.966705</ele>
        <time>2020-10-10T09:04:23Z</time>
      </trkpt>
      <trkpt lat="43.71698" lon="3.45426">
        <ele>398.117401</ele>
        <time>2020-10-10T09:04:41Z</time>
      </trkpt>
      <trkpt lat="43.71697" lon="3.45414">
        <ele>396.419006</ele>
        <time>2020-10-10T09:04:52Z</time>
      </trkpt>
      <trkpt lat="43.71694" lon="3.45413">
        <ele>395.244934</ele>
        <time>2020-10-10T09:04:56Z</time>
      </trkpt>
      <trkpt lat="43.71679" lon="3.45419">
        <ele>390.812988</ele>
        <time>2020-10-10T09:05:11Z</time>
      </trkpt>
      <trkpt lat="43.71671" lon="3.45417">
        <ele>387.904968</ele>
        <time>2020-10-10T09:05:16Z</time>
      </trkpt>
      <trkpt lat="43.71664" lon="3.45411">
        <ele>384.90625</ele>
        <time>2020-10-10T09:05:29Z</time>
      </trkpt>
      <trkpt lat="43.71672" lon="3.45393">
        <ele>384.600159</ele>
        <time>2020-10-10T09:06:07Z</time>
      </trkpt>
      <trkpt lat="43.71689" lon="3.45369">
        <ele>388.649689</ele>
        <time>2020-10-10T09:06:32Z</time>
      </trkpt>
      <trkpt lat="43.71686" lon="3.45354">
        <ele>386.176849</ele>
        <time>2020-10-10T09:07:16Z</time>
      </trkpt>
      <trkpt lat="43.71684" lon="3.45353">
        <ele>385.113617</ele>
        <time>2020-10-10T09:07:20Z</time>
      </trkpt>
      <trkpt lat="43.71673" lon="3.45334">
        <ele>378.533997</ele>
        <time>2020-10-10T09:07:31Z</time>
      </trkpt>
      <trkpt lat="43.71662" lon="3.4533">
        <ele>373.278015</ele>
        <time>2020-10-10T09:07:55Z</time>
      </trkpt>
      <trkpt lat="43.71662" lon="3.45283">
        <ele>371.866455</ele>
        <time>2020-10-10T09:08:25Z</time>
      </trkpt>
      <trkpt lat="43.71665" lon="3.45273">
        <ele>372.776184</ele>
        <time>2020-10-10T09:08:40Z</time>
      </trkpt>
      <trkpt lat="43.71661" lon="3.45257">
        <ele>370.710236</ele>
        <time>2020-10-10T09:08:58Z</time>
      </trkpt>
      <trkpt lat="43.7166" lon="3.45244">
        <ele>369.803253</ele>
        <time>2020-10-10T09:09:13Z</time>
      </trkpt>
      <trkpt lat="43.71654" lon="3.45229">
        <ele>366.637543</ele>
        <time>2020-10-10T09:09:29Z</time>
      </trkpt>
      <trkpt lat="43.71657" lon="3.45207">
        <ele>366.988312</ele>
        <time>2020-10-10T09:09:44Z</time>
      </trkpt>
      <trkpt lat="43.71645" lon="3.45173">
        <ele>361.088684</ele>
        <time>2020-10-10T09:09:56Z</time>
      </trkpt>
      <trkpt lat="43.71637" lon="3.45168">
        <ele>357.782593</ele>
        <time>2020-10-10T09:10:01Z</time>
      </trkpt>
      <trkpt lat="43.71629" lon="3.45174">
        <ele>354.723694</ele>
        <time>2020-10-10T09:10:06Z</time>
      </trkpt>
      <trkpt lat="43.71616" lon="3.45171">
        <ele>350.142883</ele>
        <time>2020-10-10T09:10:13Z</time>
      </trkpt>
      <trkpt lat="43.71604" lon="3.45161">
        <ele>346.73468</ele>
        <time>2020-10-10T09:10:18Z</time>
      </trkpt>
      <trkpt lat="43.71589" lon="3.45172">
        <ele>342.038696</ele>
        <time>2020-10-10T09:10:23Z</time>
      </trkpt>
      <trkpt lat="43.71566" lon="3.45129">
        <ele>336.345001</ele>
        <time>2020-10-10T09:10:40Z</time>
      </trkpt>
      <trkpt lat="43.71559" lon="3.4511">
        <ele>333.424988</ele>
        <time>2020-10-10T09:11:01Z</time>
      </trkpt>
      <trkpt lat="43.71559" lon="3.45091">
        <ele>332.105011</ele>
        <time>2020-10-10T09:11:07Z</time>
      </trkpt>
      <trkpt lat="43.71565" lon="3.45079">
        <ele>332.630005</ele>
        <time>2020-10-10T09:11:11Z</time>
      </trkpt>
      <trkpt lat="43.71565" lon="3.4506">
        <ele>330.472992</ele>
        <time>2020-10-10T09:11:16Z</time>
      </trkpt>
      <trkpt lat="43.71572" lon="3.45032">
        <ele>328.159454</ele>
        <time>2020-10-10T09:11:25Z</time>
      </trkpt>
      <trkpt lat="43.71587" lon="3.44994">
        <ele>327.732574</ele>
        <time>2020-10-10T09:11:34Z</time>
      </trkpt>
      <trkpt lat="43.71586" lon="3.44953">
        <ele>322.033051</ele>
        <time>2020-10-10T09:11:54Z</time>
      </trkpt>
      <trkpt lat="43.71603" lon="3.44836">
        <ele>318.113525</ele>
        <time>2020-10-10T09:12:14Z</time>
      </trkpt>
      <trkpt lat="43.71603" lon="3.44813">
        <ele>316.782196</ele>
        <time>2020-10-10T09:12:18Z</time>
      </trkpt>
      <trkpt lat="43.71599" lon="3.44756">
        <ele>311.442139</ele>
        <time>2020-10-10T09:12:30Z</time>
      </trkpt>
      <trkpt lat="43.71603" lon="3.4472">
        <ele>308.259521</ele>
        <time>2020-10-10T09:12:38Z</time>
      </trkpt>
      <trkpt lat="43.71616" lon="3.44663">
        <ele>305.099487</ele>
        <time>2020-10-10T09:12:47Z</time>
      </trkpt>
      <trkpt lat="43.71641" lon="3.44625">
        <ele>307.37674</ele>
        <time>2020-10-10T09:12:56Z</time>
      </trkpt>
      <trkpt lat="43.71654" lon="3.44587">
        <ele>305.887787</ele>
        <time>2020-10-10T09:13:03Z</time>
      </trkpt>
      <trkpt lat="43.71649" lon="3.44523">
        <ele>297.712097</ele>
        <time>2020-10-10T09:13:15Z</time>
      </trkpt>
      <trkpt lat="43.71644" lon="3.44493">
        <ele>294.162567</ele>
        <time>2020-10-10T09:13:23Z</time>
      </trkpt>
      <trkpt lat="43.71682" lon="3.44437">
        <ele>294.690002</ele>
        <time>2020-10-10T09:13:46Z</time>
      </trkpt>
      <trkpt lat="43.71694" lon="3.44407">
        <ele>292.042511</ele>
        <time>2020-10-10T09:13:56Z</time>
      </trkpt>
      <trkpt lat="43.71709" lon="3.44384">
        <ele>291.669556</ele>
        <time>2020-10-10T09:14:00Z</time>
      </trkpt>
      <trkpt lat="43.71718" lon="3.44349">
        <ele>288.742249</ele>
        <time>2020-10-10T09:14:04Z</time>
      </trkpt>
      <trkpt lat="43.71735" lon="3.44315">
        <ele>286.594025</ele>
        <time>2020-10-10T09:14:08Z</time>
      </trkpt>
      <trkpt lat="43.71747" lon="3.44281">
        <ele>282.806519</ele>
        <time>2020-10-10T09:14:12Z</time>
      </trkpt>
      <trkpt lat="43.71753" lon="3.44276">
        <ele>282.684753</ele>
        <time>2020-10-10T09:14:15Z</time>
      </trkpt>
      <trkpt lat="43.71752" lon="3.44275">
        <ele>282.376068</ele>
        <time>2020-10-10T09:14:16Z</time>
      </trkpt>
      <trkpt lat="43.71748" lon="3.44279">
        <ele>282.52179</ele>
        <time>2020-10-10T09:14:19Z</time>
      </trkpt>
      <trkpt lat="43.71742" lon="3.44293">
        <ele>284.11441</ele>
        <time>2020-10-10T09:14:23Z</time>
      </trkpt>
      <trkpt lat="43.7174" lon="3.44295">
        <ele>284.067322</ele>
        <time>2020-10-10T09:14:24Z</time>
      </trkpt>
      <trkpt lat="43.71736" lon="3.44287">
        <ele>282.417694</ele>
        <time>2020-10-10T09:14:27Z</time>
      </trkpt>
      <trkpt lat="43.71744" lon="3.44246">
        <ele>276.195251</ele>
        <time>2020-10-10T09:14:37Z</time>
      </trkpt>
      <trkpt lat="43.71727" lon="3.44236">
        <ele>273.242432</ele>
        <time>2020-10-10T09:14:46Z</time>
      </trkpt>
      <trkpt lat="43.71707" lon="3.4424">
        <ele>269.878998</ele>
        <time>2020-10-10T09:15:05Z</time>
      </trkpt>
      <trkpt lat="43.71701" lon="3.4423">
        <ele>266.999603</ele>
        <time>2020-10-10T09:15:17Z</time>
      </trkpt>
      <trkpt lat="43.71704" lon="3.4421">
        <ele>264.753021</ele>
        <time>2020-10-10T09:15:24Z</time>
      </trkpt>
      <trkpt lat="43.71716" lon="3.44198">
        <ele>264.961395</ele>
        <time>2020-10-10T09:15:28Z</time>
      </trkpt>
      <trkpt lat="43.71755" lon="3.44186">
        <ele>263.777161</ele>
        <time>2020-10-10T09:15:41Z</time>
      </trkpt>
      <trkpt lat="43.71754" lon="3.44167">
        <ele>259.248108</ele>
        <time>2020-10-10T09:15:47Z</time>
      </trkpt>
      <trkpt lat="43.71747" lon="3.4416">
        <ele>257.758331</ele>
        <time>2020-10-10T09:15:49Z</time>
      </trkpt>
      <trkpt lat="43.71712" lon="3.44149">
        <ele>253.925644</ele>
        <time>2020-10-10T09:15:58Z</time>
      </trkpt>
      <trkpt lat="43.71709" lon="3.44146">
        <ele>252.765106</ele>
        <time>2020-10-10T09:16:00Z</time>
      </trkpt>
      <trkpt lat="43.71723" lon="3.44143">
        <ele>253.835129</ele>
        <time>2020-10-10T09:16:10Z</time>
      </trkpt>
      <trkpt lat="43.71686" lon="3.44149">
        <ele>250.784317</ele>
        <time>2020-10-10T09:16:26Z</time>
      </trkpt>
      <trkpt lat="43.71657" lon="3.4415">
        <ele>246.968079</ele>
        <time>2020-10-10T09:16:31Z</time>
      </trkpt>
      <trkpt lat="43.71653" lon="3.44148">
        <ele>246.112885</ele>
        <time>2020-10-10T09:16:32Z</time>
      </trkpt>
      <trkpt lat="43.71651" lon="3.44144">
        <ele>245.402756</ele>
        <time>2020-10-10T09:16:33Z</time>
      </trkpt>
      <trkpt lat="43.71653" lon="3.44134">
        <ele>244.042175</ele>
        <time>2020-10-10T09:16:35Z</time>
      </trkpt>
      <trkpt lat="43.71656" lon="3.44132">
        <ele>243.958755</ele>
        <time>2020-10-10T09:16:36Z</time>
      </trkpt>
      <trkpt lat="43.71677" lon="3.44128">
        <ele>245.657043</ele>
        <time>2020-10-10T09:16:40Z</time>
      </trkpt>
      <trkpt lat="43.71698" lon="3.4411">
        <ele>243.524368</ele>
        <time>2020-10-10T09:16:44Z</time>
      </trkpt>
      <trkpt lat="43.71709" lon="3.44104">
        <ele>242.796555</ele>
        <time>2020-10-10T09:16:46Z</time>
      </trkpt>
      <trkpt lat="43.71728" lon="3.441">
        <ele>242.742325</ele>
        <time>2020-10-10T09:16:49Z</time>
      </trkpt>
      <trkpt lat="43.71757" lon="3.4408">
        <ele>239.747498</ele>
        <time>2020-10-10T09:16:54Z</time>
      </trkpt>
      <trkpt lat="43.71785" lon="3.44076">
        <ele>241.047531</ele>
        <time>2020-10-10T09:16:58Z</time>
      </trkpt>
      <trkpt lat="43.7179" lon="3.44073">
        <ele>241.011795</ele>
        <time>2020-10-10T09:16:59Z</time>
      </trkpt>
      <trkpt lat="43.71793" lon="3.44068">
        <ele>240.455841</ele>
        <time>2020-10-10T09:17:00Z</time>
      </trkpt>
      <trkpt lat="43.71794" lon="3.44062">
        <ele>239.509567</ele>
        <time>2020-10-10T09:17:01Z</time>
      </trkpt>
      <trkpt lat="43.71788" lon="3.44054">
        <ele>237.365051</ele>
        <time>2020-10-10T09:17:03Z</time>
      </trkpt>
      <trkpt lat="43.71772" lon="3.44054">
        <ele>235.78244</ele>
        <time>2020-10-10T09:17:06Z</time>
      </trkpt>
      <trkpt lat="43.7176" lon="3.4405">
        <ele>234.070007</ele>
        <time>2020-10-10T09:17:08Z</time>
      </trkpt>
      <trkpt lat="43.71746" lon="3.44037">
        <ele>230.657501</ele>
        <time>2020-10-10T09:17:11Z</time>
      </trkpt>
      <trkpt lat="43.71728" lon="3.44013">
        <ele>225.438248</ele>
        <time>2020-10-10T09:17:20Z</time>
      </trkpt>
      <trkpt lat="43.71735" lon="3.44012">
        <ele>225.807129</ele>
        <time>2020-10-10T09:17:25Z</time>
      </trkpt>
      <trkpt lat="43.7177" lon="3.44031">
        <ele>231.054153</ele>
        <time>2020-10-10T09:17:41Z</time>
      </trkpt>
      <trkpt lat="43.71777" lon="3.44028">
        <ele>231.273453</ele>
        <time>2020-10-10T09:17:44Z</time>
      </trkpt>
      <trkpt lat="43.71776" lon="3.4401">
        <ele>229.001694</ele>
        <time>2020-10-10T09:17:49Z</time>
      </trkpt>
      <trkpt lat="43.71783" lon="3.4396">
        <ele>226.878952</ele>
        <time>2020-10-10T09:18:02Z</time>
      </trkpt>
      <trkpt lat="43.71792" lon="3.43953">
        <ele>228.492676</ele>
        <time>2020-10-10T09:18:11Z</time>
      </trkpt>
      <trkpt lat="43.7178" lon="3.4394">
        <ele>225.902039</ele>
        <time>2020-10-10T09:18:43Z</time>
      </trkpt>
      <trkpt lat="43.71768" lon="3.43938">
        <ele>223.790466</ele>
        <time>2020-10-10T09:19:04Z</time>
      </trkpt>
      <trkpt lat="43.71765" lon="3.43934">
        <ele>223.499481</ele>
        <time>2020-10-10T09:19:07Z</time>
      </trkpt>
      <trkpt lat="43.7175" lon="3.43898">
        <ele>223.042206</ele>
        <time>2020-10-10T09:19:22Z</time>
      </trkpt>
      <trkpt lat="43.7175" lon="3.43863">
        <ele>221.457001</ele>
        <time>2020-10-10T09:19:34Z</time>
      </trkpt>
      <trkpt lat="43.71757" lon="3.43831">
        <ele>220.232819</ele>
        <time>2020-10-10T09:19:43Z</time>
      </trkpt>
      <trkpt lat="43.71756" lon="3.438">
        <ele>216.767624</ele>
        <time>2020-10-10T09:19:50Z</time>
      </trkpt>
      <trkpt lat="43.71758" lon="3.43792">
        <ele>216.240814</ele>
        <time>2020-10-10T09:20:00Z</time>
      </trkpt>
      <trkpt lat="43.71761" lon="3.43746">
        <ele>210.417328</ele>
        <time>2020-10-10T09:20:12Z</time>
      </trkpt>
      <trkpt lat="43.71754" lon="3.43712">
        <ele>204.900574</ele>
        <time>2020-10-10T09:20:17Z</time>
      </trkpt>
      <trkpt lat="43.71751" lon="3.43673">
        <ele>201.777176</ele>
        <time>2020-10-10T09:20:21Z</time>
      </trkpt>
      <trkpt lat="43.71733" lon="3.4363">
        <ele>199.520294</ele>
        <time>2020-10-10T09:20:26Z</time>
      </trkpt>
      <trkpt lat="43.71714" lon="3.43606">
        <ele>199.196381</ele>
        <time>2020-10-10T09:20:30Z</time>
      </trkpt>
      <trkpt lat="43.71687" lon="3.4353">
        <ele>201.615356</ele>
        <time>2020-10-10T09:20:42Z</time>
      </trkpt>
      <trkpt lat="43.71686" lon="3.43522">
        <ele>201.880005</ele>
        <time>2020-10-10T09:20:44Z</time>
      </trkpt>
      <trkpt lat="43.71682" lon="3.43521">
        <ele>201.79512</ele>
        <time>2020-10-10T09:20:49Z</time>
      </trkpt>
      <trkpt lat="43.71679" lon="3.43525">
        <ele>201.719894</ele>
        <time>2020-10-10T09:21:06Z</time>
      </trkpt>
      <trkpt lat="43.71684" lon="3.43521">
        <ele>201.875488</ele>
        <time>2020-10-10T09:22:32Z</time>
      </trkpt>
      <trkpt lat="43.7169" lon="3.43473">
        <ele>199.699997</ele>
        <time>2020-10-10T09:22:42Z</time>
      </trkpt>
      <trkpt lat="43.71672" lon="3.4344">
        <ele>198.304993</ele>
        <time>2020-10-10T09:22:48Z</time>
      </trkpt>
      <trkpt lat="43.71623" lon="3.43392">
        <ele>195.235458</ele>
        <time>2020-10-10T09:22:57Z</time>
      </trkpt>
      <trkpt lat="43.7162" lon="3.43348">
        <ele>192.656067</ele>
        <time>2020-10-10T09:23:04Z</time>
      </trkpt>
      <trkpt lat="43.71611" lon="3.43333">
        <ele>191.854858</ele>
        <time>2020-10-10T09:23:07Z</time>
      </trkpt>
      <trkpt lat="43.71588" lon="3.43309">
        <ele>190.273743</ele>
        <time>2020-10-10T09:23:13Z</time>
      </trkpt>
      <trkpt lat="43.71588" lon="3.43289">
        <ele>189.332504</ele>
        <time>2020-10-10T09:23:17Z</time>
      </trkpt>
      <trkpt lat="43.71603" lon="3.4323">
        <ele>184.758377</ele>
        <time>2020-10-10T09:23:25Z</time>
      </trkpt>
      <trkpt lat="43.7165" lon="3.43169">
        <ele>183.192017</ele>
        <time>2020-10-10T09:23:36Z</time>
      </trkpt>
      <trkpt lat="43.71649" lon="3.43162">
        <ele>183.078796</ele>
        <time>2020-10-10T09:23:38Z</time>
      </trkpt>
      <trkpt lat="43.71615" lon="3.4312">
        <ele>181.358398</ele>
        <time>2020-10-10T09:23:55Z</time>
      </trkpt>
      <trkpt lat="43.71623" lon="3.43131">
        <ele>181.725815</ele>
        <time>2020-10-10T09:24:02Z</time>
      </trkpt>
      <trkpt lat="43.71663" lon="3.43156">
        <ele>182.690781</ele>
        <time>2020-10-10T09:24:17Z</time>
      </trkpt>
      <trkpt lat="43.71681" lon="3.43139">
        <ele>181.998917</ele>
        <time>2020-10-10T09:24:22Z</time>
      </trkpt>
      <trkpt lat="43.71691" lon="3.43126">
        <ele>181.379211</ele>
        <time>2020-10-10T09:24:28Z</time>
      </trkpt>
      <trkpt lat="43.71701" lon="3.43097">
        <ele>179.827957</ele>
        <time>2020-10-10T09:24:38Z</time>
      </trkpt>
      <trkpt lat="43.71688" lon="3.43045">
        <ele>180.365005</ele>
        <time>2020-10-10T09:24:53Z</time>
      </trkpt>
      <trkpt lat="43.71674" lon="3.43006">
        <ele>181.271362</ele>
        <time>2020-10-10T09:25:05Z</time>
      </trkpt>
      <trkpt lat="43.71651" lon="3.42971">
        <ele>182.772079</ele>
        <time>2020-10-10T09:25:17Z</time>
      </trkpt>
      <trkpt lat="43.71623" lon="3.42955">
        <ele>180.833282</ele>
        <time>2020-10-10T09:25:28Z</time>
      </trkpt>
      <trkpt lat="43.71623" lon="3.42937">
        <ele>180.51683</ele>
        <time>2020-10-10T09:25:33Z</time>
      </trkpt>
      <trkpt lat="43.71625" lon="3.42927">
        <ele>180.476349</ele>
        <time>2020-10-10T09:25:35Z</time>
      </trkpt>
      <trkpt lat="43.71616" lon="3.42892">
        <ele>178.96312</ele>
        <time>2020-10-10T09:25:42Z</time>
      </trkpt>
      <trkpt lat="43.71594" lon="3.4287">
        <ele>178.235199</ele>
        <time>2020-10-10T09:25:49Z</time>
      </trkpt>
      <trkpt lat="43.71557" lon="3.42814">
        <ele>176.382996</ele>
        <time>2020-10-10T09:26:02Z</time>
      </trkpt>
      <trkpt lat="43.71543" lon="3.42754">
        <ele>169.741577</ele>
        <time>2020-10-10T09:26:22Z</time>
      </trkpt>
      <trkpt lat="43.71532" lon="3.42728">
        <ele>165.83725</ele>
        <time>2020-10-10T09:26:32Z</time>
      </trkpt>
      <trkpt lat="43.71534" lon="3.42719">
        <ele>164.280151</ele>
        <time>2020-10-10T09:26:44Z</time>
      </trkpt>
      <trkpt lat="43.71532" lon="3.42707">
        <ele>162.511307</ele>
        <time>2020-10-10T09:27:01Z</time>
      </trkpt>
      <trkpt lat="43.7152" lon="3.4267">
        <ele>157.443817</ele>
        <time>2020-10-10T09:27:23Z</time>
      </trkpt>
      <trkpt lat="43.71505" lon="3.42639">
        <ele>153.772034</ele>
        <time>2020-10-10T09:27:34Z</time>
      </trkpt>
      <trkpt lat="43.71475" lon="3.42601">
        <ele>150.748566</ele>
        <time>2020-10-10T09:27:50Z</time>
      </trkpt>
      <trkpt lat="43.71473" lon="3.42594">
        <ele>150.289993</ele>
        <time>2020-10-10T09:27:54Z</time>
      </trkpt>
      <trkpt lat="43.71477" lon="3.42539">
        <ele>150</ele>
        <time>2020-10-10T09:28:07Z</time>
      </trkpt>
      <trkpt lat="43.71473" lon="3.42394">
        <ele>156.128754</ele>
        <time>2020-10-10T09:28:38Z</time>
      </trkpt>
      <trkpt lat="43.71478" lon="3.4235">
        <ele>161.133743</ele>
        <time>2020-10-10T09:28:51Z</time>
      </trkpt>
      <trkpt lat="43.71477" lon="3.42314">
        <ele>163.822281</ele>
        <time>2020-10-10T09:29:01Z</time>
      </trkpt>
      <trkpt lat="43.7151" lon="3.42281">
        <ele>166.807266</ele>
        <time>2020-10-10T09:29:15Z</time>
      </trkpt>
      <trkpt lat="43.71509" lon="3.42191">
        <ele>169.154633</ele>
        <time>2020-10-10T09:29:36Z</time>
      </trkpt>
      <trkpt lat="43.71519" lon="3.42139">
        <ele>170.391464</ele>
        <time>2020-10-10T09:29:49Z</time>
      </trkpt>
      <trkpt lat="43.71557" lon="3.42092">
        <ele>173.701141</ele>
        <time>2020-10-10T09:30:03Z</time>
      </trkpt>
      <trkpt lat="43.71589" lon="3.42038">
        <ele>173.527222</ele>
        <time>2020-10-10T09:30:14Z</time>
      </trkpt>
      <trkpt lat="43.71663" lon="3.41948">
        <ele>180.569992</ele>
        <time>2020-10-10T09:30:36Z</time>
      </trkpt>
      <trkpt lat="43.71695" lon="3.41898">
        <ele>184.025269</ele>
        <time>2020-10-10T09:30:49Z</time>
      </trkpt>
      <trkpt lat="43.71774" lon="3.41791">
        <ele>183.434814</ele>
        <time>2020-10-10T09:31:18Z</time>
      </trkpt>
      <trkpt lat="43.71841" lon="3.41713">
        <ele>179.592514</ele>
        <time>2020-10-10T09:31:33Z</time>
      </trkpt>
      <trkpt lat="43.71844" lon="3.41707">
        <ele>179.520798</ele>
        <time>2020-10-10T09:31:34Z</time>
      </trkpt>
      <trkpt lat="43.71846" lon="3.41693">
        <ele>179.223404</ele>
        <time>2020-10-10T09:31:36Z</time>
      </trkpt>
      <trkpt lat="43.71842" lon="3.41655">
        <ele>178.247498</ele>
        <time>2020-10-10T09:31:42Z</time>
      </trkpt>
      <trkpt lat="43.71848" lon="3.41575">
        <ele>177.720245</ele>
        <time>2020-10-10T09:31:52Z</time>
      </trkpt>
      <trkpt lat="43.7187" lon="3.41505">
        <ele>176.195007</ele>
        <time>2020-10-10T09:32:00Z</time>
      </trkpt>
      <trkpt lat="43.71903" lon="3.41445">
        <ele>175.710495</ele>
        <time>2020-10-10T09:32:11Z</time>
      </trkpt>
      <trkpt lat="43.71943" lon="3.41381">
        <ele>174.417923</ele>
        <time>2020-10-10T09:32:43Z</time>
      </trkpt>
      <trkpt lat="43.71954" lon="3.41358">
        <ele>174.039749</ele>
        <time>2020-10-10T09:33:10Z</time>
      </trkpt>
      <trkpt lat="43.71924" lon="3.41409">
        <ele>174.796631</ele>
        <time>2020-10-10T09:33:29Z</time>
      </trkpt>
      <trkpt lat="43.7192" lon="3.41403">
        <ele>174.191666</ele>
        <time>2020-10-10T09:34:42Z</time>
      </trkpt>
      <trkpt lat="43.71915" lon="3.414">
        <ele>173.733917</ele>
        <time>2020-10-10T09:34:59Z</time>
      </trkpt>
      <trkpt lat="43.71911" lon="3.41387">
        <ele>172.746307</ele>
        <time>2020-10-10T09:35:15Z</time>
      </trkpt>
      <trkpt lat="43.71904" lon="3.41377">
        <ele>171.768829</ele>
        <time>2020-10-10T09:35:31Z</time>
      </trkpt>
      <trkpt lat="43.71893" lon="3.41344">
        <ele>170.481155</ele>
        <time>2020-10-10T09:36:05Z</time>
      </trkpt>
      <trkpt lat="43.71891" lon="3.41326">
        <ele>170.65863</ele>
        <time>2020-10-10T09:36:25Z</time>
      </trkpt>
      <trkpt lat="43.71882" lon="3.4132">
        <ele>170.365021</ele>
        <time>2020-10-10T09:36:38Z</time>
      </trkpt>
      <trkpt lat="43.71885" lon="3.41303">
        <ele>170.810883</ele>
        <time>2020-10-10T09:36:55Z</time>
      </trkpt>
      <trkpt lat="43.71885" lon="3.4129">
        <ele>171.211639</ele>
        <time>2020-10-10T09:37:09Z</time>
      </trkpt>
      <trkpt lat="43.71887" lon="3.41284">
        <ele>171.582504</ele>
        <time>2020-10-10T09:37:24Z</time>
      </trkpt>
      <trkpt lat="43.71884" lon="3.4128">
        <ele>171.659241</ele>
        <time>2020-10-10T09:38:33Z</time>
      </trkpt>
      <trkpt lat="43.71884" lon="3.41232">
        <ele>174.107498</ele>
        <time>2020-10-10T09:39:03Z</time>
      </trkpt>
      <trkpt lat="43.71893" lon="3.41223">
        <ele>175.188202</ele>
        <time>2020-10-10T09:39:08Z</time>
      </trkpt>
      <trkpt lat="43.71921" lon="3.41206">
        <ele>177.166168</ele>
        <time>2020-10-10T09:39:23Z</time>
      </trkpt>
      <trkpt lat="43.71948" lon="3.4117">
        <ele>179.653717</ele>
        <time>2020-10-10T09:39:39Z</time>
      </trkpt>
      <trkpt lat="43.71985" lon="3.4113">
        <ele>180.313126</ele>
        <time>2020-10-10T09:39:55Z</time>
      </trkpt>
      <trkpt lat="43.72001" lon="3.41099">
        <ele>181.247086</ele>
        <time>2020-10-10T09:40:07Z</time>
      </trkpt>
      <trkpt lat="43.72016" lon="3.41064">
        <ele>182.369064</ele>
        <time>2020-10-10T09:40:20Z</time>
      </trkpt>
      <trkpt lat="43.72049" lon="3.41021">
        <ele>184.316193</ele>
        <time>2020-10-10T09:40:36Z</time>
      </trkpt>
      <trkpt lat="43.72074" lon="3.40995">
        <ele>186.620056</ele>
        <time>2020-10-10T09:40:48Z</time>
      </trkpt>
      <trkpt lat="43.72137" lon="3.40935">
        <ele>193.850769</ele>
        <time>2020-10-10T09:41:24Z</time>
      </trkpt>
      <trkpt lat="43.72168" lon="3.40923">
        <ele>194.112793</ele>
        <time>2020-10-10T09:41:39Z</time>
      </trkpt>
      <trkpt lat="43.72191" lon="3.40907">
        <ele>196.938431</ele>
        <time>2020-10-10T09:41:51Z</time>
      </trkpt>
      <trkpt lat="43.72245" lon="3.40889">
        <ele>202.431259</ele>
        <time>2020-10-10T09:42:22Z</time>
      </trkpt>
      <trkpt lat="43.72271" lon="3.40878">
        <ele>207.627502</ele>
        <time>2020-10-10T09:42:37Z</time>
      </trkpt>
      <trkpt lat="43.72296" lon="3.40877">
        <ele>210.132507</ele>
        <time>2020-10-10T09:42:51Z</time>
      </trkpt>
      <trkpt lat="43.72341" lon="3.40887">
        <ele>213.840973</ele>
        <time>2020-10-10T09:43:18Z</time>
      </trkpt>
      <trkpt lat="43.72373" lon="3.40877">
        <ele>217.599014</ele>
        <time>2020-10-10T09:43:36Z</time>
      </trkpt>
      <trkpt lat="43.72431" lon="3.40845">
        <ele>224.370209</ele>
        <time>2020-10-10T09:44:07Z</time>
      </trkpt>
      <trkpt lat="43.72507" lon="3.40795">
        <ele>227.344559</ele>
        <time>2020-10-10T09:44:43Z</time>
      </trkpt>
      <trkpt lat="43.72514" lon="3.40786">
        <ele>227.990738</ele>
        <time>2020-10-10T09:44:48Z</time>
      </trkpt>
      <trkpt lat="43.72518" lon="3.40744">
        <ele>232.335602</ele>
        <time>2020-10-10T09:45:05Z</time>
      </trkpt>
      <trkpt lat="43.72527" lon="3.40693">
        <ele>233.434586</ele>
        <time>2020-10-10T09:45:21Z</time>
      </trkpt>
      <trkpt lat="43.72553" lon="3.40652">
        <ele>232.542267</ele>
        <time>2020-10-10T09:45:32Z</time>
      </trkpt>
      <trkpt lat="43.7258" lon="3.40633">
        <ele>234.846893</ele>
        <time>2020-10-10T09:45:38Z</time>
      </trkpt>
      <trkpt lat="43.7265" lon="3.4053">
        <ele>227.825623</ele>
        <time>2020-10-10T09:45:52Z</time>
      </trkpt>
      <trkpt lat="43.72692" lon="3.40485">
        <ele>225.558273</ele>
        <time>2020-10-10T09:45:58Z</time>
      </trkpt>
      <trkpt lat="43.72733" lon="3.40428">
        <ele>221.647491</ele>
        <time>2020-10-10T09:46:04Z</time>
      </trkpt>
      <trkpt lat="43.72765" lon="3.40381">
        <ele>220.341248</ele>
        <time>2020-10-10T09:46:09Z</time>
      </trkpt>
      <trkpt lat="43.72773" lon="3.40361">
        <ele>219.005005</ele>
        <time>2020-10-10T09:46:11Z</time>
      </trkpt>
      <trkpt lat="43.72776" lon="3.40341">
        <ele>216.992508</ele>
        <time>2020-10-10T09:46:13Z</time>
      </trkpt>
      <trkpt lat="43.72771" lon="3.40323">
        <ele>214.428741</ele>
        <time>2020-10-10T09:46:15Z</time>
      </trkpt>
      <trkpt lat="43.7276" lon="3.40302">
        <ele>216.526077</ele>
        <time>2020-10-10T09:46:18Z</time>
      </trkpt>
      <trkpt lat="43.72755" lon="3.40298">
        <ele>216.937393</ele>
        <time>2020-10-10T09:46:19Z</time>
      </trkpt>
      <trkpt lat="43.72708" lon="3.40294">
        <ele>217.557495</ele>
        <time>2020-10-10T09:46:30Z</time>
      </trkpt>
      <trkpt lat="43.7264" lon="3.40239">
        <ele>223.837494</ele>
        <time>2020-10-10T09:46:51Z</time>
      </trkpt>
      <trkpt lat="43.72597" lon="3.40233">
        <ele>228.09079</ele>
        <time>2020-10-10T09:47:03Z</time>
      </trkpt>
      <trkpt lat="43.72532" lon="3.40284">
        <ele>231.841324</ele>
        <time>2020-10-10T09:47:29Z</time>
      </trkpt>
      <trkpt lat="43.72495" lon="3.40281">
        <ele>235.646271</ele>
        <time>2020-10-10T09:47:43Z</time>
      </trkpt>
      <trkpt lat="43.72443" lon="3.4026">
        <ele>241.472504</ele>
        <time>2020-10-10T09:48:02Z</time>
      </trkpt>
      <trkpt lat="43.72404" lon="3.4025">
        <ele>244.859131</ele>
        <time>2020-10-10T09:48:17Z</time>
      </trkpt>
      <trkpt lat="43.72376" lon="3.40246">
        <ele>246.322327</ele>
        <time>2020-10-10T09:48:28Z</time>
      </trkpt>
      <trkpt lat="43.72344" lon="3.40233">
        <ele>246.137497</ele>
        <time>2020-10-10T09:48:42Z</time>
      </trkpt>
      <trkpt lat="43.72345" lon="3.40227">
        <ele>246.085724</ele>
        <time>2020-10-10T09:48:44Z</time>
      </trkpt>
      <trkpt lat="43.72359" lon="3.40194">
        <ele>248.413528</ele>
        <time>2020-10-10T09:48:55Z</time>
      </trkpt>
      <trkpt lat="43.72375" lon="3.40162">
        <ele>250.677048</ele>
        <time>2020-10-10T09:49:07Z</time>
      </trkpt>
      <trkpt lat="43.72406" lon="3.4013">
        <ele>256.927185</ele>
        <time>2020-10-10T09:49:28Z</time>
      </trkpt>
      <trkpt lat="43.72428" lon="3.40114">
        <ele>259.263428</ele>
        <time>2020-10-10T09:49:43Z</time>
      </trkpt>
      <trkpt lat="43.72473" lon="3.40093">
        <ele>263.708435</ele>
        <time>2020-10-10T09:50:14Z</time>
      </trkpt>
      <trkpt lat="43.72493" lon="3.40064">
        <ele>265.94101</ele>
        <time>2020-10-10T09:50:29Z</time>
      </trkpt>
      <trkpt lat="43.72545" lon="3.39999">
        <ele>270</ele>
        <time>2020-10-10T09:50:59Z</time>
      </trkpt>
      <trkpt lat="43.72577" lon="3.39957">
        <ele>275.615387</ele>
        <time>2020-10-10T09:51:20Z</time>
      </trkpt>
      <trkpt lat="43.72595" lon="3.39907">
        <ele>281.631256</ele>
        <time>2020-10-10T09:51:45Z</time>
      </trkpt>
      <trkpt lat="43.72594" lon="3.39888">
        <ele>283.073212</ele>
        <time>2020-10-10T09:51:54Z</time>
      </trkpt>
      <trkpt lat="43.72601" lon="3.39865">
        <ele>284.471558</ele>
        <time>2020-10-10T09:52:05Z</time>
      </trkpt>
      <trkpt lat="43.72616" lon="3.39847">
        <ele>287.529541</ele>
        <time>2020-10-10T09:52:17Z</time>
      </trkpt>
      <trkpt lat="43.72632" lon="3.39834">
        <ele>291.180817</ele>
        <time>2020-10-10T09:52:28Z</time>
      </trkpt>
      <trkpt lat="43.72673" lon="3.39787">
        <ele>300.138489</ele>
        <time>2020-10-10T09:53:00Z</time>
      </trkpt>
      <trkpt lat="43.72695" lon="3.3977">
        <ele>304.424011</ele>
        <time>2020-10-10T09:53:15Z</time>
      </trkpt>
      <trkpt lat="43.72729" lon="3.39774">
        <ele>309.450348</ele>
        <time>2020-10-10T09:53:35Z</time>
      </trkpt>
      <trkpt lat="43.72749" lon="3.39766">
        <ele>312.757874</ele>
        <time>2020-10-10T09:53:49Z</time>
      </trkpt>
      <trkpt lat="43.72782" lon="3.39747">
        <ele>317.67981</ele>
        <time>2020-10-10T09:54:09Z</time>
      </trkpt>
      <trkpt lat="43.72801" lon="3.39733">
        <ele>320.920074</ele>
        <time>2020-10-10T09:54:20Z</time>
      </trkpt>
      <trkpt lat="43.72852" lon="3.39688">
        <ele>326.700958</ele>
        <time>2020-10-10T09:54:53Z</time>
      </trkpt>
      <trkpt lat="43.72911" lon="3.39672">
        <ele>332.767334</ele>
        <time>2020-10-10T09:55:27Z</time>
      </trkpt>
      <trkpt lat="43.72979" lon="3.39644">
        <ele>337.842255</ele>
        <time>2020-10-10T09:56:02Z</time>
      </trkpt>
      <trkpt lat="43.73003" lon="3.39639">
        <ele>336.370178</ele>
        <time>2020-10-10T09:56:14Z</time>
      </trkpt>
      <trkpt lat="43.7304" lon="3.39558">
        <ele>343.129608</ele>
        <time>2020-10-10T09:56:40Z</time>
      </trkpt>
      <trkpt lat="43.73054" lon="3.39513">
        <ele>350.55722</ele>
        <time>2020-10-10T09:56:55Z</time>
      </trkpt>
      <trkpt lat="43.7306" lon="3.39457">
        <ele>357.24408</ele>
        <time>2020-10-10T09:57:18Z</time>
      </trkpt>
      <trkpt lat="43.73066" lon="3.39434">
        <ele>358.607117</ele>
        <time>2020-10-10T09:57:28Z</time>
      </trkpt>
      <trkpt lat="43.73085" lon="3.39423">
        <ele>361.609528</ele>
        <time>2020-10-10T09:57:41Z</time>
      </trkpt>
      <trkpt lat="43.73103" lon="3.3943">
        <ele>363.421356</ele>
        <time>2020-10-10T09:57:51Z</time>
      </trkpt>
      <trkpt lat="43.73118" lon="3.39442">
        <ele>363.94101</ele>
        <time>2020-10-10T09:58:01Z</time>
      </trkpt>
      <trkpt lat="43.7315" lon="3.39441">
        <ele>364.807037</ele>
        <time>2020-10-10T09:58:18Z</time>
      </trkpt>
      <trkpt lat="43.73176" lon="3.39426">
        <ele>367.000092</ele>
        <time>2020-10-10T09:58:31Z</time>
      </trkpt>
      <trkpt lat="43.732" lon="3.39403">
        <ele>370.553528</ele>
        <time>2020-10-10T09:58:46Z</time>
      </trkpt>
      <trkpt lat="43.73225" lon="3.39368">
        <ele>374.727478</ele>
        <time>2020-10-10T09:59:06Z</time>
      </trkpt>
      <trkpt lat="43.73235" lon="3.39343">
        <ele>379.268127</ele>
        <time>2020-10-10T09:59:18Z</time>
      </trkpt>
      <trkpt lat="43.73248" lon="3.3932">
        <ele>383.845642</ele>
        <time>2020-10-10T09:59:30Z</time>
      </trkpt>
      <trkpt lat="43.73256" lon="3.393">
        <ele>388.890015</ele>
        <time>2020-10-10T09:59:40Z</time>
      </trkpt>
      <trkpt lat="43.73265" lon="3.39285">
        <ele>391.87207</ele>
        <time>2020-10-10T09:59:48Z</time>
      </trkpt>
      <trkpt lat="43.73295" lon="3.3921">
        <ele>410.855011</ele>
        <time>2020-10-10T10:00:24Z</time>
      </trkpt>
      <trkpt lat="43.73305" lon="3.3919">
        <ele>414.192657</ele>
        <time>2020-10-10T10:00:34Z</time>
      </trkpt>
      <trkpt lat="43.73342" lon="3.39137">
        <ele>422.671295</ele>
        <time>2020-10-10T10:01:05Z</time>
      </trkpt>
      <trkpt lat="43.73357" lon="3.39108">
        <ele>425.332825</ele>
        <time>2020-10-10T10:01:48Z</time>
      </trkpt>
      <trkpt lat="43.73364" lon="3.39091">
        <ele>426.638733</ele>
        <time>2020-10-10T10:01:56Z</time>
      </trkpt>
      <trkpt lat="43.7336" lon="3.39086">
        <ele>426.803741</ele>
        <time>2020-10-10T10:01:59Z</time>
      </trkpt>
      <trkpt lat="43.73327" lon="3.39069">
        <ele>426.910004</ele>
        <time>2020-10-10T10:02:13Z</time>
      </trkpt>
      <trkpt lat="43.73303" lon="3.39045">
        <ele>426.755005</ele>
        <time>2020-10-10T10:02:23Z</time>
      </trkpt>
      <trkpt lat="43.73302" lon="3.39042">
        <ele>426.786469</ele>
        <time>2020-10-10T10:02:24Z</time>
      </trkpt>
      <trkpt lat="43.73315" lon="3.39035">
        <ele>427.192505</ele>
        <time>2020-10-10T10:02:34Z</time>
      </trkpt>
      <trkpt lat="43.73343" lon="3.3897">
        <ele>427.018768</ele>
        <time>2020-10-10T10:02:53Z</time>
      </trkpt>
      <trkpt lat="43.7338" lon="3.38903">
        <ele>428.848755</ele>
        <time>2020-10-10T10:03:13Z</time>
      </trkpt>
      <trkpt lat="43.73419" lon="3.38818">
        <ele>433.957489</ele>
        <time>2020-10-10T10:03:37Z</time>
      </trkpt>
      <trkpt lat="43.73463" lon="3.38732">
        <ele>438.121735</ele>
        <time>2020-10-10T10:03:58Z</time>
      </trkpt>
      <trkpt lat="43.73486" lon="3.38691">
        <ele>440.017487</ele>
        <time>2020-10-10T10:04:08Z</time>
      </trkpt>
      <trkpt lat="43.7351" lon="3.38634">
        <ele>441.352509</ele>
        <time>2020-10-10T10:04:21Z</time>
      </trkpt>
      <trkpt lat="43.73527" lon="3.38604">
        <ele>441.980011</ele>
        <time>2020-10-10T10:04:28Z</time>
      </trkpt>
      <trkpt lat="43.7356" lon="3.38528">
        <ele>440.132507</ele>
        <time>2020-10-10T10:04:43Z</time>
      </trkpt>
      <trkpt lat="43.73601" lon="3.38444">
        <ele>436.1586</ele>
        <time>2020-10-10T10:05:01Z</time>
      </trkpt>
      <trkpt lat="43.73628" lon="3.38405">
        <ele>433.852509</ele>
        <time>2020-10-10T10:05:10Z</time>
      </trkpt>
      <trkpt lat="43.73653" lon="3.38355">
        <ele>433.059998</ele>
        <time>2020-10-10T10:05:19Z</time>
      </trkpt>
      <trkpt lat="43.73662" lon="3.38339">
        <ele>432.85376</ele>
        <time>2020-10-10T10:05:22Z</time>
      </trkpt>
      <trkpt lat="43.73671" lon="3.38319">
        <ele>433.047516</ele>
        <time>2020-10-10T10:05:26Z</time>
      </trkpt>
      <trkpt lat="43.73706" lon="3.38277">
        <ele>432.532227</ele>
        <time>2020-10-10T10:05:39Z</time>
      </trkpt>
      <trkpt lat="43.73763" lon="3.38227">
        <ele>431.088104</ele>
        <time>2020-10-10T10:05:57Z</time>
      </trkpt>
      <trkpt lat="43.73777" lon="3.38174">
        <ele>432.440643</ele>
        <time>2020-10-10T10:06:06Z</time>
      </trkpt>
      <trkpt lat="43.73799" lon="3.38124">
        <ele>431.990173</ele>
        <time>2020-10-10T10:08:54Z</time>
      </trkpt>
      <trkpt lat="43.73804" lon="3.3808">
        <ele>428.903717</ele>
        <time>2020-10-10T10:09:04Z</time>
      </trkpt>
      <trkpt lat="43.73829" lon="3.37986">
        <ele>424.334045</ele>
        <time>2020-10-10T10:09:28Z</time>
      </trkpt>
      <trkpt lat="43.73835" lon="3.37938">
        <ele>424.188171</ele>
        <time>2020-10-10T10:09:38Z</time>
      </trkpt>
      <trkpt lat="43.73844" lon="3.37922">
        <ele>425.879395</ele>
        <time>2020-10-10T10:09:42Z</time>
      </trkpt>
      <trkpt lat="43.73848" lon="3.37919">
        <ele>426.865967</ele>
        <time>2020-10-10T10:09:44Z</time>
      </trkpt>
      <trkpt lat="43.7385" lon="3.37893">
        <ele>427.90387</ele>
        <time>2020-10-10T10:09:51Z</time>
      </trkpt>
      <trkpt lat="43.73853" lon="3.37884">
        <ele>428.64624</ele>
        <time>2020-10-10T10:10:02Z</time>
      </trkpt>
      <trkpt lat="43.73855" lon="3.37867">
        <ele>429.443329</ele>
        <time>2020-10-10T10:10:15Z</time>
      </trkpt>
      <trkpt lat="43.73849" lon="3.37862">
        <ele>428.542297</ele>
        <time>2020-10-10T10:10:24Z</time>
      </trkpt>
      <trkpt lat="43.73831" lon="3.37857">
        <ele>426.946167</ele>
        <time>2020-10-10T10:10:36Z</time>
      </trkpt>
      <trkpt lat="43.73817" lon="3.37875">
        <ele>423.636566</ele>
        <time>2020-10-10T10:10:47Z</time>
      </trkpt>
      <trkpt lat="43.73798" lon="3.37892">
        <ele>420.134613</ele>
        <time>2020-10-10T10:11:01Z</time>
      </trkpt>
      <trkpt lat="43.73776" lon="3.379">
        <ele>417.926086</ele>
        <time>2020-10-10T10:11:30Z</time>
      </trkpt>
      <trkpt lat="43.7375" lon="3.37904">
        <ele>416.480011</ele>
        <time>2020-10-10T10:11:44Z</time>
      </trkpt>
      <trkpt lat="43.73712" lon="3.37915">
        <ele>413.779999</ele>
        <time>2020-10-10T10:12:07Z</time>
      </trkpt>
      <trkpt lat="43.73683" lon="3.37914">
        <ele>412.01001</ele>
        <time>2020-10-10T10:12:22Z</time>
      </trkpt>
      <trkpt lat="43.73629" lon="3.37879">
        <ele>413.94162</ele>
        <time>2020-10-10T10:12:46Z</time>
      </trkpt>
      <trkpt lat="43.73613" lon="3.37873">
        <ele>412.51001</ele>
        <time>2020-10-10T10:12:53Z</time>
      </trkpt>
      <trkpt lat="43.73597" lon="3.37854">
        <ele>414.335541</ele>
        <time>2020-10-10T10:13:03Z</time>
      </trkpt>
      <trkpt lat="43.73587" lon="3.37838">
        <ele>414.037689</ele>
        <time>2020-10-10T10:13:26Z</time>
      </trkpt>
      <trkpt lat="43.73586" lon="3.37799">
        <ele>416.981659</ele>
        <time>2020-10-10T10:13:39Z</time>
      </trkpt>
      <trkpt lat="43.736" lon="3.37762">
        <ele>417.672302</ele>
        <time>2020-10-10T10:13:51Z</time>
      </trkpt>
      <trkpt lat="43.73612" lon="3.37671">
        <ele>417.843109</ele>
        <time>2020-10-10T10:14:12Z</time>
      </trkpt>
      <trkpt lat="43.73608" lon="3.37653">
        <ele>418.222382</ele>
        <time>2020-10-10T10:14:19Z</time>
      </trkpt>
      <trkpt lat="43.73568" lon="3.37596">
        <ele>418.145996</ele>
        <time>2020-10-10T10:15:07Z</time>
      </trkpt>
      <trkpt lat="43.7356" lon="3.37589">
        <ele>418.043121</ele>
        <time>2020-10-10T10:15:32Z</time>
      </trkpt>
      <trkpt lat="43.73537" lon="3.37556">
        <ele>419.923615</ele>
        <time>2020-10-10T10:16:14Z</time>
      </trkpt>
      <trkpt lat="43.73531" lon="3.37549">
        <ele>419.939362</ele>
        <time>2020-10-10T10:16:19Z</time>
      </trkpt>
      <trkpt lat="43.73525" lon="3.37523">
        <ele>422.316162</ele>
        <time>2020-10-10T10:16:33Z</time>
      </trkpt>
      <trkpt lat="43.73505" lon="3.37487">
        <ele>424.97406</ele>
        <time>2020-10-10T10:16:58Z</time>
      </trkpt>
      <trkpt lat="43.7348" lon="3.37459">
        <ele>425.551025</ele>
        <time>2020-10-10T10:17:18Z</time>
      </trkpt>
      <trkpt lat="43.73486" lon="3.37388">
        <ele>427.732513</ele>
        <time>2020-10-10T10:17:48Z</time>
      </trkpt>
      <trkpt lat="43.73489" lon="3.37382">
        <ele>427.787506</ele>
        <time>2020-10-10T10:17:50Z</time>
      </trkpt>
      <trkpt lat="43.73507" lon="3.37365">
        <ele>428.38501</ele>
        <time>2020-10-10T10:18:01Z</time>
      </trkpt>
      <trkpt lat="43.73518" lon="3.37368">
        <ele>428.88501</ele>
        <time>2020-10-10T10:18:09Z</time>
      </trkpt>
      <trkpt lat="43.73514" lon="3.37359">
        <ele>428.685699</ele>
        <time>2020-10-10T10:18:14Z</time>
      </trkpt>
      <trkpt lat="43.73515" lon="3.37352">
        <ele>428.65155</ele>
        <time>2020-10-10T10:18:17Z</time>
      </trkpt>
      <trkpt lat="43.7352" lon="3.37344">
        <ele>428.704193</ele>
        <time>2020-10-10T10:18:20Z</time>
      </trkpt>
      <trkpt lat="43.73534" lon="3.37298">
        <ele>427.998047</ele>
        <time>2020-10-10T10:18:32Z</time>
      </trkpt>
      <trkpt lat="43.73519" lon="3.37258">
        <ele>427.443146</ele>
        <time>2020-10-10T10:18:43Z</time>
      </trkpt>
      <trkpt lat="43.73473" lon="3.37157">
        <ele>426.699982</ele>
        <time>2020-10-10T10:19:07Z</time>
      </trkpt>
      <trkpt lat="43.73451" lon="3.37102">
        <ele>425.833588</ele>
        <time>2020-10-10T10:19:21Z</time>
      </trkpt>
      <trkpt lat="43.73436" lon="3.37059">
        <ele>424.804169</ele>
        <time>2020-10-10T10:19:33Z</time>
      </trkpt>
      <trkpt lat="43.73431" lon="3.36967">
        <ele>421.587036</ele>
        <time>2020-10-10T10:19:58Z</time>
      </trkpt>
      <trkpt lat="43.73431" lon="3.3695">
        <ele>420.892212</ele>
        <time>2020-10-10T10:20:17Z</time>
      </trkpt>
      <trkpt lat="43.73429" lon="3.36977">
        <ele>422.117065</ele>
        <time>2020-10-10T10:20:40Z</time>
      </trkpt>
      <trkpt lat="43.73433" lon="3.37043">
        <ele>424.422302</ele>
        <time>2020-10-10T10:20:56Z</time>
      </trkpt>
      <trkpt lat="43.73456" lon="3.37081">
        <ele>424.054993</ele>
        <time>2020-10-10T10:21:07Z</time>
      </trkpt>
      <trkpt lat="43.73484" lon="3.37107">
        <ele>424.432037</ele>
        <time>2020-10-10T10:21:18Z</time>
      </trkpt>
      <trkpt lat="43.73503" lon="3.37131">
        <ele>424.428406</ele>
        <time>2020-10-10T10:21:26Z</time>
      </trkpt>
      <trkpt lat="43.73515" lon="3.37127">
        <ele>423.312958</ele>
        <time>2020-10-10T10:21:30Z</time>
      </trkpt>
      <trkpt lat="43.73604" lon="3.37189">
        <ele>417.591675</ele>
        <time>2020-10-10T10:21:58Z</time>
      </trkpt>
      <trkpt lat="43.73641" lon="3.37208">
        <ele>417.024567</ele>
        <time>2020-10-10T10:22:21Z</time>
      </trkpt>
      <trkpt lat="43.7368" lon="3.37172">
        <ele>414.029022</ele>
        <time>2020-10-10T10:22:45Z</time>
      </trkpt>
      <trkpt lat="43.73705" lon="3.37165">
        <ele>414.479095</ele>
        <time>2020-10-10T10:22:57Z</time>
      </trkpt>
      <trkpt lat="43.73734" lon="3.37149">
        <ele>411.897797</ele>
        <time>2020-10-10T10:23:13Z</time>
      </trkpt>
      <trkpt lat="43.73766" lon="3.37143">
        <ele>411.998077</ele>
        <time>2020-10-10T10:23:25Z</time>
      </trkpt>
      <trkpt lat="43.7381" lon="3.37115">
        <ele>410.187561</ele>
        <time>2020-10-10T10:23:47Z</time>
      </trkpt>
      <trkpt lat="43.73822" lon="3.37111">
        <ele>411.100403</ele>
        <time>2020-10-10T10:23:52Z</time>
      </trkpt>
      <trkpt lat="43.7383" lon="3.37098">
        <ele>411.120789</ele>
        <time>2020-10-10T10:24:05Z</time>
      </trkpt>
      <trkpt lat="43.7383" lon="3.37085">
        <ele>410.736938</ele>
        <time>2020-10-10T10:24:15Z</time>
      </trkpt>
      <trkpt lat="43.73823" lon="3.37071">
        <ele>409.935486</ele>
        <time>2020-10-10T10:24:31Z</time>
      </trkpt>
      <trkpt lat="43.7381" lon="3.3707">
        <ele>408.813293</ele>
        <time>2020-10-10T10:24:50Z</time>
      </trkpt>
      <trkpt lat="43.73797" lon="3.37063">
        <ele>407.133026</ele>
        <time>2020-10-10T10:24:58Z</time>
      </trkpt>
      <trkpt lat="43.7377" lon="3.3704">
        <ele>406.823425</ele>
        <time>2020-10-10T10:25:25Z</time>
      </trkpt>
      <trkpt lat="43.73745" lon="3.37015">
        <ele>406.994995</ele>
        <time>2020-10-10T10:26:04Z</time>
      </trkpt>
      <trkpt lat="43.73738" lon="3.37003">
        <ele>408.849426</ele>
        <time>2020-10-10T10:26:11Z</time>
      </trkpt>
      <trkpt lat="43.73737" lon="3.36982">
        <ele>413.084442</ele>
        <time>2020-10-10T10:26:22Z</time>
      </trkpt>
      <trkpt lat="43.73706" lon="3.36888">
        <ele>413.305054</ele>
        <time>2020-10-10T10:27:01Z</time>
      </trkpt>
      <trkpt lat="43.73692" lon="3.36862">
        <ele>411.990082</ele>
        <time>2020-10-10T10:27:13Z</time>
      </trkpt>
      <trkpt lat="43.73688" lon="3.36849">
        <ele>410.964783</ele>
        <time>2020-10-10T10:27:17Z</time>
      </trkpt>
      <trkpt lat="43.73694" lon="3.36834">
        <ele>412.12207</ele>
        <time>2020-10-10T10:27:41Z</time>
      </trkpt>
      <trkpt lat="43.7371" lon="3.36805">
        <ele>414.761475</ele>
        <time>2020-10-10T10:27:54Z</time>
      </trkpt>
      <trkpt lat="43.73713" lon="3.36795">
        <ele>413.314819</ele>
        <time>2020-10-10T10:27:58Z</time>
      </trkpt>
      <trkpt lat="43.73718" lon="3.36787">
        <ele>412.86853</ele>
        <time>2020-10-10T10:28:01Z</time>
      </trkpt>
      <trkpt lat="43.73742" lon="3.36773">
        <ele>414.282684</ele>
        <time>2020-10-10T10:28:13Z</time>
      </trkpt>
      <trkpt lat="43.73777" lon="3.36739">
        <ele>416.774719</ele>
        <time>2020-10-10T10:28:30Z</time>
      </trkpt>
      <trkpt lat="43.73765" lon="3.36703">
        <ele>415.921814</ele>
        <time>2020-10-10T10:28:46Z</time>
      </trkpt>
      <trkpt lat="43.73746" lon="3.36671">
        <ele>411.499023</ele>
        <time>2020-10-10T10:28:57Z</time>
      </trkpt>
      <trkpt lat="43.73726" lon="3.36582">
        <ele>414.186218</ele>
        <time>2020-10-10T10:29:20Z</time>
      </trkpt>
      <trkpt lat="43.73718" lon="3.36517">
        <ele>415.433594</ele>
        <time>2020-10-10T10:29:39Z</time>
      </trkpt>
      <trkpt lat="43.7371" lon="3.36507">
        <ele>414.537323</ele>
        <time>2020-10-10T10:29:44Z</time>
      </trkpt>
      <trkpt lat="43.73703" lon="3.36491">
        <ele>414.268036</ele>
        <time>2020-10-10T10:29:49Z</time>
      </trkpt>
      <trkpt lat="43.73699" lon="3.36487">
        <ele>413.687378</ele>
        <time>2020-10-10T10:29:54Z</time>
      </trkpt>
      <trkpt lat="43.73695" lon="3.36481">
        <ele>413.353149</ele>
        <time>2020-10-10T10:30:07Z</time>
      </trkpt>
      <trkpt lat="43.73693" lon="3.36454">
        <ele>413.348755</ele>
        <time>2020-10-10T10:30:17Z</time>
      </trkpt>
      <trkpt lat="43.73693" lon="3.36415">
        <ele>412.187927</ele>
        <time>2020-10-10T10:30:28Z</time>
      </trkpt>
      <trkpt lat="43.73715" lon="3.36356">
        <ele>409.110321</ele>
        <time>2020-10-10T10:30:50Z</time>
      </trkpt>
      <trkpt lat="43.73716" lon="3.36346">
        <ele>407.67038</ele>
        <time>2020-10-10T10:31:00Z</time>
      </trkpt>
      <trkpt lat="43.7377" lon="3.36292">
        <ele>406.668762</ele>
        <time>2020-10-10T10:31:25Z</time>
      </trkpt>
      <trkpt lat="43.73775" lon="3.36278">
        <ele>405.042267</ele>
        <time>2020-10-10T10:31:29Z</time>
      </trkpt>
      <trkpt lat="43.73791" lon="3.36256">
        <ele>403.33075</ele>
        <time>2020-10-10T10:31:35Z</time>
      </trkpt>
      <trkpt lat="43.73836" lon="3.3626">
        <ele>407.703705</ele>
        <time>2020-10-10T10:31:48Z</time>
      </trkpt>
      <trkpt lat="43.73854" lon="3.36257">
        <ele>408.564301</ele>
        <time>2020-10-10T10:31:56Z</time>
      </trkpt>
      <trkpt lat="43.73858" lon="3.36249">
        <ele>408.276245</ele>
        <time>2020-10-10T10:32:10Z</time>
      </trkpt>
      <trkpt lat="43.73857" lon="3.36244">
        <ele>408.346497</ele>
        <time>2020-10-10T10:32:29Z</time>
      </trkpt>
      <trkpt lat="43.73826" lon="3.36196">
        <ele>406.201233</ele>
        <time>2020-10-10T10:33:05Z</time>
      </trkpt>
      <trkpt lat="43.73823" lon="3.36194">
        <ele>405.745483</ele>
        <time>2020-10-10T10:33:49Z</time>
      </trkpt>
      <trkpt lat="43.73818" lon="3.36188">
        <ele>405.074158</ele>
        <time>2020-10-10T10:33:56Z</time>
      </trkpt>
      <trkpt lat="43.73798" lon="3.36133">
        <ele>410.738129</ele>
        <time>2020-10-10T10:34:36Z</time>
      </trkpt>
      <trkpt lat="43.73774" lon="3.36085">
        <ele>412.981689</ele>
        <time>2020-10-10T10:35:08Z</time>
      </trkpt>
      <trkpt lat="43.73755" lon="3.36039">
        <ele>411.935425</ele>
        <time>2020-10-10T10:35:30Z</time>
      </trkpt>
      <trkpt lat="43.73723" lon="3.35984">
        <ele>406.709747</ele>
        <time>2020-10-10T10:36:08Z</time>
      </trkpt>
      <trkpt lat="43.73711" lon="3.35972">
        <ele>404.410431</ele>
        <time>2020-10-10T10:36:24Z</time>
      </trkpt>
      <trkpt lat="43.73699" lon="3.35956">
        <ele>402.838623</ele>
        <time>2020-10-10T10:36:45Z</time>
      </trkpt>
      <trkpt lat="43.73694" lon="3.35933">
        <ele>403.146881</ele>
        <time>2020-10-10T10:36:52Z</time>
      </trkpt>
      <trkpt lat="43.73686" lon="3.3586">
        <ele>400.890198</ele>
        <time>2020-10-10T10:37:56Z</time>
      </trkpt>
      <trkpt lat="43.73682" lon="3.35856">
        <ele>400.858337</ele>
        <time>2020-10-10T10:38:00Z</time>
      </trkpt>
      <trkpt lat="43.73666" lon="3.35846">
        <ele>400.794922</ele>
        <time>2020-10-10T10:38:14Z</time>
      </trkpt>
      <trkpt lat="43.73643" lon="3.35848">
        <ele>400.717621</ele>
        <time>2020-10-10T10:38:50Z</time>
      </trkpt>
      <trkpt lat="43.73635" lon="3.35839">
        <ele>403.712708</ele>
        <time>2020-10-10T10:39:07Z</time>
      </trkpt>
      <trkpt lat="43.73624" lon="3.35841">
        <ele>405.625092</ele>
        <time>2020-10-10T10:39:29Z</time>
      </trkpt>
      <trkpt lat="43.73608" lon="3.35849">
        <ele>407.634369</ele>
        <time>2020-10-10T10:39:48Z</time>
      </trkpt>
      <trkpt lat="43.73575" lon="3.35856">
        <ele>410.115784</ele>
        <time>2020-10-10T10:40:38Z</time>
      </trkpt>
      <trkpt lat="43.73552" lon="3.35851">
        <ele>411.663788</ele>
        <time>2020-10-10T10:41:07Z</time>
      </trkpt>
      <trkpt lat="43.73534" lon="3.3583">
        <ele>412.645996</ele>
        <time>2020-10-10T10:41:18Z</time>
      </trkpt>
      <trkpt lat="43.73504" lon="3.35762">
        <ele>414.444305</ele>
        <time>2020-10-10T10:41:45Z</time>
      </trkpt>
      <trkpt lat="43.73491" lon="3.35736">
        <ele>414.875</ele>
        <time>2020-10-10T10:41:56Z</time>
      </trkpt>
      <trkpt lat="43.73436" lon="3.35653">
        <ele>417.0625</ele>
        <time>2020-10-10T10:42:31Z</time>
      </trkpt>
      <trkpt lat="43.73426" lon="3.35625">
        <ele>418.855011</ele>
        <time>2020-10-10T10:42:43Z</time>
      </trkpt>
      <trkpt lat="43.73415" lon="3.35582">
        <ele>421.455475</ele>
        <time>2020-10-10T10:43:15Z</time>
      </trkpt>
      <trkpt lat="43.73407" lon="3.35562">
        <ele>422.584167</ele>
        <time>2020-10-10T10:43:27Z</time>
      </trkpt>
      <trkpt lat="43.73374" lon="3.35548">
        <ele>421.30249</ele>
        <time>2020-10-10T10:43:40Z</time>
      </trkpt>
      <trkpt lat="43.73326" lon="3.35523">
        <ele>420.447845</ele>
        <time>2020-10-10T10:43:56Z</time>
      </trkpt>
      <trkpt lat="43.73294" lon="3.35516">
        <ele>421.690857</ele>
        <time>2020-10-10T10:44:06Z</time>
      </trkpt>
      <trkpt lat="43.73262" lon="3.35522">
        <ele>422.460724</ele>
        <time>2020-10-10T10:44:17Z</time>
      </trkpt>
      <trkpt lat="43.7325" lon="3.35527">
        <ele>422.703583</ele>
        <time>2020-10-10T10:44:21Z</time>
      </trkpt>
      <trkpt lat="43.73243" lon="3.35534">
        <ele>422.56488</ele>
        <time>2020-10-10T10:44:24Z</time>
      </trkpt>
      <trkpt lat="43.73231" lon="3.35538">
        <ele>422.707825</ele>
        <time>2020-10-10T10:44:28Z</time>
      </trkpt>
      <trkpt lat="43.73192" lon="3.35524">
        <ele>423.605011</ele>
        <time>2020-10-10T10:44:43Z</time>
      </trkpt>
      <trkpt lat="43.73162" lon="3.35506">
        <ele>422.850006</ele>
        <time>2020-10-10T10:44:54Z</time>
      </trkpt>
      <trkpt lat="43.73147" lon="3.35492">
        <ele>422.202545</ele>
        <time>2020-10-10T10:45:05Z</time>
      </trkpt>
      <trkpt lat="43.73122" lon="3.35485">
        <ele>420.278107</ele>
        <time>2020-10-10T10:45:15Z</time>
      </trkpt>
      <trkpt lat="43.73104" lon="3.35455">
        <ele>419.932495</ele>
        <time>2020-10-10T10:45:27Z</time>
      </trkpt>
      <trkpt lat="43.73102" lon="3.35421">
        <ele>421.102692</ele>
        <time>2020-10-10T10:45:41Z</time>
      </trkpt>
      <trkpt lat="43.73098" lon="3.354">
        <ele>421.485748</ele>
        <time>2020-10-10T10:45:49Z</time>
      </trkpt>
      <trkpt lat="43.73079" lon="3.35385">
        <ele>421.200287</ele>
        <time>2020-10-10T10:46:01Z</time>
      </trkpt>
      <trkpt lat="43.73065" lon="3.3539">
        <ele>420.292358</ele>
        <time>2020-10-10T10:46:14Z</time>
      </trkpt>
      <trkpt lat="43.73048" lon="3.35405">
        <ele>420.054047</ele>
        <time>2020-10-10T11:18:07Z</time>
      </trkpt>
      <trkpt lat="43.73023" lon="3.35412">
        <ele>421.259674</ele>
        <time>2020-10-10T11:19:02Z</time>
      </trkpt>
      <trkpt lat="43.73017" lon="3.35422">
        <ele>420.885925</ele>
        <time>2020-10-10T11:19:09Z</time>
      </trkpt>
      <trkpt lat="43.73012" lon="3.35425">
        <ele>420.634125</ele>
        <time>2020-10-10T11:19:11Z</time>
      </trkpt>
      <trkpt lat="43.73002" lon="3.3542">
        <ele>420.348328</ele>
        <time>2020-10-10T11:19:16Z</time>
      </trkpt>
      <trkpt lat="43.72995" lon="3.3541">
        <ele>420.466095</ele>
        <time>2020-10-10T11:19:20Z</time>
      </trkpt>
      <trkpt lat="43.72951" lon="3.35372">
        <ele>419.680969</ele>
        <time>2020-10-10T11:19:43Z</time>
      </trkpt>
      <trkpt lat="43.72917" lon="3.35366">
        <ele>417.095154</ele>
        <time>2020-10-10T11:19:53Z</time>
      </trkpt>
      <trkpt lat="43.72888" lon="3.35381">
        <ele>411.903839</ele>
        <time>2020-10-10T11:20:04Z</time>
      </trkpt>
      <trkpt lat="43.72871" lon="3.35393">
        <ele>408.511902</ele>
        <time>2020-10-10T11:20:12Z</time>
      </trkpt>
      <trkpt lat="43.72863" lon="3.35389">
        <ele>408.227112</ele>
        <time>2020-10-10T11:20:16Z</time>
      </trkpt>
      <trkpt lat="43.72832" lon="3.35361">
        <ele>409.008728</ele>
        <time>2020-10-10T11:20:32Z</time>
      </trkpt>
      <trkpt lat="43.72797" lon="3.3536">
        <ele>404.992981</ele>
        <time>2020-10-10T11:20:46Z</time>
      </trkpt>
      <trkpt lat="43.72788" lon="3.35365">
        <ele>402.925812</ele>
        <time>2020-10-10T11:20:50Z</time>
      </trkpt>
      <trkpt lat="43.72767" lon="3.35409">
        <ele>401.428345</ele>
        <time>2020-10-10T11:21:03Z</time>
      </trkpt>
      <trkpt lat="43.72766" lon="3.3543">
        <ele>401.944061</ele>
        <time>2020-10-10T11:21:11Z</time>
      </trkpt>
      <trkpt lat="43.72769" lon="3.35437">
        <ele>401.53418</ele>
        <time>2020-10-10T11:21:14Z</time>
      </trkpt>
      <trkpt lat="43.72768" lon="3.35443">
        <ele>401.1716</ele>
        <time>2020-10-10T11:21:16Z</time>
      </trkpt>
      <trkpt lat="43.72744" lon="3.35501">
        <ele>397.194946</ele>
        <time>2020-10-10T11:21:36Z</time>
      </trkpt>
      <trkpt lat="43.7274" lon="3.35505">
        <ele>396.453613</ele>
        <time>2020-10-10T11:21:38Z</time>
      </trkpt>
      <trkpt lat="43.72716" lon="3.3551">
        <ele>394.997833</ele>
        <time>2020-10-10T11:21:50Z</time>
      </trkpt>
      <trkpt lat="43.72716" lon="3.35515">
        <ele>394.38678</ele>
        <time>2020-10-10T11:21:52Z</time>
      </trkpt>
      <trkpt lat="43.72721" lon="3.35518">
        <ele>394.165314</ele>
        <time>2020-10-10T11:21:54Z</time>
      </trkpt>
      <trkpt lat="43.72755" lon="3.35523">
        <ele>393.836578</ele>
        <time>2020-10-10T11:22:03Z</time>
      </trkpt>
      <trkpt lat="43.72779" lon="3.35517">
        <ele>392.688934</ele>
        <time>2020-10-10T11:22:09Z</time>
      </trkpt>
      <trkpt lat="43.72783" lon="3.35525">
        <ele>391.272888</ele>
        <time>2020-10-10T11:22:11Z</time>
      </trkpt>
      <trkpt lat="43.72781" lon="3.35534">
        <ele>390.135742</ele>
        <time>2020-10-10T11:22:13Z</time>
      </trkpt>
      <trkpt lat="43.72776" lon="3.35541">
        <ele>389.477753</ele>
        <time>2020-10-10T11:22:16Z</time>
      </trkpt>
      <trkpt lat="43.72766" lon="3.35574">
        <ele>384.387848</ele>
        <time>2020-10-10T11:22:39Z</time>
      </trkpt>
      <trkpt lat="43.72765" lon="3.35584">
        <ele>382.630493</ele>
        <time>2020-10-10T11:22:45Z</time>
      </trkpt>
      <trkpt lat="43.72758" lon="3.35606">
        <ele>378.695679</ele>
        <time>2020-10-10T11:22:57Z</time>
      </trkpt>
      <trkpt lat="43.72752" lon="3.3562">
        <ele>376.312927</ele>
        <time>2020-10-10T11:23:05Z</time>
      </trkpt>
      <trkpt lat="43.72746" lon="3.3563">
        <ele>374.992157</ele>
        <time>2020-10-10T11:23:11Z</time>
      </trkpt>
      <trkpt lat="43.7274" lon="3.35645">
        <ele>372.750488</ele>
        <time>2020-10-10T11:23:17Z</time>
      </trkpt>
      <trkpt lat="43.72722" lon="3.35653">
        <ele>372.082703</ele>
        <time>2020-10-10T11:23:26Z</time>
      </trkpt>
      <trkpt lat="43.72706" lon="3.35664">
        <ele>371.003082</ele>
        <time>2020-10-10T11:23:35Z</time>
      </trkpt>
      <trkpt lat="43.72698" lon="3.35674">
        <ele>368.499329</ele>
        <time>2020-10-10T11:23:49Z</time>
      </trkpt>
      <trkpt lat="43.72679" lon="3.35681">
        <ele>364.79425</ele>
        <time>2020-10-10T11:24:05Z</time>
      </trkpt>
      <trkpt lat="43.72648" lon="3.35698">
        <ele>357.254486</ele>
        <time>2020-10-10T11:24:27Z</time>
      </trkpt>
      <trkpt lat="43.72639" lon="3.35707">
        <ele>354.519592</ele>
        <time>2020-10-10T11:24:36Z</time>
      </trkpt>
      <trkpt lat="43.72624" lon="3.35728">
        <ele>349.481567</ele>
        <time>2020-10-10T11:25:05Z</time>
      </trkpt>
      <trkpt lat="43.72623" lon="3.35735">
        <ele>348.409546</ele>
        <time>2020-10-10T11:25:11Z</time>
      </trkpt>
      <trkpt lat="43.72626" lon="3.35742">
        <ele>347.340637</ele>
        <time>2020-10-10T11:25:15Z</time>
      </trkpt>
      <trkpt lat="43.72641" lon="3.35754">
        <ele>346.426483</ele>
        <time>2020-10-10T11:25:21Z</time>
      </trkpt>
      <trkpt lat="43.72641" lon="3.35759">
        <ele>345.420258</ele>
        <time>2020-10-10T11:25:22Z</time>
      </trkpt>
      <trkpt lat="43.72639" lon="3.35763">
        <ele>344.365479</ele>
        <time>2020-10-10T11:25:23Z</time>
      </trkpt>
      <trkpt lat="43.72626" lon="3.35767">
        <ele>342.614838</ele>
        <time>2020-10-10T11:25:26Z</time>
      </trkpt>
      <trkpt lat="43.72609" lon="3.35765">
        <ele>341.420624</ele>
        <time>2020-10-10T11:25:31Z</time>
      </trkpt>
      <trkpt lat="43.7256" lon="3.35775">
        <ele>335.024994</ele>
        <time>2020-10-10T11:25:39Z</time>
      </trkpt>
      <trkpt lat="43.72532" lon="3.35776">
        <ele>332.186798</ele>
        <time>2020-10-10T11:25:44Z</time>
      </trkpt>
      <trkpt lat="43.72527" lon="3.35779">
        <ele>331.60675</ele>
        <time>2020-10-10T11:25:46Z</time>
      </trkpt>
      <trkpt lat="43.72523" lon="3.358">
        <ele>329.989075</ele>
        <time>2020-10-10T11:25:54Z</time>
      </trkpt>
      <trkpt lat="43.72524" lon="3.35827">
        <ele>327.036682</ele>
        <time>2020-10-10T11:26:08Z</time>
      </trkpt>
      <trkpt lat="43.72523" lon="3.35833">
        <ele>326.3797</ele>
        <time>2020-10-10T11:26:15Z</time>
      </trkpt>
      <trkpt lat="43.72486" lon="3.35893">
        <ele>315.205231</ele>
        <time>2020-10-10T11:27:08Z</time>
      </trkpt>
      <trkpt lat="43.72483" lon="3.35906">
        <ele>312.145538</ele>
        <time>2020-10-10T11:27:22Z</time>
      </trkpt>
      <trkpt lat="43.72458" lon="3.3594">
        <ele>302.940552</ele>
        <time>2020-10-10T11:27:43Z</time>
      </trkpt>
      <trkpt lat="43.72432" lon="3.35964">
        <ele>297.621216</ele>
        <time>2020-10-10T11:28:01Z</time>
      </trkpt>
      <trkpt lat="43.72421" lon="3.35978">
        <ele>294.179291</ele>
        <time>2020-10-10T11:28:20Z</time>
      </trkpt>
      <trkpt lat="43.72405" lon="3.36005">
        <ele>287.50946</ele>
        <time>2020-10-10T11:28:57Z</time>
      </trkpt>
      <trkpt lat="43.72392" lon="3.36022">
        <ele>284.461731</ele>
        <time>2020-10-10T11:29:07Z</time>
      </trkpt>
      <trkpt lat="43.72383" lon="3.3604">
        <ele>280.40152</ele>
        <time>2020-10-10T11:29:45Z</time>
      </trkpt>
      <trkpt lat="43.72385" lon="3.36046">
        <ele>278.549835</ele>
        <time>2020-10-10T11:30:39Z</time>
      </trkpt>
      <trkpt lat="43.7239" lon="3.36042">
        <ele>279.273743</ele>
        <time>2020-10-10T11:30:49Z</time>
      </trkpt>
      <trkpt lat="43.72507" lon="3.35997">
        <ele>278.212708</ele>
        <time>2020-10-10T11:31:19Z</time>
      </trkpt>
      <trkpt lat="43.72518" lon="3.35995">
        <ele>278.235596</ele>
        <time>2020-10-10T11:31:29Z</time>
      </trkpt>
      <trkpt lat="43.72528" lon="3.3599">
        <ele>279.637909</ele>
        <time>2020-10-10T11:31:36Z</time>
      </trkpt>
      <trkpt lat="43.72543" lon="3.3599">
        <ele>278.822296</ele>
        <time>2020-10-10T11:31:41Z</time>
      </trkpt>
      <trkpt lat="43.72557" lon="3.35997">
        <ele>277.269196</ele>
        <time>2020-10-10T11:31:44Z</time>
      </trkpt>
      <trkpt lat="43.72561" lon="3.36001">
        <ele>276.76709</ele>
        <time>2020-10-10T11:31:45Z</time>
      </trkpt>
      <trkpt lat="43.72563" lon="3.36008">
        <ele>276.311646</ele>
        <time>2020-10-10T11:31:46Z</time>
      </trkpt>
      <trkpt lat="43.72563" lon="3.36022">
        <ele>275.248535</ele>
        <time>2020-10-10T11:31:48Z</time>
      </trkpt>
      <trkpt lat="43.72558" lon="3.36031">
        <ele>273.437012</ele>
        <time>2020-10-10T11:31:50Z</time>
      </trkpt>
      <trkpt lat="43.72513" lon="3.36089">
        <ele>271.484772</ele>
        <time>2020-10-10T11:32:06Z</time>
      </trkpt>
      <trkpt lat="43.72478" lon="3.36115">
        <ele>265.182953</ele>
        <time>2020-10-10T11:32:17Z</time>
      </trkpt>
      <trkpt lat="43.72456" lon="3.36143">
        <ele>266.524078</ele>
        <time>2020-10-10T11:32:25Z</time>
      </trkpt>
      <trkpt lat="43.7244" lon="3.3617">
        <ele>266.699951</ele>
        <time>2020-10-10T11:32:32Z</time>
      </trkpt>
      <trkpt lat="43.72405" lon="3.36251">
        <ele>268.632568</ele>
        <time>2020-10-10T11:32:47Z</time>
      </trkpt>
      <trkpt lat="43.72359" lon="3.36326">
        <ele>268.204865</ele>
        <time>2020-10-10T11:33:04Z</time>
      </trkpt>
      <trkpt lat="43.7232" lon="3.36369">
        <ele>263.40686</ele>
        <time>2020-10-10T11:33:17Z</time>
      </trkpt>
      <trkpt lat="43.72321" lon="3.36403">
        <ele>264.863098</ele>
        <time>2020-10-10T11:33:23Z</time>
      </trkpt>
      <trkpt lat="43.72328" lon="3.36435">
        <ele>264.652496</ele>
        <time>2020-10-10T11:33:29Z</time>
      </trkpt>
      <trkpt lat="43.72337" lon="3.36455">
        <ele>265.079987</ele>
        <time>2020-10-10T11:33:33Z</time>
      </trkpt>
      <trkpt lat="43.7235" lon="3.36475">
        <ele>264.21875</ele>
        <time>2020-10-10T11:33:42Z</time>
      </trkpt>
      <trkpt lat="43.72329" lon="3.36473">
        <ele>260.934052</ele>
        <time>2020-10-10T11:33:49Z</time>
      </trkpt>
      <trkpt lat="43.72322" lon="3.36469">
        <ele>259.695007</ele>
        <time>2020-10-10T11:33:52Z</time>
      </trkpt>
      <trkpt lat="43.72324" lon="3.36485">
        <ele>257.129486</ele>
        <time>2020-10-10T11:33:58Z</time>
      </trkpt>
      <trkpt lat="43.72342" lon="3.3652">
        <ele>252.449997</ele>
        <time>2020-10-10T11:34:10Z</time>
      </trkpt>
      <trkpt lat="43.72389" lon="3.36568">
        <ele>244.350311</ele>
        <time>2020-10-10T11:34:30Z</time>
      </trkpt>
      <trkpt lat="43.72403" lon="3.36577">
        <ele>241.841736</ele>
        <time>2020-10-10T11:34:34Z</time>
      </trkpt>
      <trkpt lat="43.72436" lon="3.3658">
        <ele>240.276825</ele>
        <time>2020-10-10T11:34:42Z</time>
      </trkpt>
      <trkpt lat="43.72465" lon="3.36571">
        <ele>242.126953</ele>
        <time>2020-10-10T11:34:53Z</time>
      </trkpt>
      <trkpt lat="43.72545" lon="3.36553">
        <ele>243.719803</ele>
        <time>2020-10-10T11:35:20Z</time>
      </trkpt>
      <trkpt lat="43.72579" lon="3.36542">
        <ele>243.502533</ele>
        <time>2020-10-10T11:35:31Z</time>
      </trkpt>
      <trkpt lat="43.72598" lon="3.36549">
        <ele>241.541534</ele>
        <time>2020-10-10T11:35:41Z</time>
      </trkpt>
      <trkpt lat="43.7261" lon="3.36562">
        <ele>240.989487</ele>
        <time>2020-10-10T11:36:14Z</time>
      </trkpt>
      <trkpt lat="43.72591" lon="3.36585">
        <ele>239.159485</ele>
        <time>2020-10-10T11:36:30Z</time>
      </trkpt>
      <trkpt lat="43.72555" lon="3.36598">
        <ele>233.220993</ele>
        <time>2020-10-10T11:36:42Z</time>
      </trkpt>
      <trkpt lat="43.72498" lon="3.3666">
        <ele>233.106659</ele>
        <time>2020-10-10T11:37:07Z</time>
      </trkpt>
      <trkpt lat="43.72483" lon="3.36685">
        <ele>235.906128</ele>
        <time>2020-10-10T11:38:04Z</time>
      </trkpt>
      <trkpt lat="43.72499" lon="3.36724">
        <ele>243.259216</ele>
        <time>2020-10-10T11:38:30Z</time>
      </trkpt>
      <trkpt lat="43.72525" lon="3.36763">
        <ele>251.817093</ele>
        <time>2020-10-10T11:38:52Z</time>
      </trkpt>
      <trkpt lat="43.72526" lon="3.36768">
        <ele>252.779968</ele>
        <time>2020-10-10T11:38:54Z</time>
      </trkpt>
      <trkpt lat="43.72524" lon="3.3677">
        <ele>253.618042</ele>
        <time>2020-10-10T11:38:56Z</time>
      </trkpt>
      <trkpt lat="43.72516" lon="3.36767">
        <ele>253.978241</ele>
        <time>2020-10-10T11:39:02Z</time>
      </trkpt>
      <trkpt lat="43.72501" lon="3.3677">
        <ele>254.745026</ele>
        <time>2020-10-10T11:39:12Z</time>
      </trkpt>
      <trkpt lat="43.72487" lon="3.36778">
        <ele>256.748993</ele>
        <time>2020-10-10T11:39:21Z</time>
      </trkpt>
      <trkpt lat="43.72475" lon="3.36795">
        <ele>260.88736</ele>
        <time>2020-10-10T11:39:31Z</time>
      </trkpt>
      <trkpt lat="43.72468" lon="3.36814">
        <ele>265.271149</ele>
        <time>2020-10-10T11:39:39Z</time>
      </trkpt>
      <trkpt lat="43.72465" lon="3.36832">
        <ele>269.439514</ele>
        <time>2020-10-10T11:39:47Z</time>
      </trkpt>
      <trkpt lat="43.72472" lon="3.36854">
        <ele>274.815582</ele>
        <time>2020-10-10T11:39:58Z</time>
      </trkpt>
      <trkpt lat="43.72477" lon="3.36898">
        <ele>283.466858</ele>
        <time>2020-10-10T11:40:41Z</time>
      </trkpt>
      <trkpt lat="43.72485" lon="3.36917">
        <ele>287.283539</ele>
        <time>2020-10-10T11:41:15Z</time>
      </trkpt>
      <trkpt lat="43.7249" lon="3.36944">
        <ele>292.131592</ele>
        <time>2020-10-10T11:41:47Z</time>
      </trkpt>
      <trkpt lat="43.7249" lon="3.36994">
        <ele>299.951996</ele>
        <time>2020-10-10T11:42:41Z</time>
      </trkpt>
      <trkpt lat="43.72478" lon="3.3702">
        <ele>304.101563</ele>
        <time>2020-10-10T11:42:56Z</time>
      </trkpt>
      <trkpt lat="43.72415" lon="3.37094">
        <ele>310.739777</ele>
        <time>2020-10-10T11:43:47Z</time>
      </trkpt>
      <trkpt lat="43.72421" lon="3.37115">
        <ele>311.65979</ele>
        <time>2020-10-10T11:43:56Z</time>
      </trkpt>
      <trkpt lat="43.72422" lon="3.37151">
        <ele>312.907715</ele>
        <time>2020-10-10T11:44:10Z</time>
      </trkpt>
      <trkpt lat="43.72416" lon="3.37204">
        <ele>311.53891</ele>
        <time>2020-10-10T11:44:26Z</time>
      </trkpt>
      <trkpt lat="43.72429" lon="3.37253">
        <ele>311.413605</ele>
        <time>2020-10-10T11:44:40Z</time>
      </trkpt>
      <trkpt lat="43.72463" lon="3.37306">
        <ele>315.061829</ele>
        <time>2020-10-10T11:44:56Z</time>
      </trkpt>
      <trkpt lat="43.72486" lon="3.37285">
        <ele>317.4953</ele>
        <time>2020-10-10T11:45:05Z</time>
      </trkpt>
      <trkpt lat="43.72517" lon="3.37274">
        <ele>319.748657</ele>
        <time>2020-10-10T11:45:16Z</time>
      </trkpt>
      <trkpt lat="43.72532" lon="3.37299">
        <ele>323.00528</ele>
        <time>2020-10-10T11:45:26Z</time>
      </trkpt>
      <trkpt lat="43.72563" lon="3.37296">
        <ele>324.976898</ele>
        <time>2020-10-10T11:45:36Z</time>
      </trkpt>
      <trkpt lat="43.7263" lon="3.37296">
        <ele>326.975891</ele>
        <time>2020-10-10T11:45:55Z</time>
      </trkpt>
      <trkpt lat="43.72674" lon="3.37304">
        <ele>328.569183</ele>
        <time>2020-10-10T11:46:09Z</time>
      </trkpt>
      <trkpt lat="43.72716" lon="3.37323">
        <ele>332.397003</ele>
        <time>2020-10-10T11:46:21Z</time>
      </trkpt>
      <trkpt lat="43.728" lon="3.37262">
        <ele>337.230316</ele>
        <time>2020-10-10T11:46:52Z</time>
      </trkpt>
      <trkpt lat="43.72819" lon="3.37263">
        <ele>338.843964</ele>
        <time>2020-10-10T11:47:02Z</time>
      </trkpt>
      <trkpt lat="43.72827" lon="3.37266">
        <ele>339.469849</ele>
        <time>2020-10-10T11:47:13Z</time>
      </trkpt>
      <trkpt lat="43.72861" lon="3.37332">
        <ele>337.391449</ele>
        <time>2020-10-10T11:48:19Z</time>
      </trkpt>
      <trkpt lat="43.72883" lon="3.37381">
        <ele>331.735687</ele>
        <time>2020-10-10T11:48:28Z</time>
      </trkpt>
      <trkpt lat="43.7288" lon="3.37415">
        <ele>328.140747</ele>
        <time>2020-10-10T11:48:34Z</time>
      </trkpt>
      <trkpt lat="43.7285" lon="3.37461">
        <ele>327.429871</ele>
        <time>2020-10-10T11:48:41Z</time>
      </trkpt>
      <trkpt lat="43.7284" lon="3.37489">
        <ele>324.874908</ele>
        <time>2020-10-10T11:48:46Z</time>
      </trkpt>
      <trkpt lat="43.72834" lon="3.37498">
        <ele>324.430847</ele>
        <time>2020-10-10T11:48:50Z</time>
      </trkpt>
      <trkpt lat="43.72805" lon="3.37511">
        <ele>325.126495</ele>
        <time>2020-10-10T11:48:59Z</time>
      </trkpt>
      <trkpt lat="43.72785" lon="3.3751">
        <ele>325.909393</ele>
        <time>2020-10-10T11:49:04Z</time>
      </trkpt>
      <trkpt lat="43.72747" lon="3.37533">
        <ele>326.672821</ele>
        <time>2020-10-10T11:49:15Z</time>
      </trkpt>
      <trkpt lat="43.72629" lon="3.37645">
        <ele>328.152374</ele>
        <time>2020-10-10T11:49:56Z</time>
      </trkpt>
      <trkpt lat="43.72565" lon="3.37695">
        <ele>320.276947</ele>
        <time>2020-10-10T11:50:12Z</time>
      </trkpt>
      <trkpt lat="43.7246" lon="3.37811">
        <ele>323.766693</ele>
        <time>2020-10-10T11:50:43Z</time>
      </trkpt>
      <trkpt lat="43.72388" lon="3.37951">
        <ele>324.935638</ele>
        <time>2020-10-10T11:51:22Z</time>
      </trkpt>
      <trkpt lat="43.72348" lon="3.38">
        <ele>325.721649</ele>
        <time>2020-10-10T11:51:36Z</time>
      </trkpt>
      <trkpt lat="43.72265" lon="3.38061">
        <ele>320.839996</ele>
        <time>2020-10-10T11:52:01Z</time>
      </trkpt>
      <trkpt lat="43.72212" lon="3.38111">
        <ele>314.412201</ele>
        <time>2020-10-10T11:52:16Z</time>
      </trkpt>
      <trkpt lat="43.72192" lon="3.38116">
        <ele>311.393982</ele>
        <time>2020-10-10T11:52:21Z</time>
      </trkpt>
      <trkpt lat="43.7218" lon="3.38111">
        <ele>309.829865</ele>
        <time>2020-10-10T11:52:24Z</time>
      </trkpt>
      <trkpt lat="43.72138" lon="3.38114">
        <ele>303.607605</ele>
        <time>2020-10-10T11:52:34Z</time>
      </trkpt>
      <trkpt lat="43.7212" lon="3.38122">
        <ele>300.665222</ele>
        <time>2020-10-10T11:52:39Z</time>
      </trkpt>
      <trkpt lat="43.7206" lon="3.38165">
        <ele>288.977509</ele>
        <time>2020-10-10T11:52:56Z</time>
      </trkpt>
      <trkpt lat="43.7202" lon="3.38209">
        <ele>281.100952</ele>
        <time>2020-10-10T11:53:07Z</time>
      </trkpt>
      <trkpt lat="43.71994" lon="3.38229">
        <ele>275.65625</ele>
        <time>2020-10-10T11:53:13Z</time>
      </trkpt>
      <trkpt lat="43.71924" lon="3.38254">
        <ele>265.951233</ele>
        <time>2020-10-10T11:53:28Z</time>
      </trkpt>
      <trkpt lat="43.71887" lon="3.38294">
        <ele>261.96051</ele>
        <time>2020-10-10T11:53:44Z</time>
      </trkpt>
      <trkpt lat="43.71868" lon="3.38307">
        <ele>258.226685</ele>
        <time>2020-10-10T11:53:54Z</time>
      </trkpt>
      <trkpt lat="43.71836" lon="3.38317">
        <ele>253.03035</ele>
        <time>2020-10-10T11:54:09Z</time>
      </trkpt>
      <trkpt lat="43.71824" lon="3.38341">
        <ele>253.446503</ele>
        <time>2020-10-10T11:54:17Z</time>
      </trkpt>
      <trkpt lat="43.71799" lon="3.38359">
        <ele>252.966049</ele>
        <time>2020-10-10T11:54:27Z</time>
      </trkpt>
      <trkpt lat="43.7175" lon="3.38385">
        <ele>250.439056</ele>
        <time>2020-10-10T11:54:40Z</time>
      </trkpt>
      <trkpt lat="43.71721" lon="3.38392">
        <ele>250.370514</ele>
        <time>2020-10-10T11:54:50Z</time>
      </trkpt>
      <trkpt lat="43.71669" lon="3.38382">
        <ele>249.494446</ele>
        <time>2020-10-10T11:55:04Z</time>
      </trkpt>
      <trkpt lat="43.71625" lon="3.38387">
        <ele>251.665619</ele>
        <time>2020-10-10T11:55:16Z</time>
      </trkpt>
      <trkpt lat="43.71566" lon="3.38404">
        <ele>254.813751</ele>
        <time>2020-10-10T11:55:31Z</time>
      </trkpt>
      <trkpt lat="43.71495" lon="3.38433">
        <ele>256.388855</ele>
        <time>2020-10-10T11:55:49Z</time>
      </trkpt>
      <trkpt lat="43.71477" lon="3.38432">
        <ele>255.160629</ele>
        <time>2020-10-10T11:55:53Z</time>
      </trkpt>
      <trkpt lat="43.7145" lon="3.38419">
        <ele>252.759064</ele>
        <time>2020-10-10T11:55:59Z</time>
      </trkpt>
      <trkpt lat="43.71289" lon="3.38384">
        <ele>244.406845</ele>
        <time>2020-10-10T11:56:30Z</time>
      </trkpt>
      <trkpt lat="43.71277" lon="3.38386">
        <ele>243.186035</ele>
        <time>2020-10-10T11:56:32Z</time>
      </trkpt>
      <trkpt lat="43.71246" lon="3.38401">
        <ele>239.601837</ele>
        <time>2020-10-10T11:56:38Z</time>
      </trkpt>
      <trkpt lat="43.71233" lon="3.38402">
        <ele>237.845367</ele>
        <time>2020-10-10T11:56:41Z</time>
      </trkpt>
      <trkpt lat="43.71205" lon="3.38391">
        <ele>233.574524</ele>
        <time>2020-10-10T11:56:47Z</time>
      </trkpt>
      <trkpt lat="43.71188" lon="3.384">
        <ele>231.558487</ele>
        <time>2020-10-10T11:56:50Z</time>
      </trkpt>
      <trkpt lat="43.71175" lon="3.38404">
        <ele>230.213058</ele>
        <time>2020-10-10T11:56:52Z</time>
      </trkpt>
      <trkpt lat="43.71154" lon="3.38403">
        <ele>227.883377</ele>
        <time>2020-10-10T11:56:56Z</time>
      </trkpt>
      <trkpt lat="43.71145" lon="3.38406">
        <ele>227.499771</ele>
        <time>2020-10-10T11:56:58Z</time>
      </trkpt>
      <trkpt lat="43.71127" lon="3.38431">
        <ele>228.416656</ele>
        <time>2020-10-10T11:57:07Z</time>
      </trkpt>
      <trkpt lat="43.71106" lon="3.38434">
        <ele>227.790253</ele>
        <time>2020-10-10T11:57:16Z</time>
      </trkpt>
      <trkpt lat="43.71089" lon="3.38416">
        <ele>226.151245</ele>
        <time>2020-10-10T11:57:28Z</time>
      </trkpt>
      <trkpt lat="43.71062" lon="3.38423">
        <ele>225.577698</ele>
        <time>2020-10-10T11:57:40Z</time>
      </trkpt>
      <trkpt lat="43.71046" lon="3.38423">
        <ele>223.801102</ele>
        <time>2020-10-10T11:57:46Z</time>
      </trkpt>
      <trkpt lat="43.71041" lon="3.38437">
        <ele>223.564377</ele>
        <time>2020-10-10T11:57:52Z</time>
      </trkpt>
      <trkpt lat="43.71038" lon="3.38437">
        <ele>223.282791</ele>
        <time>2020-10-10T11:57:54Z</time>
      </trkpt>
      <trkpt lat="43.71037" lon="3.38431">
        <ele>223.300583</ele>
        <time>2020-10-10T11:57:57Z</time>
      </trkpt>
      <trkpt lat="43.71042" lon="3.38412">
        <ele>222.251953</ele>
        <time>2020-10-10T11:58:01Z</time>
      </trkpt>
      <trkpt lat="43.71045" lon="3.38405">
        <ele>222.154678</ele>
        <time>2020-10-10T11:58:03Z</time>
      </trkpt>
      <trkpt lat="43.71046" lon="3.384">
        <ele>221.801559</ele>
        <time>2020-10-10T11:58:05Z</time>
      </trkpt>
      <trkpt lat="43.71039" lon="3.38399">
        <ele>220.812439</ele>
        <time>2020-10-10T11:58:10Z</time>
      </trkpt>
      <trkpt lat="43.71046" lon="3.38383">
        <ele>220.374832</ele>
        <time>2020-10-10T11:58:18Z</time>
      </trkpt>
      <trkpt lat="43.71062" lon="3.38363">
        <ele>220.440475</ele>
        <time>2020-10-10T11:58:26Z</time>
      </trkpt>
      <trkpt lat="43.71098" lon="3.38328">
        <ele>214.235352</ele>
        <time>2020-10-10T11:58:48Z</time>
      </trkpt>
      <trkpt lat="43.71132" lon="3.38314">
        <ele>214.940781</ele>
        <time>2020-10-10T11:58:58Z</time>
      </trkpt>
      <trkpt lat="43.71137" lon="3.38306">
        <ele>213.907257</ele>
        <time>2020-10-10T11:59:00Z</time>
      </trkpt>
      <trkpt lat="43.71147" lon="3.3824">
        <ele>202.971054</ele>
        <time>2020-10-10T11:59:10Z</time>
      </trkpt>
      <trkpt lat="43.71185" lon="3.38187">
        <ele>200.03862</ele>
        <time>2020-10-10T11:59:18Z</time>
      </trkpt>
      <trkpt lat="43.71243" lon="3.38153">
        <ele>204.6875</ele>
        <time>2020-10-10T11:59:43Z</time>
      </trkpt>
      <trkpt lat="43.7129" lon="3.3813">
        <ele>203.404495</ele>
        <time>2020-10-10T12:00:02Z</time>
      </trkpt>
      <trkpt lat="43.71337" lon="3.3811">
        <ele>207.543365</ele>
        <time>2020-10-10T12:00:21Z</time>
      </trkpt>
      <trkpt lat="43.71384" lon="3.38111">
        <ele>210.929993</ele>
        <time>2020-10-10T12:00:34Z</time>
      </trkpt>
      <trkpt lat="43.71412" lon="3.38115">
        <ele>211.886246</ele>
        <time>2020-10-10T12:00:42Z</time>
      </trkpt>
      <trkpt lat="43.71418" lon="3.38073">
        <ele>216.836258</ele>
        <time>2020-10-10T12:00:52Z</time>
      </trkpt>
      <trkpt lat="43.71387" lon="3.38051">
        <ele>218.769653</ele>
        <time>2020-10-10T12:01:06Z</time>
      </trkpt>
      <trkpt lat="43.71365" lon="3.38042">
        <ele>219.278748</ele>
        <time>2020-10-10T12:01:16Z</time>
      </trkpt>
      <trkpt lat="43.71306" lon="3.38027">
        <ele>220.366257</ele>
        <time>2020-10-10T12:01:42Z</time>
      </trkpt>
      <trkpt lat="43.71279" lon="3.38042">
        <ele>218.208603</ele>
        <time>2020-10-10T12:01:49Z</time>
      </trkpt>
      <trkpt lat="43.71228" lon="3.38065">
        <ele>218.080109</ele>
        <time>2020-10-10T12:01:57Z</time>
      </trkpt>
      <trkpt lat="43.71108" lon="3.38127">
        <ele>210.054825</ele>
        <time>2020-10-10T12:02:12Z</time>
      </trkpt>
      <trkpt lat="43.71024" lon="3.38186">
        <ele>202.612335</ele>
        <time>2020-10-10T12:02:23Z</time>
      </trkpt>
      <trkpt lat="43.71005" lon="3.38193">
        <ele>201.87085</ele>
        <time>2020-10-10T12:02:25Z</time>
      </trkpt>
      <trkpt lat="43.70961" lon="3.38202">
        <ele>201.584366</ele>
        <time>2020-10-10T12:02:31Z</time>
      </trkpt>
      <trkpt lat="43.7094" lon="3.38209">
        <ele>200.177094</ele>
        <time>2020-10-10T12:02:34Z</time>
      </trkpt>
      <trkpt lat="43.70861" lon="3.38204">
        <ele>199.657089</ele>
        <time>2020-10-10T12:02:50Z</time>
      </trkpt>
      <trkpt lat="43.70827" lon="3.38187">
        <ele>198.36528</ele>
        <time>2020-10-10T12:02:56Z</time>
      </trkpt>
      <trkpt lat="43.70813" lon="3.38185">
        <ele>196.778152</ele>
        <time>2020-10-10T12:02:58Z</time>
      </trkpt>
      <trkpt lat="43.70707" lon="3.38231">
        <ele>184.283691</ele>
        <time>2020-10-10T12:03:12Z</time>
      </trkpt>
      <trkpt lat="43.70613" lon="3.38279">
        <ele>174</ele>
        <time>2020-10-10T12:03:25Z</time>
      </trkpt>
      <trkpt lat="43.70606" lon="3.38285">
        <ele>173.494812</ele>
        <time>2020-10-10T12:03:27Z</time>
      </trkpt>
      <trkpt lat="43.70601" lon="3.38297">
        <ele>173.1987</ele>
        <time>2020-10-10T12:03:30Z</time>
      </trkpt>
      <trkpt lat="43.70607" lon="3.38426">
        <ele>169.809998</ele>
        <time>2020-10-10T12:03:47Z</time>
      </trkpt>
      <trkpt lat="43.70616" lon="3.38508">
        <ele>171.91333</ele>
        <time>2020-10-10T12:04:00Z</time>
      </trkpt>
      <trkpt lat="43.7065" lon="3.38568">
        <ele>177.366104</ele>
        <time>2020-10-10T12:04:15Z</time>
      </trkpt>
      <trkpt lat="43.7067" lon="3.38617">
        <ele>180.014694</ele>
        <time>2020-10-10T12:04:26Z</time>
      </trkpt>
      <trkpt lat="43.70672" lon="3.38637">
        <ele>180.013275</ele>
        <time>2020-10-10T12:04:30Z</time>
      </trkpt>
      <trkpt lat="43.70668" lon="3.38647">
        <ele>180.020187</ele>
        <time>2020-10-10T12:04:32Z</time>
      </trkpt>
      <trkpt lat="43.70648" lon="3.38679">
        <ele>181.134995</ele>
        <time>2020-10-10T12:04:43Z</time>
      </trkpt>
      <trkpt lat="43.70629" lon="3.38696">
        <ele>181.422501</ele>
        <time>2020-10-10T12:04:51Z</time>
      </trkpt>
      <trkpt lat="43.70587" lon="3.38755">
        <ele>180.550171</ele>
        <time>2020-10-10T12:05:04Z</time>
      </trkpt>
      <trkpt lat="43.70498" lon="3.38846">
        <ele>178.904022</ele>
        <time>2020-10-10T12:05:19Z</time>
      </trkpt>
      <trkpt lat="43.70477" lon="3.38873">
        <ele>179.062119</ele>
        <time>2020-10-10T12:05:25Z</time>
      </trkpt>
      <trkpt lat="43.70471" lon="3.38875">
        <ele>179.335007</ele>
        <time>2020-10-10T12:05:27Z</time>
      </trkpt>
      <trkpt lat="43.7045" lon="3.38875">
        <ele>179.785004</ele>
        <time>2020-10-10T12:05:33Z</time>
      </trkpt>
      <trkpt lat="43.70402" lon="3.38887">
        <ele>181.074692</ele>
        <time>2020-10-10T12:05:46Z</time>
      </trkpt>
      <trkpt lat="43.70374" lon="3.38908">
        <ele>182.1875</ele>
        <time>2020-10-10T12:05:57Z</time>
      </trkpt>
      <trkpt lat="43.70337" lon="3.3892">
        <ele>182.428452</ele>
        <time>2020-10-10T12:06:10Z</time>
      </trkpt>
      <trkpt lat="43.7029" lon="3.38898">
        <ele>182.988373</ele>
        <time>2020-10-10T12:06:22Z</time>
      </trkpt>
      <trkpt lat="43.70209" lon="3.38837">
        <ele>182</ele>
        <time>2020-10-10T12:06:38Z</time>
      </trkpt>
      <trkpt lat="43.70113" lon="3.38724">
        <ele>181.935654</ele>
        <time>2020-10-10T12:07:03Z</time>
      </trkpt>
      <trkpt lat="43.70097" lon="3.38717">
        <ele>181.16774</ele>
        <time>2020-10-10T12:07:06Z</time>
      </trkpt>
      <trkpt lat="43.70088" lon="3.38708">
        <ele>180.685043</ele>
        <time>2020-10-10T12:07:08Z</time>
      </trkpt>
      <trkpt lat="43.70057" lon="3.38645">
        <ele>177.5327</ele>
        <time>2020-10-10T12:07:16Z</time>
      </trkpt>
      <trkpt lat="43.70039" lon="3.38626">
        <ele>175.765289</ele>
        <time>2020-10-10T12:07:19Z</time>
      </trkpt>
      <trkpt lat="43.70011" lon="3.38608">
        <ele>172.942245</ele>
        <time>2020-10-10T12:07:23Z</time>
      </trkpt>
      <trkpt lat="43.69996" lon="3.38601">
        <ele>171.494476</ele>
        <time>2020-10-10T12:07:25Z</time>
      </trkpt>
      <trkpt lat="43.69926" lon="3.3858">
        <ele>163.002563</ele>
        <time>2020-10-10T12:07:34Z</time>
      </trkpt>
      <trkpt lat="43.69908" lon="3.38583">
        <ele>160.384003</ele>
        <time>2020-10-10T12:07:37Z</time>
      </trkpt>
      <trkpt lat="43.69889" lon="3.38572">
        <ele>157.349426</ele>
        <time>2020-10-10T12:07:41Z</time>
      </trkpt>
      <trkpt lat="43.69884" lon="3.38572">
        <ele>156.643997</ele>
        <time>2020-10-10T12:07:42Z</time>
      </trkpt>
      <trkpt lat="43.6988" lon="3.38576">
        <ele>156.039871</ele>
        <time>2020-10-10T12:07:43Z</time>
      </trkpt>
      <trkpt lat="43.69871" lon="3.38594">
        <ele>154.914398</ele>
        <time>2020-10-10T12:07:46Z</time>
      </trkpt>
      <trkpt lat="43.69867" lon="3.38597">
        <ele>154.160004</ele>
        <time>2020-10-10T12:07:47Z</time>
      </trkpt>
      <trkpt lat="43.69848" lon="3.38593">
        <ele>151.33197</ele>
        <time>2020-10-10T12:07:50Z</time>
      </trkpt>
      <trkpt lat="43.69806" lon="3.38595">
        <ele>146.5513</ele>
        <time>2020-10-10T12:07:56Z</time>
      </trkpt>
      <trkpt lat="43.69787" lon="3.38592">
        <ele>145.092499</ele>
        <time>2020-10-10T12:07:59Z</time>
      </trkpt>
      <trkpt lat="43.69764" lon="3.38584">
        <ele>143.509995</ele>
        <time>2020-10-10T12:08:03Z</time>
      </trkpt>
      <trkpt lat="43.69759" lon="3.38587">
        <ele>143.1875</ele>
        <time>2020-10-10T12:08:04Z</time>
      </trkpt>
      <trkpt lat="43.69756" lon="3.38593">
        <ele>142.979996</ele>
        <time>2020-10-10T12:08:05Z</time>
      </trkpt>
      <trkpt lat="43.69741" lon="3.38739">
        <ele>141.607819</ele>
        <time>2020-10-10T12:08:25Z</time>
      </trkpt>
      <trkpt lat="43.69738" lon="3.38741">
        <ele>141.566177</ele>
        <time>2020-10-10T12:08:26Z</time>
      </trkpt>
      <trkpt lat="43.69731" lon="3.38739">
        <ele>141.33667</ele>
        <time>2020-10-10T12:08:28Z</time>
      </trkpt>
      <trkpt lat="43.69714" lon="3.38704">
        <ele>140.378754</ele>
        <time>2020-10-10T12:08:34Z</time>
      </trkpt>
      <trkpt lat="43.69663" lon="3.38638">
        <ele>138.972107</ele>
        <time>2020-10-10T12:08:45Z</time>
      </trkpt>
      <trkpt lat="43.69611" lon="3.38562">
        <ele>136.102493</ele>
        <time>2020-10-10T12:08:56Z</time>
      </trkpt>
      <trkpt lat="43.6959" lon="3.38518">
        <ele>134.573563</ele>
        <time>2020-10-10T12:09:02Z</time>
      </trkpt>
      <trkpt lat="43.6957" lon="3.38432">
        <ele>131.446808</ele>
        <time>2020-10-10T12:09:14Z</time>
      </trkpt>
      <trkpt lat="43.69564" lon="3.38425">
        <ele>131.267838</ele>
        <time>2020-10-10T12:09:16Z</time>
      </trkpt>
      <trkpt lat="43.69555" lon="3.38429">
        <ele>131.337601</ele>
        <time>2020-10-10T12:09:18Z</time>
      </trkpt>
      <trkpt lat="43.69474" lon="3.38502">
        <ele>137.550201</ele>
        <time>2020-10-10T12:09:38Z</time>
      </trkpt>
      <trkpt lat="43.69452" lon="3.38517">
        <ele>139.284607</ele>
        <time>2020-10-10T12:09:50Z</time>
      </trkpt>
      <trkpt lat="43.69409" lon="3.3852">
        <ele>140.692078</ele>
        <time>2020-10-10T12:10:05Z</time>
      </trkpt>
      <trkpt lat="43.6939" lon="3.38549">
        <ele>141.187607</ele>
        <time>2020-10-10T12:10:16Z</time>
      </trkpt>
      <trkpt lat="43.69377" lon="3.3862">
        <ele>140.818802</ele>
        <time>2020-10-10T12:10:27Z</time>
      </trkpt>
      <trkpt lat="43.69369" lon="3.38636">
        <ele>140.316284</ele>
        <time>2020-10-10T12:10:29Z</time>
      </trkpt>
      <trkpt lat="43.69357" lon="3.38647">
        <ele>139.375656</ele>
        <time>2020-10-10T12:10:31Z</time>
      </trkpt>
      <trkpt lat="43.69343" lon="3.38651">
        <ele>138.539642</ele>
        <time>2020-10-10T12:10:33Z</time>
      </trkpt>
      <trkpt lat="43.69276" lon="3.38663">
        <ele>134.893341</ele>
        <time>2020-10-10T12:10:41Z</time>
      </trkpt>
      <trkpt lat="43.69251" lon="3.38673">
        <ele>133.686249</ele>
        <time>2020-10-10T12:10:44Z</time>
      </trkpt>
      <trkpt lat="43.69243" lon="3.38678">
        <ele>133.352936</ele>
        <time>2020-10-10T12:10:45Z</time>
      </trkpt>
      <trkpt lat="43.69199" lon="3.38731">
        <ele>130.438644</ele>
        <time>2020-10-10T12:10:53Z</time>
      </trkpt>
      <trkpt lat="43.69187" lon="3.38736">
        <ele>130.185349</ele>
        <time>2020-10-10T12:10:56Z</time>
      </trkpt>
      <trkpt lat="43.6918" lon="3.38744">
        <ele>129.890198</ele>
        <time>2020-10-10T12:10:59Z</time>
      </trkpt>
      <trkpt lat="43.69167" lon="3.38744">
        <ele>129.811188</ele>
        <time>2020-10-10T12:11:03Z</time>
      </trkpt>
      <trkpt lat="43.69166" lon="3.38748">
        <ele>129.742874</ele>
        <time>2020-10-10T12:11:04Z</time>
      </trkpt>
      <trkpt lat="43.6917" lon="3.38758">
        <ele>129.323257</ele>
        <time>2020-10-10T12:11:07Z</time>
      </trkpt>
      <trkpt lat="43.69187" lon="3.38775">
        <ele>129.446091</ele>
        <time>2020-10-10T12:11:13Z</time>
      </trkpt>
      <trkpt lat="43.69194" lon="3.38806">
        <ele>129.82579</ele>
        <time>2020-10-10T12:11:24Z</time>
      </trkpt>
      <trkpt lat="43.69186" lon="3.38851">
        <ele>131.464188</ele>
        <time>2020-10-10T12:11:45Z</time>
      </trkpt>
      <trkpt lat="43.69188" lon="3.38878">
        <ele>133.261719</ele>
        <time>2020-10-10T12:11:57Z</time>
      </trkpt>
      <trkpt lat="43.69184" lon="3.38915">
        <ele>136.476746</ele>
        <time>2020-10-10T12:12:12Z</time>
      </trkpt>
      <trkpt lat="43.69169" lon="3.38929">
        <ele>138.623489</ele>
        <time>2020-10-10T12:12:24Z</time>
      </trkpt>
      <trkpt lat="43.69141" lon="3.38933">
        <ele>141.123871</ele>
        <time>2020-10-10T12:12:39Z</time>
      </trkpt>
      <trkpt lat="43.69119" lon="3.38947">
        <ele>144.189865</ele>
        <time>2020-10-10T12:12:53Z</time>
      </trkpt>
      <trkpt lat="43.69111" lon="3.38961">
        <ele>147.428253</ele>
        <time>2020-10-10T12:13:00Z</time>
      </trkpt>
      <trkpt lat="43.69095" lon="3.38975">
        <ele>151.81842</ele>
        <time>2020-10-10T12:13:12Z</time>
      </trkpt>
      <trkpt lat="43.69074" lon="3.38987">
        <ele>155.44928</ele>
        <time>2020-10-10T12:13:25Z</time>
      </trkpt>
      <trkpt lat="43.69062" lon="3.3901">
        <ele>158.712006</ele>
        <time>2020-10-10T12:13:37Z</time>
      </trkpt>
      <trkpt lat="43.69055" lon="3.39027">
        <ele>160.979996</ele>
        <time>2020-10-10T12:13:45Z</time>
      </trkpt>
      <trkpt lat="43.69067" lon="3.39046">
        <ele>163.691254</ele>
        <time>2020-10-10T12:13:57Z</time>
      </trkpt>
      <trkpt lat="43.69083" lon="3.39058">
        <ele>165.215561</ele>
        <time>2020-10-10T12:14:08Z</time>
      </trkpt>
      <trkpt lat="43.691" lon="3.39076">
        <ele>167.014984</ele>
        <time>2020-10-10T12:14:21Z</time>
      </trkpt>
      <trkpt lat="43.69102" lon="3.39099">
        <ele>169.889145</ele>
        <time>2020-10-10T12:14:30Z</time>
      </trkpt>
      <trkpt lat="43.69108" lon="3.39124">
        <ele>172.534378</ele>
        <time>2020-10-10T12:14:40Z</time>
      </trkpt>
      <trkpt lat="43.6911" lon="3.3916">
        <ele>176.320816</ele>
        <time>2020-10-10T12:14:54Z</time>
      </trkpt>
      <trkpt lat="43.69111" lon="3.39202">
        <ele>180.545395</ele>
        <time>2020-10-10T12:15:10Z</time>
      </trkpt>
      <trkpt lat="43.69106" lon="3.39266">
        <ele>188.082718</ele>
        <time>2020-10-10T12:15:37Z</time>
      </trkpt>
      <trkpt lat="43.6909" lon="3.39276">
        <ele>192.478058</ele>
        <time>2020-10-10T12:15:49Z</time>
      </trkpt>
      <trkpt lat="43.69076" lon="3.39273">
        <ele>194.540939</ele>
        <time>2020-10-10T12:15:58Z</time>
      </trkpt>
      <trkpt lat="43.69068" lon="3.39276">
        <ele>196.071579</ele>
        <time>2020-10-10T12:16:03Z</time>
      </trkpt>
      <trkpt lat="43.69065" lon="3.39284">
        <ele>197.754745</ele>
        <time>2020-10-10T12:16:07Z</time>
      </trkpt>
      <trkpt lat="43.69061" lon="3.39309">
        <ele>201.686005</ele>
        <time>2020-10-10T12:16:17Z</time>
      </trkpt>
      <trkpt lat="43.69061" lon="3.39361">
        <ele>206.353638</ele>
        <time>2020-10-10T12:16:39Z</time>
      </trkpt>
      <trkpt lat="43.69052" lon="3.3939">
        <ele>209.77626</ele>
        <time>2020-10-10T12:16:52Z</time>
      </trkpt>
      <trkpt lat="43.6904" lon="3.39409">
        <ele>213.153152</ele>
        <time>2020-10-10T12:17:03Z</time>
      </trkpt>
      <trkpt lat="43.69036" lon="3.39423">
        <ele>214.872742</ele>
        <time>2020-10-10T12:17:09Z</time>
      </trkpt>
      <trkpt lat="43.69036" lon="3.39444">
        <ele>216.340881</ele>
        <time>2020-10-10T12:17:17Z</time>
      </trkpt>
      <trkpt lat="43.69022" lon="3.39458">
        <ele>219.475906</ele>
        <time>2020-10-10T12:17:27Z</time>
      </trkpt>
      <trkpt lat="43.69025" lon="3.39518">
        <ele>221.966248</ele>
        <time>2020-10-10T12:17:42Z</time>
      </trkpt>
      <trkpt lat="43.69024" lon="3.39567">
        <ele>224.423752</ele>
        <time>2020-10-10T12:17:53Z</time>
      </trkpt>
      <trkpt lat="43.69017" lon="3.3961">
        <ele>227.705002</ele>
        <time>2020-10-10T12:18:04Z</time>
      </trkpt>
      <trkpt lat="43.69023" lon="3.3971">
        <ele>230.087494</ele>
        <time>2020-10-10T12:18:28Z</time>
      </trkpt>
      <trkpt lat="43.69014" lon="3.39717">
        <ele>232.240005</ele>
        <time>2020-10-10T12:18:34Z</time>
      </trkpt>
      <trkpt lat="43.68975" lon="3.39724">
        <ele>239.695007</ele>
        <time>2020-10-10T12:18:53Z</time>
      </trkpt>
      <trkpt lat="43.68967" lon="3.39722">
        <ele>240.532501</ele>
        <time>2020-10-10T12:18:57Z</time>
      </trkpt>
      <trkpt lat="43.68921" lon="3.39656">
        <ele>243.337601</ele>
        <time>2020-10-10T12:19:22Z</time>
      </trkpt>
      <trkpt lat="43.68904" lon="3.39669">
        <ele>245.000214</ele>
        <time>2020-10-10T12:19:33Z</time>
      </trkpt>
      <trkpt lat="43.68896" lon="3.39687">
        <ele>245.687256</ele>
        <time>2020-10-10T12:19:41Z</time>
      </trkpt>
      <trkpt lat="43.68869" lon="3.39701">
        <ele>247.143753</ele>
        <time>2020-10-10T12:19:53Z</time>
      </trkpt>
      <trkpt lat="43.6886" lon="3.39727">
        <ele>247.958755</ele>
        <time>2020-10-10T12:20:02Z</time>
      </trkpt>
      <trkpt lat="43.68857" lon="3.39743">
        <ele>248.362503</ele>
        <time>2020-10-10T12:20:14Z</time>
      </trkpt>
      <trkpt lat="43.68864" lon="3.39693">
        <ele>247.236252</ele>
        <time>2020-10-10T12:21:07Z</time>
      </trkpt>
      <trkpt lat="43.68861" lon="3.39694">
        <ele>247.389999</ele>
        <time>2020-10-10T12:22:06Z</time>
      </trkpt>
      <trkpt lat="43.6886" lon="3.39729">
        <ele>248.006256</ele>
        <time>2020-10-10T12:22:36Z</time>
      </trkpt>
      <trkpt lat="43.68846" lon="3.39783">
        <ele>249.497513</ele>
        <time>2020-10-10T12:27:01Z</time>
      </trkpt>
      <trkpt lat="43.6885" lon="3.39786">
        <ele>249.327499</ele>
        <time>2020-10-10T12:27:04Z</time>
      </trkpt>
      <trkpt lat="43.68862" lon="3.3981">
        <ele>249.166245</ele>
        <time>2020-10-10T12:27:10Z</time>
      </trkpt>
      <trkpt lat="43.68867" lon="3.39833">
        <ele>249.445419</ele>
        <time>2020-10-10T12:27:14Z</time>
      </trkpt>
      <trkpt lat="43.68864" lon="3.39852">
        <ele>249.987335</ele>
        <time>2020-10-10T12:27:17Z</time>
      </trkpt>
      <trkpt lat="43.6887" lon="3.39912">
        <ele>250.432495</ele>
        <time>2020-10-10T12:27:28Z</time>
      </trkpt>
      <trkpt lat="43.68888" lon="3.39965">
        <ele>250.028351</ele>
        <time>2020-10-10T12:27:39Z</time>
      </trkpt>
      <trkpt lat="43.68882" lon="3.39984">
        <ele>250.263443</ele>
        <time>2020-10-10T12:27:43Z</time>
      </trkpt>
      <trkpt lat="43.6887" lon="3.40001">
        <ele>250.808105</ele>
        <time>2020-10-10T12:27:47Z</time>
      </trkpt>
      <trkpt lat="43.6884" lon="3.40061">
        <ele>253.116257</ele>
        <time>2020-10-10T12:28:01Z</time>
      </trkpt>
      <trkpt lat="43.68813" lon="3.40079">
        <ele>254.511398</ele>
        <time>2020-10-10T12:28:08Z</time>
      </trkpt>
      <trkpt lat="43.68788" lon="3.40112">
        <ele>255.999756</ele>
        <time>2020-10-10T12:28:16Z</time>
      </trkpt>
      <trkpt lat="43.6877" lon="3.40123">
        <ele>256.616089</ele>
        <time>2020-10-10T12:28:21Z</time>
      </trkpt>
      <trkpt lat="43.68724" lon="3.40164">
        <ele>257.474335</ele>
        <time>2020-10-10T12:28:36Z</time>
      </trkpt>
      <trkpt lat="43.68693" lon="3.40199">
        <ele>258.465912</ele>
        <time>2020-10-10T12:28:50Z</time>
      </trkpt>
      <trkpt lat="43.68683" lon="3.40235">
        <ele>260.500336</ele>
        <time>2020-10-10T12:29:00Z</time>
      </trkpt>
      <trkpt lat="43.68664" lon="3.40259">
        <ele>263.030884</ele>
        <time>2020-10-10T12:29:11Z</time>
      </trkpt>
      <trkpt lat="43.68646" lon="3.40291">
        <ele>266.084991</ele>
        <time>2020-10-10T12:29:22Z</time>
      </trkpt>
      <trkpt lat="43.68628" lon="3.40332">
        <ele>269.005005</ele>
        <time>2020-10-10T12:29:35Z</time>
      </trkpt>
      <trkpt lat="43.68619" lon="3.40374">
        <ele>271.139526</ele>
        <time>2020-10-10T12:29:47Z</time>
      </trkpt>
      <trkpt lat="43.68607" lon="3.40485">
        <ele>276.69519</ele>
        <time>2020-10-10T12:30:16Z</time>
      </trkpt>
      <trkpt lat="43.68617" lon="3.40523">
        <ele>279.353546</ele>
        <time>2020-10-10T12:30:37Z</time>
      </trkpt>
      <trkpt lat="43.68614" lon="3.4053">
        <ele>280.067505</ele>
        <time>2020-10-10T12:30:46Z</time>
      </trkpt>
      <trkpt lat="43.68598" lon="3.40536">
        <ele>280.492065</ele>
        <time>2020-10-10T12:31:03Z</time>
      </trkpt>
      <trkpt lat="43.68587" lon="3.40559">
        <ele>280.349701</ele>
        <time>2020-10-10T12:31:22Z</time>
      </trkpt>
      <trkpt lat="43.68581" lon="3.40566">
        <ele>278.464996</ele>
        <time>2020-10-10T12:31:38Z</time>
      </trkpt>
      <trkpt lat="43.68601" lon="3.4053">
        <ele>280.095184</ele>
        <time>2020-10-10T12:39:02Z</time>
      </trkpt>
      <trkpt lat="43.68612" lon="3.40528">
        <ele>279.963135</ele>
        <time>2020-10-10T12:39:06Z</time>
      </trkpt>
      <trkpt lat="43.68618" lon="3.40522">
        <ele>279.268402</ele>
        <time>2020-10-10T12:39:09Z</time>
      </trkpt>
      <trkpt lat="43.68618" lon="3.40513">
        <ele>278.552032</ele>
        <time>2020-10-10T12:39:12Z</time>
      </trkpt>
      <trkpt lat="43.68608" lon="3.40472">
        <ele>275.741791</ele>
        <time>2020-10-10T12:39:21Z</time>
      </trkpt>
      <trkpt lat="43.68612" lon="3.40447">
        <ele>274.100677</ele>
        <time>2020-10-10T12:39:26Z</time>
      </trkpt>
      <trkpt lat="43.68614" lon="3.40399">
        <ele>271.982513</ele>
        <time>2020-10-10T12:39:34Z</time>
      </trkpt>
      <trkpt lat="43.6862" lon="3.40364">
        <ele>270.707489</ele>
        <time>2020-10-10T12:39:40Z</time>
      </trkpt>
      <trkpt lat="43.68618" lon="3.40351">
        <ele>270.143768</ele>
        <time>2020-10-10T12:39:42Z</time>
      </trkpt>
      <trkpt lat="43.68619" lon="3.40345">
        <ele>269.806244</ele>
        <time>2020-10-10T12:39:43Z</time>
      </trkpt>
      <trkpt lat="43.68646" lon="3.4029">
        <ele>266.019989</ele>
        <time>2020-10-10T12:39:54Z</time>
      </trkpt>
      <trkpt lat="43.68657" lon="3.40263">
        <ele>263.625</ele>
        <time>2020-10-10T12:39:59Z</time>
      </trkpt>
      <trkpt lat="43.68677" lon="3.40248">
        <ele>261.539001</ele>
        <time>2020-10-10T12:40:05Z</time>
      </trkpt>
      <trkpt lat="43.68697" lon="3.40194">
        <ele>258.233093</ele>
        <time>2020-10-10T12:40:19Z</time>
      </trkpt>
      <trkpt lat="43.68728" lon="3.40155">
        <ele>257.285461</ele>
        <time>2020-10-10T12:40:31Z</time>
      </trkpt>
      <trkpt lat="43.68742" lon="3.40143">
        <ele>257.181824</ele>
        <time>2020-10-10T12:40:35Z</time>
      </trkpt>
      <trkpt lat="43.68746" lon="3.40133">
        <ele>257.056</ele>
        <time>2020-10-10T12:40:37Z</time>
      </trkpt>
      <trkpt lat="43.68779" lon="3.40118">
        <ele>256.294189</ele>
        <time>2020-10-10T12:40:46Z</time>
      </trkpt>
      <trkpt lat="43.68811" lon="3.4008">
        <ele>254.633408</ele>
        <time>2020-10-10T12:40:56Z</time>
      </trkpt>
      <trkpt lat="43.68839" lon="3.40057">
        <ele>253.103745</ele>
        <time>2020-10-10T12:41:05Z</time>
      </trkpt>
      <trkpt lat="43.68869" lon="3.40001">
        <ele>250.869675</ele>
        <time>2020-10-10T12:41:18Z</time>
      </trkpt>
      <trkpt lat="43.68882" lon="3.3998">
        <ele>250.246506</ele>
        <time>2020-10-10T12:41:23Z</time>
      </trkpt>
      <trkpt lat="43.68888" lon="3.3996">
        <ele>250.023544</ele>
        <time>2020-10-10T12:41:27Z</time>
      </trkpt>
      <trkpt lat="43.68863" lon="3.39891">
        <ele>250.582504</ele>
        <time>2020-10-10T12:41:45Z</time>
      </trkpt>
      <trkpt lat="43.68863" lon="3.39877">
        <ele>250.600006</ele>
        <time>2020-10-10T12:41:49Z</time>
      </trkpt>
      <trkpt lat="43.68868" lon="3.39817">
        <ele>249.02037</ele>
        <time>2020-10-10T12:42:03Z</time>
      </trkpt>
      <trkpt lat="43.68849" lon="3.39773">
        <ele>249.203751</ele>
        <time>2020-10-10T12:42:13Z</time>
      </trkpt>
      <trkpt lat="43.6886" lon="3.39713">
        <ele>247.767502</ele>
        <time>2020-10-10T12:42:26Z</time>
      </trkpt>
      <trkpt lat="43.68865" lon="3.39698">
        <ele>247.282501</ele>
        <time>2020-10-10T12:42:35Z</time>
      </trkpt>
      <trkpt lat="43.6889" lon="3.39694">
        <ele>246.104996</ele>
        <time>2020-10-10T12:42:47Z</time>
      </trkpt>
      <trkpt lat="43.68915" lon="3.39654">
        <ele>243.83313</ele>
        <time>2020-10-10T12:43:01Z</time>
      </trkpt>
      <trkpt lat="43.68939" lon="3.3967">
        <ele>241.950684</ele>
        <time>2020-10-10T12:43:10Z</time>
      </trkpt>
      <trkpt lat="43.6896" lon="3.3971">
        <ele>240.934998</ele>
        <time>2020-10-10T12:43:23Z</time>
      </trkpt>
      <trkpt lat="43.68971" lon="3.39725">
        <ele>240.202499</ele>
        <time>2020-10-10T12:43:28Z</time>
      </trkpt>
      <trkpt lat="43.68982" lon="3.39723">
        <ele>238.774994</ele>
        <time>2020-10-10T12:43:32Z</time>
      </trkpt>
      <trkpt lat="43.69025" lon="3.39703">
        <ele>229.529999</ele>
        <time>2020-10-10T12:43:48Z</time>
      </trkpt>
      <trkpt lat="43.69025" lon="3.39686">
        <ele>229.070801</ele>
        <time>2020-10-10T12:43:51Z</time>
      </trkpt>
      <trkpt lat="43.6902" lon="3.39637">
        <ele>228.494629</ele>
        <time>2020-10-10T12:43:59Z</time>
      </trkpt>
      <trkpt lat="43.6902" lon="3.39626">
        <ele>227.978745</ele>
        <time>2020-10-10T12:44:01Z</time>
      </trkpt>
      <trkpt lat="43.69015" lon="3.39582">
        <ele>226.779999</ele>
        <time>2020-10-10T12:44:12Z</time>
      </trkpt>
      <trkpt lat="43.69026" lon="3.39559">
        <ele>223.648743</ele>
        <time>2020-10-10T12:44:22Z</time>
      </trkpt>
      <trkpt lat="43.69026" lon="3.39512">
        <ele>221.566254</ele>
        <time>2020-10-10T12:44:31Z</time>
      </trkpt>
      <trkpt lat="43.69022" lon="3.39456">
        <ele>219.416321</ele>
        <time>2020-10-10T12:44:48Z</time>
      </trkpt>
      <trkpt lat="43.69018" lon="3.39452">
        <ele>219.737167</ele>
        <time>2020-10-10T12:44:55Z</time>
      </trkpt>
      <trkpt lat="43.69036" lon="3.39436">
        <ele>215.731064</ele>
        <time>2020-10-10T12:45:14Z</time>
      </trkpt>
      <trkpt lat="43.69046" lon="3.39395">
        <ele>211.03186</ele>
        <time>2020-10-10T12:45:24Z</time>
      </trkpt>
      <trkpt lat="43.69058" lon="3.39366">
        <ele>207.126526</ele>
        <time>2020-10-10T12:45:32Z</time>
      </trkpt>
      <trkpt lat="43.6906" lon="3.39322">
        <ele>203.525085</ele>
        <time>2020-10-10T12:45:43Z</time>
      </trkpt>
      <trkpt lat="43.69059" lon="3.39315">
        <ele>202.743607</ele>
        <time>2020-10-10T12:45:48Z</time>
      </trkpt>
      <trkpt lat="43.69066" lon="3.3928">
        <ele>196.873001</ele>
        <time>2020-10-10T12:45:59Z</time>
      </trkpt>
      <trkpt lat="43.69075" lon="3.39271">
        <ele>194.477097</ele>
        <time>2020-10-10T12:46:04Z</time>
      </trkpt>
      <trkpt lat="43.69091" lon="3.39274">
        <ele>191.870377</ele>
        <time>2020-10-10T12:46:09Z</time>
      </trkpt>
      <trkpt lat="43.69107" lon="3.39261">
        <ele>187.184937</ele>
        <time>2020-10-10T12:46:15Z</time>
      </trkpt>
      <trkpt lat="43.69113" lon="3.39212">
        <ele>181.303848</ele>
        <time>2020-10-10T12:46:23Z</time>
      </trkpt>
      <trkpt lat="43.69111" lon="3.39175">
        <ele>177.761932</ele>
        <time>2020-10-10T12:46:29Z</time>
      </trkpt>
      <trkpt lat="43.69112" lon="3.39147">
        <ele>174.744141</ele>
        <time>2020-10-10T12:46:33Z</time>
      </trkpt>
      <trkpt lat="43.69097" lon="3.39063">
        <ele>165.394501</ele>
        <time>2020-10-10T12:46:50Z</time>
      </trkpt>
      <trkpt lat="43.69069" lon="3.39045">
        <ele>163.544998</ele>
        <time>2020-10-10T12:47:01Z</time>
      </trkpt>
      <trkpt lat="43.69055" lon="3.39027">
        <ele>161.013748</ele>
        <time>2020-10-10T12:47:07Z</time>
      </trkpt>
      <trkpt lat="43.69062" lon="3.39004">
        <ele>158.152588</ele>
        <time>2020-10-10T12:47:14Z</time>
      </trkpt>
      <trkpt lat="43.69073" lon="3.38985">
        <ele>155.366302</ele>
        <time>2020-10-10T12:47:20Z</time>
      </trkpt>
      <trkpt lat="43.691" lon="3.38969">
        <ele>150.125549</ele>
        <time>2020-10-10T12:47:34Z</time>
      </trkpt>
      <trkpt lat="43.69123" lon="3.38945">
        <ele>143.528625</ele>
        <time>2020-10-10T12:47:43Z</time>
      </trkpt>
      <trkpt lat="43.69139" lon="3.38933">
        <ele>141.262894</ele>
        <time>2020-10-10T12:47:50Z</time>
      </trkpt>
      <trkpt lat="43.69166" lon="3.38928">
        <ele>138.814667</ele>
        <time>2020-10-10T12:47:59Z</time>
      </trkpt>
      <trkpt lat="43.69183" lon="3.38915">
        <ele>136.508987</ele>
        <time>2020-10-10T12:48:05Z</time>
      </trkpt>
      <trkpt lat="43.69185" lon="3.38864">
        <ele>132.416183</ele>
        <time>2020-10-10T12:48:14Z</time>
      </trkpt>
      <trkpt lat="43.69192" lon="3.38809">
        <ele>129.836243</ele>
        <time>2020-10-10T12:48:31Z</time>
      </trkpt>
      <trkpt lat="43.69188" lon="3.38775">
        <ele>129.471954</ele>
        <time>2020-10-10T12:48:46Z</time>
      </trkpt>
      <trkpt lat="43.69167" lon="3.38751">
        <ele>129.613205</ele>
        <time>2020-10-10T12:48:55Z</time>
      </trkpt>
      <trkpt lat="43.69174" lon="3.38738">
        <ele>129.981079</ele>
        <time>2020-10-10T12:49:01Z</time>
      </trkpt>
      <trkpt lat="43.69197" lon="3.38736">
        <ele>130.316818</ele>
        <time>2020-10-10T12:49:14Z</time>
      </trkpt>
      <trkpt lat="43.69196" lon="3.38734">
        <ele>130.346283</ele>
        <time>2020-10-10T12:50:29Z</time>
      </trkpt>
      <trkpt lat="43.6921" lon="3.38726">
        <ele>130.642639</ele>
        <time>2020-10-10T12:51:07Z</time>
      </trkpt>
      <trkpt lat="43.69246" lon="3.38677">
        <ele>133.422333</ele>
        <time>2020-10-10T12:51:24Z</time>
      </trkpt>
      <trkpt lat="43.69297" lon="3.38658">
        <ele>136.176498</ele>
        <time>2020-10-10T12:51:39Z</time>
      </trkpt>
      <trkpt lat="43.69354" lon="3.38647">
        <ele>139.164993</ele>
        <time>2020-10-10T12:51:56Z</time>
      </trkpt>
      <trkpt lat="43.69381" lon="3.38615">
        <ele>140.979599</ele>
        <time>2020-10-10T12:52:07Z</time>
      </trkpt>
      <trkpt lat="43.69389" lon="3.38559">
        <ele>141.144073</ele>
        <time>2020-10-10T12:52:20Z</time>
      </trkpt>
      <trkpt lat="43.69391" lon="3.38557">
        <ele>141.116669</ele>
        <time>2020-10-10T12:52:21Z</time>
      </trkpt>
      <trkpt lat="43.69398" lon="3.38534">
        <ele>140.987473</ele>
        <time>2020-10-10T12:53:37Z</time>
      </trkpt>
      <trkpt lat="43.69405" lon="3.38525">
        <ele>140.83403</ele>
        <time>2020-10-10T12:53:39Z</time>
      </trkpt>
      <trkpt lat="43.6941" lon="3.38523">
        <ele>140.711853</ele>
        <time>2020-10-10T12:53:40Z</time>
      </trkpt>
      <trkpt lat="43.69438" lon="3.38523">
        <ele>140.060425</ele>
        <time>2020-10-10T12:53:45Z</time>
      </trkpt>
      <trkpt lat="43.69474" lon="3.38504">
        <ele>137.677994</ele>
        <time>2020-10-10T12:53:52Z</time>
      </trkpt>
      <trkpt lat="43.69561" lon="3.38428">
        <ele>131.337341</ele>
        <time>2020-10-10T12:54:09Z</time>
      </trkpt>
      <trkpt lat="43.6957" lon="3.38427">
        <ele>131.343597</ele>
        <time>2020-10-10T12:54:11Z</time>
      </trkpt>
      <trkpt lat="43.69575" lon="3.38434">
        <ele>131.505569</ele>
        <time>2020-10-10T12:54:13Z</time>
      </trkpt>
      <trkpt lat="43.69602" lon="3.38546">
        <ele>135.602493</ele>
        <time>2020-10-10T12:54:33Z</time>
      </trkpt>
      <trkpt lat="43.69609" lon="3.3856">
        <ele>136.052505</ele>
        <time>2020-10-10T12:54:36Z</time>
      </trkpt>
      <trkpt lat="43.69674" lon="3.38653">
        <ele>139.398026</ele>
        <time>2020-10-10T12:54:58Z</time>
      </trkpt>
      <trkpt lat="43.69718" lon="3.38709">
        <ele>140.460007</ele>
        <time>2020-10-10T12:55:12Z</time>
      </trkpt>
      <trkpt lat="43.69754" lon="3.38804">
        <ele>142.425873</ele>
        <time>2020-10-10T12:55:30Z</time>
      </trkpt>
      <trkpt lat="43.69754" lon="3.38908">
        <ele>143.997803</ele>
        <time>2020-10-10T12:55:47Z</time>
      </trkpt>
      <trkpt lat="43.69751" lon="3.39022">
        <ele>142.175003</ele>
        <time>2020-10-10T12:56:05Z</time>
      </trkpt>
      <trkpt lat="43.69753" lon="3.39123">
        <ele>139.054993</ele>
        <time>2020-10-10T12:56:16Z</time>
      </trkpt>
      <trkpt lat="43.69768" lon="3.39213">
        <ele>139.404999</ele>
        <time>2020-10-10T12:56:25Z</time>
      </trkpt>
      <trkpt lat="43.69788" lon="3.39293">
        <ele>139.277496</ele>
        <time>2020-10-10T12:56:34Z</time>
      </trkpt>
      <trkpt lat="43.698" lon="3.39316">
        <ele>138.889313</ele>
        <time>2020-10-10T12:56:37Z</time>
      </trkpt>
      <trkpt lat="43.69805" lon="3.39332">
        <ele>138.62381</ele>
        <time>2020-10-10T12:56:39Z</time>
      </trkpt>
      <trkpt lat="43.69807" lon="3.39349">
        <ele>137.873871</ele>
        <time>2020-10-10T12:56:41Z</time>
      </trkpt>
      <trkpt lat="43.69805" lon="3.39373">
        <ele>136.292191</ele>
        <time>2020-10-10T12:56:44Z</time>
      </trkpt>
      <trkpt lat="43.69796" lon="3.39402">
        <ele>133.987503</ele>
        <time>2020-10-10T12:56:48Z</time>
      </trkpt>
      <trkpt lat="43.69796" lon="3.39417">
        <ele>132.957504</ele>
        <time>2020-10-10T12:56:50Z</time>
      </trkpt>
      <trkpt lat="43.69799" lon="3.39432">
        <ele>132.267502</ele>
        <time>2020-10-10T12:56:52Z</time>
      </trkpt>
      <trkpt lat="43.69863" lon="3.39538">
        <ele>132.554459</ele>
        <time>2020-10-10T12:57:09Z</time>
      </trkpt>
      <trkpt lat="43.69886" lon="3.39644">
        <ele>134.772491</ele>
        <time>2020-10-10T12:57:24Z</time>
      </trkpt>
      <trkpt lat="43.69894" lon="3.39743">
        <ele>135.752502</ele>
        <time>2020-10-10T12:57:39Z</time>
      </trkpt>
      <trkpt lat="43.69943" lon="3.39813">
        <ele>139.792496</ele>
        <time>2020-10-10T12:57:55Z</time>
      </trkpt>
      <trkpt lat="43.6998" lon="3.39824">
        <ele>140.318695</ele>
        <time>2020-10-10T12:58:03Z</time>
      </trkpt>
      <trkpt lat="43.70055" lon="3.39804">
        <ele>141.941254</ele>
        <time>2020-10-10T12:58:19Z</time>
      </trkpt>
      <trkpt lat="43.70156" lon="3.39756">
        <ele>140.56015</ele>
        <time>2020-10-10T12:58:40Z</time>
      </trkpt>
      <trkpt lat="43.70246" lon="3.3969">
        <ele>139.439621</ele>
        <time>2020-10-10T12:58:57Z</time>
      </trkpt>
      <trkpt lat="43.70252" lon="3.39688">
        <ele>139.405746</ele>
        <time>2020-10-10T12:58:58Z</time>
      </trkpt>
      <trkpt lat="43.70263" lon="3.3969">
        <ele>138.981995</ele>
        <time>2020-10-10T12:59:00Z</time>
      </trkpt>
      <trkpt lat="43.70274" lon="3.39699">
        <ele>138.415726</ele>
        <time>2020-10-10T12:59:02Z</time>
      </trkpt>
      <trkpt lat="43.70306" lon="3.3974">
        <ele>137.809906</ele>
        <time>2020-10-10T12:59:10Z</time>
      </trkpt>
      <trkpt lat="43.70319" lon="3.39749">
        <ele>138.163269</ele>
        <time>2020-10-10T12:59:13Z</time>
      </trkpt>
      <trkpt lat="43.70333" lon="3.3975">
        <ele>138.910004</ele>
        <time>2020-10-10T12:59:16Z</time>
      </trkpt>
      <trkpt lat="43.70346" lon="3.39743">
        <ele>139.395004</ele>
        <time>2020-10-10T12:59:19Z</time>
      </trkpt>
      <trkpt lat="43.70398" lon="3.39694">
        <ele>141.392776</ele>
        <time>2020-10-10T12:59:34Z</time>
      </trkpt>
      <trkpt lat="43.70437" lon="3.3963">
        <ele>144.5923</ele>
        <time>2020-10-10T12:59:49Z</time>
      </trkpt>
      <trkpt lat="43.70499" lon="3.39564">
        <ele>148.442505</ele>
        <time>2020-10-10T13:00:07Z</time>
      </trkpt>
      <trkpt lat="43.70529" lon="3.39517">
        <ele>150.050003</ele>
        <time>2020-10-10T13:00:17Z</time>
      </trkpt>
      <trkpt lat="43.70541" lon="3.39509">
        <ele>149.710007</ele>
        <time>2020-10-10T13:00:20Z</time>
      </trkpt>
      <trkpt lat="43.7055" lon="3.39508">
        <ele>149.220001</ele>
        <time>2020-10-10T13:00:22Z</time>
      </trkpt>
      <trkpt lat="43.70583" lon="3.3951">
        <ele>148.828812</ele>
        <time>2020-10-10T13:00:29Z</time>
      </trkpt>
      <trkpt lat="43.70591" lon="3.39516">
        <ele>148.587112</ele>
        <time>2020-10-10T13:00:31Z</time>
      </trkpt>
      <trkpt lat="43.70608" lon="3.39548">
        <ele>148.658752</ele>
        <time>2020-10-10T13:00:37Z</time>
      </trkpt>
      <trkpt lat="43.70615" lon="3.39551">
        <ele>149.199997</ele>
        <time>2020-10-10T13:00:39Z</time>
      </trkpt>
      <trkpt lat="43.70637" lon="3.39549">
        <ele>150.616257</ele>
        <time>2020-10-10T13:00:48Z</time>
      </trkpt>
      <trkpt lat="43.70666" lon="3.3953">
        <ele>151.649994</ele>
        <time>2020-10-10T13:00:58Z</time>
      </trkpt>
      <trkpt lat="43.70675" lon="3.39529">
        <ele>151.977493</ele>
        <time>2020-10-10T13:01:01Z</time>
      </trkpt>
      <trkpt lat="43.70693" lon="3.39554">
        <ele>153.124252</ele>
        <time>2020-10-10T13:01:13Z</time>
      </trkpt>
      <trkpt lat="43.70669" lon="3.39574">
        <ele>152.318405</ele>
        <time>2020-10-10T13:01:25Z</time>
      </trkpt>
      <trkpt lat="43.7067" lon="3.39581">
        <ele>152.390076</ele>
        <time>2020-10-10T13:02:12Z</time>
      </trkpt>
      <trkpt lat="43.70658" lon="3.39602">
        <ele>152.235001</ele>
        <time>2020-10-10T13:02:18Z</time>
      </trkpt>
      <trkpt lat="43.70642" lon="3.39615">
        <ele>151.356827</ele>
        <time>2020-10-10T13:02:22Z</time>
      </trkpt>
      <trkpt lat="43.70585" lon="3.39676">
        <ele>146.623001</ele>
        <time>2020-10-10T13:02:32Z</time>
      </trkpt>
      <trkpt lat="43.70484" lon="3.39793">
        <ele>139.742889</ele>
        <time>2020-10-10T13:02:45Z</time>
      </trkpt>
      <trkpt lat="43.7048" lon="3.39805">
        <ele>139.418686</ele>
        <time>2020-10-10T13:02:46Z</time>
      </trkpt>
      <trkpt lat="43.70476" lon="3.39841">
        <ele>138.399643</ele>
        <time>2020-10-10T13:02:49Z</time>
      </trkpt>
      <trkpt lat="43.70474" lon="3.39849">
        <ele>138.466248</ele>
        <time>2020-10-10T13:02:50Z</time>
      </trkpt>
      <trkpt lat="43.70468" lon="3.39855">
        <ele>138.613754</ele>
        <time>2020-10-10T13:02:51Z</time>
      </trkpt>
      <trkpt lat="43.7037" lon="3.39889">
        <ele>137.803879</ele>
        <time>2020-10-10T13:03:09Z</time>
      </trkpt>
      <trkpt lat="43.70282" lon="3.39957">
        <ele>137.940002</ele>
        <time>2020-10-10T13:03:28Z</time>
      </trkpt>
      <trkpt lat="43.70179" lon="3.4004">
        <ele>141.714996</ele>
        <time>2020-10-10T13:03:49Z</time>
      </trkpt>
      <trkpt lat="43.70086" lon="3.40078">
        <ele>142.925629</ele>
        <time>2020-10-10T13:04:05Z</time>
      </trkpt>
      <trkpt lat="43.69998" lon="3.40153">
        <ele>141.305283</ele>
        <time>2020-10-10T13:04:20Z</time>
      </trkpt>
      <trkpt lat="43.69975" lon="3.40188">
        <ele>141.427872</ele>
        <time>2020-10-10T13:04:25Z</time>
      </trkpt>
      <trkpt lat="43.69957" lon="3.402">
        <ele>140.865005</ele>
        <time>2020-10-10T13:04:28Z</time>
      </trkpt>
      <trkpt lat="43.69912" lon="3.40218">
        <ele>137.842499</ele>
        <time>2020-10-10T13:04:35Z</time>
      </trkpt>
      <trkpt lat="43.69895" lon="3.40236">
        <ele>137.177505</ele>
        <time>2020-10-10T13:04:38Z</time>
      </trkpt>
      <trkpt lat="43.69885" lon="3.40251">
        <ele>137.104996</ele>
        <time>2020-10-10T13:04:40Z</time>
      </trkpt>
      <trkpt lat="43.69824" lon="3.40329">
        <ele>132.562302</ele>
        <time>2020-10-10T13:04:50Z</time>
      </trkpt>
      <trkpt lat="43.69773" lon="3.4039">
        <ele>129.056244</ele>
        <time>2020-10-10T13:04:57Z</time>
      </trkpt>
      <trkpt lat="43.69753" lon="3.4042">
        <ele>127.837502</ele>
        <time>2020-10-10T13:05:00Z</time>
      </trkpt>
      <trkpt lat="43.69749" lon="3.40431">
        <ele>127.625</ele>
        <time>2020-10-10T13:05:01Z</time>
      </trkpt>
      <trkpt lat="43.69738" lon="3.40481">
        <ele>127.526245</ele>
        <time>2020-10-10T13:05:05Z</time>
      </trkpt>
      <trkpt lat="43.69727" lon="3.40503">
        <ele>126.979874</ele>
        <time>2020-10-10T13:05:07Z</time>
      </trkpt>
      <trkpt lat="43.69712" lon="3.40518">
        <ele>125.977501</ele>
        <time>2020-10-10T13:05:09Z</time>
      </trkpt>
      <trkpt lat="43.69686" lon="3.40529">
        <ele>124.137497</ele>
        <time>2020-10-10T13:05:12Z</time>
      </trkpt>
      <trkpt lat="43.69542" lon="3.40557">
        <ele>119.832329</ele>
        <time>2020-10-10T13:05:28Z</time>
      </trkpt>
      <trkpt lat="43.69523" lon="3.40567">
        <ele>118.744873</ele>
        <time>2020-10-10T13:05:30Z</time>
      </trkpt>
      <trkpt lat="43.69507" lon="3.40584">
        <ele>118.17881</ele>
        <time>2020-10-10T13:05:32Z</time>
      </trkpt>
      <trkpt lat="43.69487" lon="3.40614">
        <ele>117.577797</ele>
        <time>2020-10-10T13:05:35Z</time>
      </trkpt>
      <trkpt lat="43.69474" lon="3.40627">
        <ele>116.664124</ele>
        <time>2020-10-10T13:05:37Z</time>
      </trkpt>
      <trkpt lat="43.69467" lon="3.40629">
        <ele>116.029472</ele>
        <time>2020-10-10T13:05:38Z</time>
      </trkpt>
      <trkpt lat="43.69459" lon="3.40628">
        <ele>115.851357</ele>
        <time>2020-10-10T13:05:39Z</time>
      </trkpt>
      <trkpt lat="43.69424" lon="3.40602">
        <ele>115.494423</ele>
        <time>2020-10-10T13:05:45Z</time>
      </trkpt>
      <trkpt lat="43.69413" lon="3.406">
        <ele>115.77459</ele>
        <time>2020-10-10T13:05:47Z</time>
      </trkpt>
      <trkpt lat="43.69403" lon="3.40602">
        <ele>116.055191</ele>
        <time>2020-10-10T13:05:49Z</time>
      </trkpt>
      <trkpt lat="43.69395" lon="3.40607">
        <ele>116.188576</ele>
        <time>2020-10-10T13:05:51Z</time>
      </trkpt>
      <trkpt lat="43.69363" lon="3.4064">
        <ele>116.806526</ele>
        <time>2020-10-10T13:06:01Z</time>
      </trkpt>
      <trkpt lat="43.69311" lon="3.40724">
        <ele>118.419159</ele>
        <time>2020-10-10T13:06:18Z</time>
      </trkpt>
      <trkpt lat="43.69281" lon="3.4079">
        <ele>118.040283</ele>
        <time>2020-10-10T13:06:29Z</time>
      </trkpt>
      <trkpt lat="43.69267" lon="3.40815">
        <ele>117.894531</ele>
        <time>2020-10-10T13:06:33Z</time>
      </trkpt>
      <trkpt lat="43.69238" lon="3.40846">
        <ele>118.472221</ele>
        <time>2020-10-10T13:06:39Z</time>
      </trkpt>
      <trkpt lat="43.69173" lon="3.40947">
        <ele>117.419403</ele>
        <time>2020-10-10T13:06:55Z</time>
      </trkpt>
      <trkpt lat="43.69118" lon="3.40991">
        <ele>119.401253</ele>
        <time>2020-10-10T13:07:06Z</time>
      </trkpt>
      <trkpt lat="43.69094" lon="3.41021">
        <ele>116.730522</ele>
        <time>2020-10-10T13:07:11Z</time>
      </trkpt>
      <trkpt lat="43.69081" lon="3.41031">
        <ele>116.801933</ele>
        <time>2020-10-10T13:07:13Z</time>
      </trkpt>
      <trkpt lat="43.69061" lon="3.41039">
        <ele>119.502464</ele>
        <time>2020-10-10T13:07:16Z</time>
      </trkpt>
      <trkpt lat="43.6902" lon="3.41044">
        <ele>125.885078</ele>
        <time>2020-10-10T13:07:23Z</time>
      </trkpt>
      <trkpt lat="43.68946" lon="3.41088">
        <ele>130.592545</ele>
        <time>2020-10-10T13:07:40Z</time>
      </trkpt>
      <trkpt lat="43.68902" lon="3.41126">
        <ele>126.636543</ele>
        <time>2020-10-10T13:07:50Z</time>
      </trkpt>
      <trkpt lat="43.68867" lon="3.41129">
        <ele>130.235703</ele>
        <time>2020-10-10T13:08:13Z</time>
      </trkpt>
      <trkpt lat="43.68849" lon="3.41151">
        <ele>127.739998</ele>
        <time>2020-10-10T13:09:04Z</time>
      </trkpt>
      <trkpt lat="43.68835" lon="3.41195">
        <ele>124.344284</ele>
        <time>2020-10-10T13:09:12Z</time>
      </trkpt>
      <trkpt lat="43.68786" lon="3.41271">
        <ele>125.516197</ele>
        <time>2020-10-10T13:09:28Z</time>
      </trkpt>
      <trkpt lat="43.68745" lon="3.41311">
        <ele>126.494377</ele>
        <time>2020-10-10T13:09:37Z</time>
      </trkpt>
      <trkpt lat="43.68692" lon="3.41343">
        <ele>123.858154</ele>
        <time>2020-10-10T13:09:47Z</time>
      </trkpt>
      <trkpt lat="43.68654" lon="3.41348">
        <ele>126.069824</ele>
        <time>2020-10-10T13:09:53Z</time>
      </trkpt>
      <trkpt lat="43.68637" lon="3.41366">
        <ele>123.915497</ele>
        <time>2020-10-10T13:09:57Z</time>
      </trkpt>
      <trkpt lat="43.68627" lon="3.41369">
        <ele>123.725998</ele>
        <time>2020-10-10T13:09:59Z</time>
      </trkpt>
      <trkpt lat="43.68619" lon="3.41361">
        <ele>124.724602</ele>
        <time>2020-10-10T13:10:01Z</time>
      </trkpt>
      <trkpt lat="43.68593" lon="3.41287">
        <ele>130.215271</ele>
        <time>2020-10-10T13:10:15Z</time>
      </trkpt>
      <trkpt lat="43.68571" lon="3.41255">
        <ele>129.853439</ele>
        <time>2020-10-10T13:10:22Z</time>
      </trkpt>
      <trkpt lat="43.6855" lon="3.41214">
        <ele>129.499817</ele>
        <time>2020-10-10T13:10:29Z</time>
      </trkpt>
      <trkpt lat="43.68546" lon="3.4121">
        <ele>129.172241</ele>
        <time>2020-10-10T13:10:30Z</time>
      </trkpt>
      <trkpt lat="43.68527" lon="3.41202">
        <ele>126.391426</ele>
        <time>2020-10-10T13:10:34Z</time>
      </trkpt>
      <trkpt lat="43.68519" lon="3.41195">
        <ele>125.757492</ele>
        <time>2020-10-10T13:10:36Z</time>
      </trkpt>
      <trkpt lat="43.68391" lon="3.41124">
        <ele>117.102501</ele>
        <time>2020-10-10T13:10:58Z</time>
      </trkpt>
      <trkpt lat="43.68233" lon="3.41029">
        <ele>105.414833</ele>
        <time>2020-10-10T13:11:26Z</time>
      </trkpt>
      <trkpt lat="43.6823" lon="3.4103">
        <ele>105.164673</ele>
        <time>2020-10-10T13:11:27Z</time>
      </trkpt>
      <trkpt lat="43.68222" lon="3.41049">
        <ele>104.107498</ele>
        <time>2020-10-10T13:11:31Z</time>
      </trkpt>
      <trkpt lat="43.68203" lon="3.41068">
        <ele>102.547684</ele>
        <time>2020-10-10T13:11:42Z</time>
      </trkpt>
      <trkpt lat="43.68203" lon="3.4107">
        <ele>102.490685</ele>
        <time>2020-10-10T13:12:00Z</time>
      </trkpt>
      <trkpt lat="43.6821" lon="3.41069">
        <ele>102.932503</ele>
        <time>2020-10-10T13:14:06Z</time>
      </trkpt>
    </trkseg>
  </trk>
</gpx>